Provisional Data: Catatonk Creek near Spencer, NY


Please select a monitoring station.
Please select start date.
Please select start date.

Toggle Unit: C/F Toggle Unit: C/F
Sample Time Temperature (C) Temperature (F) Specific Conductivity (mS/cm) pH   Turbidity (NTU+) DO (mg/L)
10/17/2022 12:00:00 AM 11.84 53.312 0.557 7.2 2.49 2.32
10/17/2022 12:15:00 AM 11.83 53.294 0.558 7.21 0.93 2.2
10/17/2022 12:30:00 AM 11.85 53.33 0.573 7.19 1.09 2.03
10/17/2022 12:45:00 AM 11.81 53.258 0.573 7.19 1.11 2.06
10/17/2022 1:00:00 AM 11.79 53.222 0.567 7.2 1.48 2.15
10/17/2022 1:15:00 AM 11.78 53.204 0.577 7.18 1.02 2.04
10/17/2022 1:30:00 AM 11.74 53.132 0.568 7.18 1.02 2.1
10/17/2022 1:45:00 AM 11.76 53.168 0.587 7.17 0.85 1.71
10/17/2022 2:00:00 AM 11.73 53.114 0.599 7.15 1.09 1.76
10/17/2022 2:15:00 AM 11.58 52.844 0.571 7.19 1.72 2.25
10/17/2022 2:30:00 AM 11.71 53.078 0.596 7.15 1.11 1.73
10/17/2022 2:45:00 AM 11.67 53.006 0.589 7.16 0.97 1.79
10/17/2022 3:00:00 AM 11.46 52.628 0.529 7.19 1.22 2.41
10/17/2022 3:15:00 AM 11.54 52.772 0.57 7.15 2.99 2.23
10/17/2022 3:30:00 AM 11.51 52.718 0.555 7.21 1.31 2.35
10/17/2022 3:45:00 AM 11.52 52.736 0.565 7.18 0.99 2.06
10/17/2022 4:00:00 AM 11.54 52.772 0.57 7.16 0.93 1.9
10/17/2022 4:15:00 AM 11.57 52.826 0.6 7.13 0.95 1.68
10/17/2022 4:30:00 AM 11.52 52.736 0.577 7.15 0.93 1.77
10/17/2022 4:45:00 AM 11.52 52.736 0.585 7.15 1.28 1.83
10/17/2022 5:00:00 AM 11.39 52.502 0.565 7.19 1.08 2.39
10/17/2022 5:15:00 AM 11.36 52.448 0.554 7.25 2.31 2.46
10/17/2022 5:30:00 AM 11.29 52.322 0.534 7.2 3.12 2.78
10/17/2022 5:45:00 AM 11.31 52.358 0.552 7.17 3.5 2.6
10/17/2022 6:00:00 AM 11.28 52.304 0.548 7.18 1.93 2.64
10/17/2022 6:15:00 AM 11.15 52.07 0.529 7.2 1.91 2.94
10/17/2022 6:30:00 AM 11.09 51.962 0.517 7.23 2.33 3.07
10/17/2022 6:45:00 AM 10.92 51.656 0.197 7.27 2.27 3.84
10/17/2022 7:00:00 AM 11.13 52.034 0.532 7.14 1.45 2.43
10/17/2022 7:15:00 AM 11.04 51.872 0.521 7.2 1.41 2.94
10/17/2022 7:30:00 AM 10.99 51.782 0.52 7.21 1.94 3.08
10/17/2022 7:45:00 AM 10.91 51.638 0.513 7.21 2.34 3.31
10/17/2022 8:00:00 AM 10.71 51.278 0.492 7.27 2.38 4.29
10/17/2022 8:15:00 AM 10.31 50.558 0.432 7.39 3.08 6.08
10/17/2022 8:30:00 AM 10.3 50.54 0.432 7.38 4.17 6.42
10/17/2022 8:45:00 AM 10.2 50.36 0.411 7.41 2.6 6.93
10/17/2022 9:00:00 AM 10.15 50.27 0.407 7.41 2.35 7.01
10/17/2022 9:15:00 AM 10.09 50.162 0.404 7.42 2.33 7.21
10/17/2022 9:30:00 AM 10.09 50.162 0.41 7.41 3.21 7.2
10/17/2022 9:45:00 AM 10.07 50.126 0.406 7.41 2.9 7.22
10/17/2022 10:00:00 AM 10.06 50.108 0.405 7.41 2.59 7.28
10/17/2022 10:15:00 AM 10.03 50.054 0.406 7.41 2.95 7.34
10/17/2022 10:30:00 AM 10 50 0.408 7.42 2.76 7.5
10/17/2022 10:45:00 AM 10 50 0.315 7.42 2.82 7.52
10/17/2022 11:00:00 AM 10.01 50.018 0.406 7.42 3.6 7.57
10/17/2022 11:15:00 AM 10.04 50.072 0.399 7.41 3.63 7.52
10/17/2022 11:30:00 AM 10.07 50.126 0.414 7.42 2.81 7.62
10/17/2022 11:45:00 AM 10.11 50.198 0.414 7.43 1.65 7.82
10/17/2022 12:00:00 PM 10.16 50.288 0.414 7.43 1.7 7.8
10/17/2022 12:15:00 PM 10.26 50.468 0.421 7.44 1.83 7.62
10/17/2022 12:30:00 PM 10.36 50.648 0.436 7.44 1.54 7.62
10/17/2022 12:45:00 PM 10.4 50.72 0.43 7.45 1.55 7.69
10/17/2022 1:00:00 PM 10.47 50.846 0.444 7.46 1.59 7.21
10/17/2022 1:15:00 PM 10.47 50.846 0.443 7.41 1.56 6.92
10/17/2022 1:30:00 PM 10.42 50.756 0.425 7.46 2.14 7.75
10/17/2022 1:45:00 PM 10.41 50.738 0.433 7.46 4.85 7.92
10/17/2022 2:00:00 PM 10.45 50.81 0.442 7.44 1.62 7.75
10/17/2022 2:15:00 PM 10.45 50.81 0.422 7.49 1.88 8.02
10/17/2022 2:30:00 PM 10.52 50.936 0.431 7.48 1.86 8.25
10/17/2022 2:45:00 PM 10.68 51.224 0.455 7.44 1.43 7.56
10/17/2022 3:00:00 PM 10.71 51.278 0.461 7.45 1.49 7.67
10/17/2022 3:15:00 PM 10.83 51.494 0.459 7.43 1.42 6.81
10/17/2022 3:30:00 PM 10.83 51.494 0.453 7.47 1.49 7.95
10/17/2022 3:45:00 PM 10.88 51.584 0.454 7.46 1.69 7.26
10/17/2022 4:00:00 PM 11.04 51.872 0.476 7.42 1.39 6.72
10/17/2022 4:15:00 PM 10.94 51.692 0.459 7.47 1.44 7.47
10/17/2022 4:30:00 PM 10.98 51.764 0.471 7.44 1.41 7.15
10/17/2022 4:45:00 PM 10.9 51.62 0.446 7.52 1.6 8.73
10/17/2022 5:00:00 PM 10.83 51.494 0.411 7.61 2.17 9.76
10/17/2022 5:15:00 PM 10.89 51.602 0.417 7.59 1.59 9.41
10/17/2022 5:30:00 PM 10.8 51.44 0.401 7.63 1.59 9.91
10/17/2022 5:45:00 PM 10.8 51.44 0.4 7.61 1.58 9.65
10/17/2022 6:00:00 PM 10.8 51.44 0.408 7.61 1.67 9.57
10/17/2022 6:15:00 PM 10.78 51.404 0.407 7.62 1.72 9.61
10/17/2022 6:30:00 PM 10.8 51.44 0.405 7.61 1.62 9.29
10/17/2022 6:45:00 PM 10.81 51.458 0.416 7.59 2.02 9.1
10/17/2022 7:00:00 PM 10.78 51.404 0.421 7.59 1.91 9.32
10/17/2022 7:15:00 PM 10.7 51.26 0.407 7.61 1.75 9.38
10/17/2022 7:30:00 PM 10.72 51.296 0.414 7.6 1.69 9.28
10/17/2022 7:45:00 PM 10.67 51.206 0.407 7.61 1.78 9.39
10/17/2022 8:00:00 PM 10.64 51.152 0.4 7.62 1.81 9.4
10/17/2022 8:15:00 PM 10.61 51.098 0.407 7.61 1.8 9.43
10/17/2022 8:30:00 PM 10.64 51.152 0.428 7.61 1.83 9.18
10/17/2022 8:45:00 PM 10.57 51.026 0.4 7.61 2.01 9.27
10/17/2022 9:00:00 PM 10.51 50.918 0.399 7.61 1.88 9.12
10/17/2022 9:15:00 PM 10.51 50.918 0.407 7.59 1.89 8.95
10/17/2022 9:30:00 PM 10.44 50.792 0.396 7.6 1.85 9.1
10/17/2022 9:45:00 PM 10.4 50.72 0.397 7.59 2.55 9.03
10/17/2022 10:00:00 PM 10.38 50.684 0.402 7.59 1.79 8.9
10/17/2022 10:15:00 PM 10.34 50.612 0.289 7.57 2.17 8.82
10/17/2022 10:30:00 PM 10.3 50.54 0.401 7.56 1.68 8.6
10/17/2022 10:45:00 PM 10.24 50.432 0.398 7.56 2.7 8.65
10/17/2022 11:00:00 PM 10.22 50.396 0.397 7.55 2.63 8.51
10/17/2022 11:15:00 PM 10.19 50.342 0.401 7.54 2.5 8.39
10/17/2022 11:30:00 PM 10.14 50.252 0.4 7.54 1.86 8.34
10/17/2022 11:45:00 PM 10.07 50.126 0.398 7.54 2.81 8.35
10/18/2022 12:00:00 AM 10.03 50.054 0.399 7.53 3.04 8.28
10/18/2022 12:15:00 AM 10 50 0.292 7.52 2.27 8.23
10/18/2022 12:30:00 AM 9.98 49.964 0.399 7.42 2.22 8.13
10/18/2022 12:45:00 AM 9.91 49.838 0.397 7.51 2.19 8.22
10/18/2022 1:00:00 AM 9.9 49.82 0.4 7.5 2.26 8.09
10/18/2022 1:15:00 AM 9.84 49.712 0.401 7.51 2.95 8.11
10/18/2022 1:30:00 AM 9.81 49.658 0.399 7.5 2.98 8.05
10/18/2022 1:45:00 AM 9.74 49.532 0.397 7.5 1.89 8.1
10/18/2022 2:00:00 AM 9.69 49.442 0.398 7.5 1.83 8.06
10/18/2022 2:15:00 AM 9.64 49.352 0.398 7.49 1.76 8.07
10/18/2022 2:30:00 AM 9.6 49.28 0.401 7.49 1.74 7.97
10/18/2022 2:45:00 AM 9.6 49.28 0.406 7.47 1.89 7.87
10/18/2022 3:00:00 AM 9.51 49.118 0.4 7.48 1.99 7.9
10/18/2022 3:15:00 AM 9.45 49.01 0.401 7.48 1.92 7.93
10/18/2022 3:30:00 AM 9.41 48.938 0.401 7.47 2 7.83
10/18/2022 3:45:00 AM 9.35 48.83 0.401 7.46 2.01 7.86
10/18/2022 4:00:00 AM 9.31 48.758 0.402 7.46 2.86 7.8
10/18/2022 4:15:00 AM 9.26 48.668 0.404 7.44 6.65 7.65
10/18/2022 4:30:00 AM 9.2 48.56 0.401 7.46 4.63 7.8
10/18/2022 4:45:00 AM 9.13 48.434 0.367 7.46 4.42 7.85
10/18/2022 5:00:00 AM 9.07 48.326 0.4 7.46 3.97 7.87
10/18/2022 5:15:00 AM 9.02 48.236 0.399 7.46 3.17 7.88
10/18/2022 5:30:00 AM 8.96 48.128 0.4 7.46 3.91 7.9
10/18/2022 5:45:00 AM 8.86 47.948 0.399 7.46 2.55 7.94
10/18/2022 6:00:00 AM 8.81 47.858 0.399 7.46 3.2 7.93
10/18/2022 6:15:00 AM 8.76 47.768 0.25 7.45 3.14 7.92
10/18/2022 6:30:00 AM 8.72 47.696 0.4 7.45 3.87 7.91
10/18/2022 6:45:00 AM 8.65 47.57 0.4 7.45 2.51 7.92
10/18/2022 7:00:00 AM 8.62 47.516 0.401 7.45 2.19 7.91
10/18/2022 7:15:00 AM 8.56 47.408 0.401 7.44 2.6 7.9
10/18/2022 7:30:00 AM 8.49 47.282 0.401 7.45 2.63 7.92
10/18/2022 7:45:00 AM 8.44 47.192 0.401 7.44 3.92 7.94
10/18/2022 8:00:00 AM 8.39 47.102 0.314 7.44 6.82 7.96
10/18/2022 8:15:00 AM 8.35 47.03 0.402 7.44 3.84 7.96
10/18/2022 8:30:00 AM 8.32 46.976 0.402 7.44 2.93 8
10/18/2022 8:45:00 AM 8.29 46.922 0.402 7.45 2.55 8.03
10/18/2022 9:00:00 AM 8.29 46.922 0.402 7.45 2.42 8.1
10/18/2022 9:15:00 AM 8.27 46.886 0.339 7.45 2.7 8.18
10/18/2022 9:30:00 AM 8.27 46.886 0.403 7.46 3.33 8.21
10/18/2022 9:45:00 AM 8.26 46.868 0.404 7.47 2.08 8.33
10/18/2022 10:00:00 AM 8.28 46.904 0.402 7.47 1.96 8.4
10/18/2022 10:15:00 AM 8.29 46.922 0.403 7.48 1.95 8.5
10/18/2022 10:30:00 AM 8.32 46.976 0.403 7.49 1.97 8.56
10/18/2022 10:45:00 AM 8.36 47.048 0.338 7.49 1.82 8.64
10/18/2022 11:00:00 AM 8.39 47.102 0.404 7.5 1.84 8.73
10/18/2022 11:15:00 AM 8.43 47.174 0.404 7.51 1.74 8.85
10/18/2022 11:30:00 AM 8.47 47.246 0.405 7.52 1.73 8.94
10/18/2022 11:45:00 AM 8.48 47.264 0.405 7.53 1.8 9.04
10/18/2022 12:00:00 PM 8.48 47.264 0.404 7.54 1.77 9.12
10/18/2022 12:15:00 PM 8.53 47.354 0.406 7.55 1.67 9.2
10/18/2022 12:30:00 PM 8.55 47.39 0.406 7.56 1.62 9.31
10/18/2022 12:45:00 PM 8.57 47.426 0.404 7.57 1.77 9.45
10/18/2022 1:00:00 PM 8.64 47.552 0.404 7.58 4.79 9.58
10/18/2022 1:15:00 PM 8.71 47.678 0.406 7.59 1.78 9.65
10/18/2022 1:30:00 PM 8.74 47.732 0.404 7.61 2.07 9.89
10/18/2022 1:45:00 PM 8.84 47.912 0.404 7.62 2.17 10.01
10/18/2022 2:00:00 PM 8.91 48.038 0.405 7.63 3.61 10.18
10/18/2022 2:15:00 PM 8.98 48.164 0.39 7.64 2.93 10.27
10/18/2022 2:30:00 PM 9.04 48.272 0.404 7.65 2.54 10.39
10/18/2022 2:45:00 PM 9.1 48.38 0.241 7.66 2 10.49
10/18/2022 3:00:00 PM 9.16 48.488 0.24 7.67 1.98 10.57
10/18/2022 3:15:00 PM 9.2 48.56 0.405 7.68 1.97 10.71
10/18/2022 3:30:00 PM 9.24 48.632 0.405 7.69 2.09 10.78
10/18/2022 3:45:00 PM 9.27 48.686 0.405 7.69 1.71 10.79
10/18/2022 4:00:00 PM 9.32 48.776 0.403 7.7 1.59 10.89
10/18/2022 4:15:00 PM 9.37 48.866 0.405 7.71 2.41 10.94
10/18/2022 4:30:00 PM 9.42 48.956 0.408 7.71 1.75 10.92
10/18/2022 4:45:00 PM 9.46 49.028 0.42 7.69 1.67 10.85
10/18/2022 5:00:00 PM 9.43 48.974 0.402 7.71 2.46 10.96
10/18/2022 5:15:00 PM 9.44 48.992 0.416 7.71 2.6 10.92
10/18/2022 5:30:00 PM 9.42 48.956 0.41 7.7 2.09 10.89
10/18/2022 5:45:00 PM 9.39 48.902 0.236 7.72 2.76 10.96
10/18/2022 6:00:00 PM 9.39 48.902 0.432 7.72 3.05 10.92
10/18/2022 6:15:00 PM 9.41 48.938 0.416 7.7 2.62 10.78
10/18/2022 6:30:00 PM 9.36 48.848 0.365 7.71 3.17 10.87
10/18/2022 6:45:00 PM 9.34 48.812 0.406 7.71 1.72 10.74
10/18/2022 7:00:00 PM 9.31 48.758 0.407 7.71 1.75 10.76
10/18/2022 7:15:00 PM 9.31 48.758 0.407 7.7 1.61 10.63
10/18/2022 7:30:00 PM 9.3 48.74 0.411 7.69 1.97 10.48
10/18/2022 7:45:00 PM 9.26 48.668 0.411 7.69 1.73 10.51
10/18/2022 8:00:00 PM 9.24 48.632 0.412 7.69 4.3 10.35
10/18/2022 8:15:00 PM 9.23 48.614 0.413 7.67 7.97 10.11
10/18/2022 8:30:00 PM 9.14 48.452 0.411 7.68 2.05 10.35
10/18/2022 8:45:00 PM 9.11 48.398 0.407 7.68 2.02 10.29
10/18/2022 9:00:00 PM 9.03 48.254 0.403 7.68 2.07 10.23
10/18/2022 9:15:00 PM 9.02 48.236 0.416 7.67 2.11 10.12
10/18/2022 9:30:00 PM 8.97 48.146 0.405 7.66 2.13 9.99
10/18/2022 9:45:00 PM 8.93 48.074 0.409 7.65 2.06 9.9
10/18/2022 10:00:00 PM 8.88 47.984 0.406 7.64 2.16 9.74
10/18/2022 10:15:00 PM 8.82 47.876 0.414 7.63 2.16 9.65
10/18/2022 10:30:00 PM 8.76 47.768 0.407 7.63 2.48 9.61
10/18/2022 10:45:00 PM 8.71 47.678 0.41 7.62 1.85 9.51
10/18/2022 11:00:00 PM 8.64 47.552 0.406 7.61 1.94 9.43
10/18/2022 11:15:00 PM 8.6 47.48 0.407 7.6 2.14 9.3
10/18/2022 11:30:00 PM 8.55 47.39 0.406 7.6 3.95 9.27
10/18/2022 11:45:00 PM 8.53 47.354 0.408 7.58 2.41 9.16
10/19/2022 12:00:00 AM 8.49 47.282 0.409 7.57 2.54 9.09
10/19/2022 12:15:00 AM 8.45 47.21 0.412 7.57 2.38 8.99
10/19/2022 12:30:00 AM 8.39 47.102 0.409 7.56 5.05 8.93
10/19/2022 12:45:00 AM 8.35 47.03 0.411 7.56 3.01 8.91
10/19/2022 1:00:00 AM 8.31 46.958 0.408 7.56 2.22 8.86
10/19/2022 1:15:00 AM 8.26 46.868 0.412 7.55 2.14 8.82
10/19/2022 1:30:00 AM 8.2 46.76 0.407 7.55 2.02 8.81
10/19/2022 1:45:00 AM 8.18 46.724 0.421 7.54 1.92 8.73
10/19/2022 2:00:00 AM 8.13 46.634 0.412 7.54 2.33 8.73
10/19/2022 2:15:00 AM 8.11 46.598 0.408 7.53 2.18 8.66
10/19/2022 2:30:00 AM 8.04 46.472 0.408 7.53 1.95 8.66
10/19/2022 2:45:00 AM 7.99 46.382 0.415 7.52 1.91 8.61
10/19/2022 3:00:00 AM 7.98 46.364 0.422 7.52 2.27 8.59
10/19/2022 3:15:00 AM 7.97 46.346 0.415 7.5 3.33 8.4
10/19/2022 3:30:00 AM 7.91 46.238 0.41 7.5 2.71 8.44
10/19/2022 3:45:00 AM 7.85 46.13 0.414 7.5 2.05 8.45
10/19/2022 4:00:00 AM 7.86 46.148 0.412 7.49 3.75 8.37
10/19/2022 4:15:00 AM 7.83 46.094 0.421 7.49 2.85 8.3
10/19/2022 4:30:00 AM 7.74 45.932 0.412 7.49 2.92 8.36
10/19/2022 4:45:00 AM 7.73 45.914 0.413 7.49 2.8 8.31
10/19/2022 5:00:00 AM 7.73 45.914 0.419 7.48 2.55 8.33
10/19/2022 5:15:00 AM 7.71 45.878 0.414 7.48 3.51 8.22
10/19/2022 5:30:00 AM 7.69 45.842 0.404 7.46 27.67 8.11
10/19/2022 5:45:00 AM 8.01 46.418 0.429 7.4 21.68 7.33
10/19/2022 6:00:00 AM 7.8 46.04 0.425 7.43 8.92 7.63
10/19/2022 6:15:00 AM 7.65 45.77 0.417 7.47 4.06 8.07
10/19/2022 6:30:00 AM 7.6 45.68 0.411 7.47 3.95 8.17
10/19/2022 6:45:00 AM 7.56 45.608 0.414 7.47 3.68 8.22
10/19/2022 7:00:00 AM 7.58 45.644 0.402 7.47 3.8 8.2
10/19/2022 7:15:00 AM 7.58 45.644 0.411 7.46 6.16 8.13
10/19/2022 7:30:00 AM 7.55 45.59 0.422 7.46 3.2 8.1
10/19/2022 7:45:00 AM 7.54 45.572 0.412 7.47 5.21 8.12
10/19/2022 8:00:00 AM 7.53 45.554 0.416 7.47 2.25 8.16
10/19/2022 8:15:00 AM 7.49 45.482 0.412 7.47 2.54 8.21
10/19/2022 8:30:00 AM 7.47 45.446 0.423 7.47 2.47 8.24
10/19/2022 8:45:00 AM 7.56 45.608 0.432 7.46 2.29 8.07
10/19/2022 9:00:00 AM 7.64 45.752 0.446 7.46 2.08 8.1
10/19/2022 9:15:00 AM 7.65 45.77 0.428 7.44 2.37 7.97
10/19/2022 9:30:00 AM 7.7 45.86 0.449 7.46 2.86 8.27
10/19/2022 9:45:00 AM 7.7 45.86 0.411 7.47 1.98 8.31
10/19/2022 10:00:00 AM 7.67 45.806 0.45 7.49 2.32 8.43
10/19/2022 10:15:00 AM 7.62 45.716 0.408 7.51 2.36 8.82
10/19/2022 10:30:00 AM 7.7 45.86 0.322 7.51 2.67 8.86
10/19/2022 10:45:00 AM 7.76 45.968 0.419 7.51 2.38 8.87
10/19/2022 11:00:00 AM 7.83 46.094 0.42 7.52 2.23 8.95
10/19/2022 11:15:00 AM 7.84 46.112 0.413 7.53 2.25 9.08
10/19/2022 11:30:00 AM 7.88 46.184 0.417 7.53 2.25 9.15
10/19/2022 11:45:00 AM 7.85 46.13 0.42 7.55 2.18 9.29
10/19/2022 12:00:00 PM 7.96 46.328 0.432 7.54 2.17 9.27
10/19/2022 12:15:00 PM 8.02 46.436 0.442 7.56 3.7 9.25
10/19/2022 12:30:00 PM 8.03 46.454 0.425 7.55 2.01 9.45
10/19/2022 12:45:00 PM 8.06 46.508 0.413 7.56 10.07 9.48
10/19/2022 1:00:00 PM 8.11 46.598 0.421 7.57 1.9 9.68
10/19/2022 1:15:00 PM 8.28 46.904 0.429 7.59 1.81 9.66
10/19/2022 1:30:00 PM 8.23 46.814 0.426 7.6 1.78 9.96
10/19/2022 1:45:00 PM 8.29 46.922 0.426 7.59 1.76 10.02
10/19/2022 2:00:00 PM 8.36 47.048 0.42 7.62 1.95 10.28
10/19/2022 2:15:00 PM 8.44 47.192 0.45 7.62 1.67 10.2
10/19/2022 2:30:00 PM 8.46 47.228 0.435 7.63 1.89 10.48
10/19/2022 2:45:00 PM 8.53 47.354 0.439 7.65 1.8 10.57
10/19/2022 3:00:00 PM 8.52 47.336 0.427 7.65 1.7 10.69
10/19/2022 3:15:00 PM 8.62 47.516 0.44 7.65 1.72 10.74
10/19/2022 3:30:00 PM 8.71 47.678 0.429 7.65 1.61 10.66
10/19/2022 3:45:00 PM 8.7 47.66 0.431 7.66 1.68 10.82
10/19/2022 4:00:00 PM 8.8 47.84 0.443 7.64 1.66 10.63
10/19/2022 4:15:00 PM 8.8 47.84 0.429 7.65 1.61 10.74
10/19/2022 4:30:00 PM 8.89 48.002 0.437 7.66 1.61 10.83
10/19/2022 4:45:00 PM 8.85 47.93 0.431 7.66 1.68 10.78
10/19/2022 5:00:00 PM 8.88 47.984 0.433 7.66 1.72 10.72
10/19/2022 5:15:00 PM 8.95 48.11 0.433 7.63 1.75 10.5
10/19/2022 5:30:00 PM 8.96 48.128 0.435 7.64 1.71 10.44
10/19/2022 5:45:00 PM 9.01 48.218 0.464 7.63 1.89 10.37
10/19/2022 6:00:00 PM 9.02 48.236 0.455 7.64 1.73 10.51
10/19/2022 6:15:00 PM 8.89 48.002 0.428 7.64 20.72 10.3
10/19/2022 6:30:00 PM 8.97 48.146 0.459 7.64 2.37 10.24
10/19/2022 6:45:00 PM 8.88 47.984 0.441 7.66 1.96 10.66
10/19/2022 7:00:00 PM 8.86 47.948 0.431 7.65 2.09 10.5
10/19/2022 7:15:00 PM 8.88 47.984 0.431 7.63 2.38 10.15
10/19/2022 7:30:00 PM 8.84 47.912 0.393 7.63 3.17 10.38
10/19/2022 7:45:00 PM 8.81 47.858 0.424 7.63 1.69 10.21
10/19/2022 8:00:00 PM 8.81 47.858 0.431 7.6 1.83 9.92
10/19/2022 8:15:00 PM 8.81 47.858 0.431 7.6 1.68 9.87
10/19/2022 8:30:00 PM 8.77 47.786 0.43 7.61 2.3 9.93
10/19/2022 8:45:00 PM 8.74 47.732 0.438 7.58 2.05 9.92
10/19/2022 9:00:00 PM 8.74 47.732 0.458 7.62 2.31 10.04
10/19/2022 9:15:00 PM 8.7 47.66 0.441 7.6 1.89 9.94
10/19/2022 9:30:00 PM 8.61 47.498 0.422 7.62 2.66 10.05
10/19/2022 9:45:00 PM 8.6 47.48 0.429 7.61 2.59 9.87
10/19/2022 10:00:00 PM 8.59 47.462 0.442 7.6 2.53 9.75
10/19/2022 10:15:00 PM 8.52 47.336 0.43 7.61 2.61 9.73
10/19/2022 10:30:00 PM 8.53 47.354 0.43 7.59 2.51 9.41
10/19/2022 10:45:00 PM 8.51 47.318 0.435 7.57 2.64 9.27
10/19/2022 11:00:00 PM 8.42 47.156 0.399 7.56 3.26 9.1
10/19/2022 11:15:00 PM 8.5 47.3 0.418 7.54 3.37 8.86
10/19/2022 11:30:00 PM 8.5 47.3 0.434 7.53 2.79 8.59
10/19/2022 11:45:00 PM 8.39 47.102 0.445 7.55 3.2 8.93
10/20/2022 12:00:00 AM 8.45 47.21 0.434 7.56 1.71 8.97
10/20/2022 12:15:00 AM 8.48 47.264 0.451 7.54 1.76 8.59
10/20/2022 12:30:00 AM 8.45 47.21 0.453 7.53 1.6 8.21
10/20/2022 12:45:00 AM 8.48 47.264 0.463 7.52 1.86 8.17
10/20/2022 1:00:00 AM 8.43 47.174 0.461 7.48 1.72 8.06
10/20/2022 1:15:00 AM 8.35 47.03 0.43 7.49 1.95 8.25
10/20/2022 1:30:00 AM 8.31 46.958 0.431 7.5 1.56 8.43
10/20/2022 1:45:00 AM 8.26 46.868 0.436 7.52 1.86 8.47
10/20/2022 2:00:00 AM 8.32 46.976 0.447 7.52 1.72 8.28
10/20/2022 2:15:00 AM 8.32 46.976 0.448 7.51 1.65 8.17
10/20/2022 2:30:00 AM 8.27 46.886 0.458 7.5 1.72 8.21
10/20/2022 2:45:00 AM 8.32 46.976 0.466 7.48 1.73 7.99
10/20/2022 3:00:00 AM 8.22 46.796 0.446 7.5 1.65 8.27
10/20/2022 3:15:00 AM 8.28 46.904 0.451 7.5 1.71 8.16
10/20/2022 3:30:00 AM 8.2 46.76 0.441 7.51 1.65 8.29
10/20/2022 3:45:00 AM 8.19 46.742 0.43 7.51 1.65 8.29
10/20/2022 4:00:00 AM 8.24 46.832 0.45 7.5 1.83 8.2
10/20/2022 4:15:00 AM 8.21 46.778 0.434 7.5 1.58 8.1
10/20/2022 4:30:00 AM 8.13 46.634 0.422 7.49 1.75 8.18
10/20/2022 4:45:00 AM 7.99 46.382 0.417 7.51 1.98 8.39
10/20/2022 5:00:00 AM 7.98 46.364 0.425 7.51 1.8 8.41
10/20/2022 5:15:00 AM 7.95 46.31 0.413 7.51 2.52 8.33
10/20/2022 5:30:00 AM 8 46.4 0.421 7.5 2.08 8.2
10/20/2022 5:45:00 AM 8.04 46.472 0.419 7.5 1.8 8.08
10/20/2022 6:00:00 AM 7.97 46.346 0.426 7.48 1.73 8.06
10/20/2022 6:15:00 AM 7.92 46.256 0.419 7.49 1.67 8.16
10/20/2022 6:30:00 AM 7.99 46.382 0.431 7.48 1.89 7.9
10/20/2022 6:45:00 AM 7.91 46.238 0.429 7.48 1.86 8.06
10/20/2022 7:00:00 AM 7.93 46.274 0.429 7.49 1.9 8.02
10/20/2022 7:15:00 AM 7.87 46.166 0.424 7.49 1.76 8.08
10/20/2022 7:30:00 AM 7.99 46.382 0.461 7.47 1.69 7.92
10/20/2022 7:45:00 AM 7.81 46.058 0.434 7.48 1.91 7.98
10/20/2022 8:00:00 AM 7.82 46.076 0.428 7.47 1.78 7.81
10/20/2022 8:15:00 AM 7.76 45.968 0.424 7.49 1.78 8.08
10/20/2022 8:30:00 AM 7.85 46.13 0.447 7.48 1.83 7.78
10/20/2022 8:45:00 AM 7.94 46.292 0.449 7.47 2.06 7.94
10/20/2022 9:00:00 AM 7.78 46.004 0.443 7.48 1.7 8
10/20/2022 9:15:00 AM 7.78 46.004 0.441 7.49 1.81 8.14
10/20/2022 9:30:00 AM 7.77 45.986 0.453 7.49 1.69 8.11
10/20/2022 9:45:00 AM 7.83 46.094 0.44 7.49 1.82 8.2
10/20/2022 10:00:00 AM 7.82 46.076 0.446 7.51 1.73 8.51
10/20/2022 10:15:00 AM 7.8 46.04 0.44 7.51 1.81 8.61
10/20/2022 10:30:00 AM 7.74 45.932 0.418 7.52 2.32 8.82
10/20/2022 10:45:00 AM 7.76 45.968 0.425 7.53 1.76 8.86
10/20/2022 11:00:00 AM 7.8 46.04 0.415 7.53 1.75 9.04
10/20/2022 11:15:00 AM 7.93 46.274 0.42 7.53 1.68 9
10/20/2022 11:30:00 AM 7.9 46.22 0.416 7.53 1.97 9.22
10/20/2022 11:45:00 AM 8 46.4 0.439 7.55 1.65 9.19
10/20/2022 12:00:00 PM 8.14 46.652 0.425 7.53 1.68 9.23
10/20/2022 12:15:00 PM 8.11 46.598 0.423 7.55 2.34 9.43
10/20/2022 12:30:00 PM 8.16 46.688 0.427 7.55 1.84 9.49
10/20/2022 12:45:00 PM 8.18 46.724 0.424 7.56 1.63 9.47
10/20/2022 1:00:00 PM 8.2 46.76 0.424 7.57 1.59 9.58
10/20/2022 1:15:00 PM 8.21 46.778 0.424 7.57 1.69 9.68
10/20/2022 1:30:00 PM 8.23 46.814 0.339 7.56 1.63 9.84
10/20/2022 1:45:00 PM 8.18 46.724 0.412 7.6 1.7 10.09
10/20/2022 2:00:00 PM 8.25 46.85 0.419 7.6 1.61 10.1
10/20/2022 2:15:00 PM 8.34 47.012 0.422 7.6 1.7 10.19
10/20/2022 2:30:00 PM 8.41 47.138 0.433 7.6 1.79 10.14
10/20/2022 2:45:00 PM 8.4 47.12 0.422 7.62 1.81 10.52
10/20/2022 3:00:00 PM 8.4 47.12 0.418 7.65 1.7 10.8
10/20/2022 3:15:00 PM 8.49 47.282 0.422 7.64 1.91 10.8
10/20/2022 3:30:00 PM 8.53 47.354 0.183 7.66 1.74 10.89
10/20/2022 3:45:00 PM 8.62 47.516 0.418 7.65 1.71 10.9
10/20/2022 4:00:00 PM 8.63 47.534 0.423 7.67 1.73 10.94
10/20/2022 4:15:00 PM 8.67 47.606 0.413 7.69 1.69 11.17
10/20/2022 4:30:00 PM 8.68 47.624 0.422 7.7 3.43 11.38
10/20/2022 4:45:00 PM 8.73 47.714 0.421 7.69 5.21 11.15
10/20/2022 5:00:00 PM 8.8 47.84 0.438 7.68 30.53 10.96
10/20/2022 5:15:00 PM 8.75 47.75 0.415 7.69 2.46 11.14
10/20/2022 5:30:00 PM 8.79 47.822 0.421 7.67 2.06 10.93
10/20/2022 5:45:00 PM 8.74 47.732 0.417 7.67 1.78 10.99
10/20/2022 6:00:00 PM 8.78 47.804 0.444 7.64 2.74 10.81
10/20/2022 6:15:00 PM 8.75 47.75 0.427 7.66 2.06 10.82
10/20/2022 6:30:00 PM 8.7 47.66 0.421 7.66 2 10.83
10/20/2022 6:45:00 PM 8.77 47.786 0.443 7.64 1.83 10.44
10/20/2022 7:00:00 PM 8.7 47.66 0.423 7.64 2.32 10.49
10/20/2022 7:15:00 PM 8.71 47.678 0.447 7.65 1.71 10.51
10/20/2022 7:30:00 PM 8.7 47.66 0.429 7.64 1.75 10.4
10/20/2022 7:45:00 PM 8.63 47.534 0.42 7.65 2.08 10.58
10/20/2022 8:00:00 PM 8.63 47.534 0.426 7.64 7.66 10.51
10/20/2022 8:15:00 PM 8.67 47.606 0.44 7.62 2.03 10.29
10/20/2022 8:30:00 PM 8.65 47.57 0.426 7.61 1.96 10.02
10/20/2022 8:45:00 PM 8.6 47.48 0.419 7.64 1.96 10.23
10/20/2022 9:00:00 PM 8.59 47.462 0.43 7.63 2.07 10.17
10/20/2022 9:15:00 PM 8.59 47.462 0.426 7.62 2.19 9.91
10/20/2022 9:30:00 PM 8.56 47.408 0.424 7.63 2.19 10.16
10/20/2022 9:45:00 PM 8.56 47.408 0.42 7.6 1.84 9.77
10/20/2022 10:00:00 PM 8.56 47.408 0.428 7.58 1.77 9.63
10/20/2022 10:15:00 PM 8.49 47.282 0.428 7.6 1.92 9.68
10/20/2022 10:30:00 PM 8.52 47.336 0.449 7.58 2.12 9.19
10/20/2022 10:45:00 PM 8.51 47.318 0.434 7.57 2.13 9.25
10/20/2022 11:00:00 PM 8.44 47.192 0.42 7.57 2.05 9.39
10/20/2022 11:15:00 PM 8.46 47.228 0.435 7.56 2.37 9.13
10/20/2022 11:30:00 PM 8.44 47.192 0.168 7.55 2.28 8.9
10/20/2022 11:45:00 PM 8.43 47.174 0.318 7.55 2.11 8.87
10/21/2022 12:00:00 AM 8.42 47.156 0.43 7.54 1.99 8.93
10/21/2022 12:15:00 AM 8.4 47.12 0.423 7.55 1.66 8.87
10/21/2022 12:30:00 AM 8.41 47.138 0.419 7.53 1.56 8.77
10/21/2022 12:45:00 AM 8.29 46.922 0.418 7.52 1.7 8.89
10/21/2022 1:00:00 AM 8.23 46.814 0.394 7.55 1.98 9
10/21/2022 1:15:00 AM 8.25 46.85 0.441 7.55 2.05 8.86
10/21/2022 1:30:00 AM 8.28 46.904 0.402 7.51 2.08 8.46
10/21/2022 1:45:00 AM 8.25 46.85 0.415 7.52 1.85 8.53
10/21/2022 2:00:00 AM 8.21 46.778 0.413 7.53 1.77 8.63
10/21/2022 2:15:00 AM 8.19 46.742 0.435 7.51 2.13 8.59
10/21/2022 2:30:00 AM 8.16 46.688 0.418 7.52 1.74 8.67
10/21/2022 2:45:00 AM 8.13 46.634 0.415 7.53 1.65 8.72
10/21/2022 3:00:00 AM 8.11 46.598 0.397 7.51 2.06 8.57
10/21/2022 3:15:00 AM 8.02 46.436 0.41 7.52 3.08 8.66
10/21/2022 3:30:00 AM 8.01 46.418 0.414 7.5 2.37 8.45
10/21/2022 3:45:00 AM 7.96 46.328 0.422 7.51 1.99 8.46
10/21/2022 4:00:00 AM 7.96 46.328 0.422 7.49 3.14 8.24
10/21/2022 4:15:00 AM 7.96 46.328 0.422 7.5 2.11 8.28
10/21/2022 4:30:00 AM 7.85 46.13 0.294 7.49 2.01 8.4
10/21/2022 4:45:00 AM 7.91 46.238 0.424 7.47 1.64 8.25
10/21/2022 5:00:00 AM 7.81 46.058 0.416 7.49 1.69 8.33
10/21/2022 5:15:00 AM 7.8 46.04 0.42 7.48 2.66 8.28
10/21/2022 5:30:00 AM 7.73 45.914 0.419 7.49 2.1 8.35
10/21/2022 5:45:00 AM 7.7 45.86 0.415 7.48 3.08 8.33
10/21/2022 6:00:00 AM 7.57 45.626 0.422 7.5 2.7 8.45
10/21/2022 6:15:00 AM 7.65 45.77 0.435 7.48 2.14 8.21
10/21/2022 6:30:00 AM 7.52 45.536 0.422 7.47 2.15 8.19
10/21/2022 6:45:00 AM 7.48 45.464 0.428 7.48 2.83 8.28
10/21/2022 7:00:00 AM 7.45 45.41 0.426 7.47 3.84 8.13
10/21/2022 7:15:00 AM 7.48 45.464 0.429 7.46 3.94 8.04
10/21/2022 7:30:00 AM 7.32 45.176 0.294 7.48 2.78 8.29
10/21/2022 7:45:00 AM 7.26 45.068 0.414 7.49 1.8 8.28
10/21/2022 8:00:00 AM 7.3 45.14 0.42 7.48 1.91 8.23
10/21/2022 8:15:00 AM 7.24 45.032 0.432 7.48 1.97 8.25
10/21/2022 8:30:00 AM 7.25 45.05 0.442 7.48 1.96 8.24
10/21/2022 8:45:00 AM 7.16 44.888 0.439 7.49 1.88 8.4
10/21/2022 9:00:00 AM 7.09 44.762 0.419 7.48 1.94 8.48
10/21/2022 9:15:00 AM 7.18 44.924 0.434 7.48 1.94 8.51
10/21/2022 9:30:00 AM 7.17 44.906 0.446 7.48 1.86 8.48
10/21/2022 9:45:00 AM 7.12 44.816 0.426 7.48 1.86 8.64
10/21/2022 10:00:00 AM 7.12 44.816 0.422 7.48 1.74 8.59
10/21/2022 10:15:00 AM 7.14 44.852 0.42 7.49 1.77 8.79
10/21/2022 10:30:00 AM 7.2 44.96 0.434 7.49 1.59 8.73
10/21/2022 10:45:00 AM 7.27 45.086 0.42 7.47 1.8 8.69
10/21/2022 11:00:00 AM 7.31 45.158 0.424 7.49 1.65 8.77
10/21/2022 11:15:00 AM 7.33 45.194 0.423 7.51 1.7 9.08
10/21/2022 11:30:00 AM 7.43 45.374 0.416 7.52 1.72 9.12
10/21/2022 11:45:00 AM 7.51 45.518 0.418 7.52 1.61 9.2
10/21/2022 12:00:00 PM 7.69 45.842 0.43 7.52 1.7 9.21
10/21/2022 12:15:00 PM 7.67 45.806 0.416 7.54 1.58 9.4
10/21/2022 12:30:00 PM 7.81 46.058 0.421 7.54 1.61 9.36
10/21/2022 12:45:00 PM 7.91 46.238 0.423 7.55 1.6 9.49
10/21/2022 1:00:00 PM 8.08 46.544 0.44 7.57 1.59 9.6
10/21/2022 1:15:00 PM 8.19 46.742 0.427 7.56 1.56 9.69
10/21/2022 1:30:00 PM 8.25 46.85 0.419 7.58 1.6 9.88
10/21/2022 1:45:00 PM 8.4 47.12 0.443 7.56 1.63 9.62
10/21/2022 2:00:00 PM 8.48 47.264 0.414 7.6 1.6 10.13
10/21/2022 2:15:00 PM 8.62 47.516 0.42 7.61 1.77 10.29
10/21/2022 2:30:00 PM 8.75 47.75 0.434 7.61 1.72 10.22
10/21/2022 2:45:00 PM 8.85 47.93 0.429 7.62 1.66 10.14
10/21/2022 3:00:00 PM 8.96 48.128 0.43 7.62 1.66 10.17
10/21/2022 3:15:00 PM 9.12 48.416 0.44 7.61 1.66 10.07
10/21/2022 3:30:00 PM 9.16 48.488 0.442 7.63 2.55 10.68
10/21/2022 3:45:00 PM 9.33 48.794 0.438 7.6 1.53 10.3
10/21/2022 4:00:00 PM 9.42 48.956 0.445 7.6 1.56 10.09
10/21/2022 4:15:00 PM 9.47 49.046 0.443 7.61 4.23 10.39
10/21/2022 4:30:00 PM 9.58 49.244 0.458 7.6 1.56 10.18
10/21/2022 4:45:00 PM 9.61 49.298 0.445 7.64 1.59 10.08
10/21/2022 5:00:00 PM 9.65 49.37 0.446 7.63 1.53 10.29
10/21/2022 5:15:00 PM 9.76 49.568 0.453 7.6 1.6 9.66
10/21/2022 5:30:00 PM 9.88 49.784 0.471 7.51 1.89 8.67
10/21/2022 5:45:00 PM 9.83 49.694 0.451 7.54 1.51 9
10/21/2022 6:00:00 PM 9.84 49.712 0.449 7.55 1.54 9.33
10/21/2022 6:15:00 PM 9.85 49.73 0.459 7.59 1.6 9.39
10/21/2022 6:30:00 PM 9.83 49.694 0.329 7.61 1.61 9.6
10/21/2022 6:45:00 PM 9.83 49.694 0.448 7.6 2.15 9.86
10/21/2022 7:00:00 PM 9.84 49.712 0.443 7.57 2.22 9.6
10/21/2022 7:15:00 PM 9.84 49.712 0.468 7.56 2.49 9.6
10/21/2022 7:30:00 PM 9.83 49.694 0.452 7.56 2.48 9.29
10/21/2022 7:45:00 PM 9.85 49.73 0.452 7.54 2.39 9.03
10/21/2022 8:00:00 PM 9.77 49.586 0.447 7.57 2.44 9.22
10/21/2022 8:15:00 PM 9.78 49.604 0.447 7.56 2.53 9.05
10/21/2022 8:30:00 PM 9.69 49.442 0.446 7.58 2.43 9.46
10/21/2022 8:45:00 PM 9.64 49.352 0.437 7.57 2.48 9.44
10/21/2022 9:00:00 PM 9.63 49.334 0.434 7.58 3.19 9.27
10/21/2022 9:15:00 PM 9.59 49.262 0.417 7.56 1.7 9.16
10/21/2022 9:30:00 PM 9.58 49.244 0.453 7.55 2.01 9.09
10/21/2022 9:45:00 PM 9.5 49.1 0.435 7.52 2.34 8.82
10/21/2022 10:00:00 PM 9.4 48.92 0.437 7.54 2.53 9.02
10/21/2022 10:15:00 PM 9.32 48.776 0.435 7.55 3.15 9.18
10/21/2022 10:30:00 PM 9.31 48.758 0.45 7.58 1.72 8.95
10/21/2022 10:45:00 PM 9.16 48.488 0.424 7.58 1.8 9.07
10/21/2022 11:00:00 PM 9.15 48.47 0.436 7.56 1.81 9.08
10/21/2022 11:15:00 PM 9.2 48.56 0.47 7.56 1.7 8.85
10/21/2022 11:30:00 PM 9.06 48.308 0.447 7.56 1.76 8.74
10/21/2022 11:45:00 PM 9.04 48.272 0.437 7.54 1.71 8.69
10/22/2022 12:00:00 AM 8.95 48.11 0.426 7.54 1.79 8.43
10/22/2022 12:15:00 AM 8.89 48.002 0.45 7.54 1.89 8.69
10/22/2022 12:30:00 AM 8.88 47.984 0.436 7.52 2.1 8.55
10/22/2022 12:45:00 AM 8.71 47.678 0.421 7.54 1.81 8.52
10/22/2022 1:00:00 AM 8.62 47.516 0.422 7.54 1.73 8.54
10/22/2022 1:15:00 AM 8.65 47.57 0.437 7.53 1.66 8.25
10/22/2022 1:30:00 AM 8.59 47.462 0.423 7.53 3.52 8.47
10/22/2022 1:45:00 AM 8.51 47.318 0.416 7.52 1.7 8.48
10/22/2022 2:00:00 AM 8.56 47.408 0.455 7.51 1.74 8.18
10/22/2022 2:15:00 AM 8.61 47.498 0.457 7.49 1.74 7.88
10/22/2022 2:30:00 AM 8.56 47.408 0.452 7.48 4.41 8.11
10/22/2022 2:45:00 AM 8.35 47.03 0.43 7.51 1.62 8.25
10/22/2022 3:00:00 AM 8.33 46.994 0.441 7.5 1.65 8.16
10/22/2022 3:15:00 AM 8.44 47.192 0.458 7.5 1.78 8.19
10/22/2022 3:30:00 AM 8.35 47.03 0.453 7.48 1.89 8.09
10/22/2022 3:45:00 AM 8.27 46.886 0.429 7.49 1.65 8.12
10/22/2022 4:00:00 AM 8.2 46.76 0.426 7.48 1.77 8.03
10/22/2022 4:15:00 AM 8.18 46.724 0.421 7.5 1.8 7.99
10/22/2022 4:30:00 AM 8.27 46.886 0.455 7.49 1.69 8.09
10/22/2022 4:45:00 AM 8.25 46.85 0.451 7.48 1.75 7.88
10/22/2022 5:00:00 AM 8.03 46.454 0.422 7.49 1.87 8.07
10/22/2022 5:15:00 AM 8.08 46.544 0.42 7.48 1.78 8.07
10/22/2022 5:30:00 AM 8.11 46.598 0.438 7.47 1.74 7.97
10/22/2022 5:45:00 AM 8.02 46.436 0.42 7.46 2.41 7.81
10/22/2022 6:00:00 AM 8.04 46.472 0.34 7.45 1.95 7.84
10/22/2022 6:15:00 AM 8.06 46.508 0.438 7.46 1.77 7.64
10/22/2022 6:30:00 AM 8.02 46.436 0.439 7.47 1.88 7.88
10/22/2022 6:45:00 AM 7.78 46.004 0.416 7.46 1.92 7.99
10/22/2022 7:00:00 AM 7.77 45.986 0.427 7.48 1.93 8
10/22/2022 7:15:00 AM 7.93 46.274 0.439 7.46 2.11 7.7
10/22/2022 7:30:00 AM 7.84 46.112 0.431 7.45 2.39 7.72
10/22/2022 7:45:00 AM 7.79 46.022 0.421 7.45 2.16 7.56
10/22/2022 8:00:00 AM 7.72 45.896 0.418 7.47 3.71 7.84
10/22/2022 8:15:00 AM 7.69 45.842 0.423 7.47 2 7.91
10/22/2022 8:30:00 AM 7.81 46.058 0.457 7.47 4.21 7.78
10/22/2022 8:45:00 AM 7.64 45.752 0.429 7.47 1.85 7.86
10/22/2022 9:00:00 AM 7.68 45.824 0.457 7.47 34.68 7.96
10/22/2022 9:15:00 AM 7.6 45.68 0.426 7.46 1.81 8.09
10/22/2022 9:30:00 AM 7.72 45.896 0.468 7.48 1.74 8.05
10/22/2022 9:45:00 AM 7.71 45.878 0.439 7.47 1.72 7.82
10/22/2022 10:00:00 AM 7.75 45.95 0.449 7.47 1.74 8.12
10/22/2022 10:15:00 AM 7.77 45.986 0.446 7.47 1.79 8.03
10/22/2022 10:30:00 AM 7.8 46.04 0.434 7.47 1.83 7.87
10/22/2022 10:45:00 AM 7.84 46.112 0.43 7.48 1.87 8.19
10/22/2022 11:00:00 AM 7.9 46.22 0.429 7.49 1.91 8.35
10/22/2022 11:15:00 AM 8.03 46.454 0.436 7.49 1.88 8.4
10/22/2022 11:30:00 AM 8.03 46.454 0.424 7.48 1.66 8.34
10/22/2022 11:45:00 AM 8.2 46.76 0.462 7.5 1.7 8.51
10/22/2022 12:00:00 PM 8.28 46.904 0.431 7.51 1.64 8.76
10/22/2022 12:15:00 PM 8.36 47.048 0.423 7.5 1.63 8.6
10/22/2022 12:30:00 PM 8.52 47.336 0.435 7.52 1.59 8.9
10/22/2022 12:45:00 PM 8.62 47.516 0.44 7.52 1.58 8.86
10/22/2022 1:00:00 PM 8.77 47.786 0.439 7.53 1.65 8.92
10/22/2022 1:15:00 PM 8.88 47.984 0.433 7.52 1.53 8.88
10/22/2022 1:30:00 PM 8.99 48.182 0.43 7.49 3.29 8.79
10/22/2022 1:45:00 PM 9.15 48.47 0.45 7.49 1.66 8.73
10/22/2022 2:00:00 PM 9.26 48.668 0.44 7.48 1.74 8.59
10/22/2022 2:15:00 PM 9.4 48.92 0.452 7.48 1.48 8.69
10/22/2022 2:30:00 PM 9.47 49.046 0.447 7.53 1.64 8.94
10/22/2022 2:45:00 PM 9.68 49.424 0.457 7.47 1.51 8.3
10/22/2022 3:00:00 PM 9.87 49.766 0.452 7.47 2.47 8.27
10/22/2022 3:15:00 PM 9.96 49.928 0.464 7.46 1.39 8.31
10/22/2022 3:30:00 PM 10.22 50.396 0.492 7.4 1.73 7.06
10/22/2022 3:45:00 PM 10.43 50.774 0.511 7.34 2.42 5.49
10/22/2022 4:00:00 PM 10.62 51.116 0.54 7.3 1.23 4.85
10/22/2022 4:15:00 PM 10.7 51.26 0.537 7.28 1.14 4.61
10/22/2022 4:30:00 PM 10.74 51.332 0.521 7.32 1.38 5.1
10/22/2022 4:45:00 PM 10.77 51.386 0.521 7.32 1.18 5.93
10/22/2022 5:00:00 PM 10.87 51.566 0.539 7.33 1.15 5.59
10/22/2022 5:15:00 PM 10.99 51.782 0.56 7.28 1.11 4.06
10/22/2022 5:30:00 PM 10.96 51.728 0.552 7.28 1.19 4.34
10/22/2022 5:45:00 PM 11.03 51.854 0.551 7.25 1.06 4.29
10/22/2022 6:00:00 PM 11.01 51.818 0.537 7.3 1.34 4.75
10/22/2022 6:15:00 PM 11.02 51.836 0.538 7.35 1.16 4.44
10/22/2022 6:30:00 PM 11.01 51.818 0.542 7.33 1.28 4.67
10/22/2022 6:45:00 PM 11.11 51.998 0.559 7.27 1.11 3.76
10/22/2022 7:00:00 PM 11.07 51.926 0.543 7.38 1.32 4.8
10/22/2022 7:15:00 PM 11.05 51.89 0.54 7.36 1.3 4.71
10/22/2022 7:30:00 PM 11.07 51.926 0.538 7.28 1.06 4.35
10/22/2022 7:45:00 PM 11.02 51.836 0.539 7.34 1.21 4.74
10/22/2022 8:00:00 PM 11.07 51.926 0.549 7.27 1.13 4.34
10/22/2022 8:15:00 PM 11.04 51.872 0.55 7.28 1.09 4.2
10/22/2022 8:30:00 PM 11.07 51.926 0.563 7.26 1.12 3.82
10/22/2022 8:45:00 PM 11.07 51.926 0.55 7.25 1.16 3.46
10/22/2022 9:00:00 PM 10.85 51.53 0.544 7.32 1.24 4.69
10/22/2022 9:15:00 PM 10.78 51.404 0.505 7.32 1.22 5.1
10/22/2022 9:30:00 PM 10.87 51.566 0.548 7.24 1.19 4.18
10/22/2022 9:45:00 PM 10.66 51.188 0.503 7.3 1.33 5.07
10/22/2022 10:00:00 PM 10.61 51.098 0.513 7.33 1.45 5.17
10/22/2022 10:15:00 PM 10.6 51.08 0.523 7.26 1.57 4.76
10/22/2022 10:30:00 PM 10.46 50.828 0.512 7.31 1.53 5.36
10/22/2022 10:45:00 PM 10.36 50.648 0.482 7.37 1.28 6.13
10/22/2022 11:00:00 PM 10.3 50.54 0.498 7.33 1.25 5.43
10/22/2022 11:15:00 PM 10.13 50.234 0.483 7.4 1.44 6.34
10/22/2022 11:30:00 PM 9.97 49.946 0.466 7.43 1.5 7.17
10/22/2022 11:45:00 PM 10.06 50.108 0.473 7.41 1.51 6.02
10/23/2022 12:00:00 AM 9.84 49.712 0.461 7.45 1.66 7.21
10/23/2022 12:15:00 AM 9.82 49.676 0.465 7.43 1.67 7.08
10/23/2022 12:30:00 AM 9.66 49.388 0.437 7.47 2.41 7.39
10/23/2022 12:45:00 AM 9.62 49.316 0.447 7.45 2.35 7.48
10/23/2022 1:00:00 AM 9.5 49.1 0.434 7.47 2.27 7.86
10/23/2022 1:15:00 AM 9.41 48.938 0.445 7.49 3.2 8.08
10/23/2022 1:30:00 AM 9.41 48.938 0.439 7.48 2.26 8.02
10/23/2022 1:45:00 AM 9.29 48.722 0.429 7.49 2.62 8.03
10/23/2022 2:00:00 AM 9.25 48.65 0.427 7.49 2.6 7.94
10/23/2022 2:15:00 AM 9.29 48.722 0.422 7.51 1.94 7.2
10/23/2022 2:30:00 AM 9.19 48.542 0.444 7.49 1.73 7.79
10/23/2022 2:45:00 AM 9.26 48.668 0.462 7.47 1.69 7.48
10/23/2022 3:00:00 AM 9.2 48.56 0.46 7.47 1.75 7.58
10/23/2022 3:15:00 AM 9.07 48.326 0.453 7.45 1.99 7.54
10/23/2022 3:30:00 AM 9.06 48.308 0.447 7.48 1.68 7.71
10/23/2022 3:45:00 AM 9.05 48.29 0.447 7.48 1.69 7.61
10/23/2022 4:00:00 AM 8.95 48.11 0.444 7.47 1.78 7.6
10/23/2022 4:15:00 AM 8.95 48.11 0.46 7.48 1.77 7.72
10/23/2022 4:30:00 AM 8.85 47.93 0.452 7.48 2.05 7.76
10/23/2022 4:45:00 AM 8.74 47.732 0.42 7.48 1.91 7.87
10/23/2022 5:00:00 AM 8.69 47.642 0.431 7.48 1.9 7.71
10/23/2022 5:15:00 AM 8.73 47.714 0.429 7.48 1.7 7.78
10/23/2022 5:30:00 AM 8.64 47.552 0.425 7.47 1.68 7.68
10/23/2022 5:45:00 AM 8.62 47.516 0.418 7.47 1.64 7.63
10/23/2022 6:00:00 AM 8.58 47.444 0.419 7.47 1.65 7.5
10/23/2022 6:15:00 AM 8.55 47.39 0.332 7.47 1.79 7.58
10/23/2022 6:30:00 AM 8.46 47.228 0.422 7.47 1.88 7.59
10/23/2022 6:45:00 AM 8.43 47.174 0.426 7.47 1.81 7.71
10/23/2022 7:00:00 AM 8.4 47.12 0.445 7.47 2.48 7.73
10/23/2022 7:15:00 AM 8.32 46.976 0.415 7.47 2.54 7.8
10/23/2022 7:30:00 AM 8.3 46.94 0.419 7.46 2.65 7.71
10/23/2022 7:45:00 AM 8.27 46.886 0.426 7.46 1.93 7.74
10/23/2022 8:00:00 AM 8.25 46.85 0.432 7.47 2.04 7.8
10/23/2022 8:15:00 AM 8.21 46.778 0.427 7.47 1.99 7.8
10/23/2022 8:30:00 AM 8.31 46.958 0.488 7.46 2.08 7.74
10/23/2022 8:45:00 AM 8.23 46.814 0.447 7.46 2.09 7.74
10/23/2022 9:00:00 AM 8.19 46.742 0.44 7.46 2.13 7.81
10/23/2022 9:15:00 AM 8.2 46.76 0.186 7.46 2.02 7.84
10/23/2022 9:30:00 AM 8.17 46.706 0.412 7.47 1.99 7.77
10/23/2022 9:45:00 AM 8.13 46.634 0.44 7.47 2.19 7.95
10/23/2022 10:00:00 AM 8.13 46.634 0.42 7.48 2.83 8.16
10/23/2022 10:15:00 AM 8.17 46.706 0.421 7.49 1.83 8.2
10/23/2022 10:30:00 AM 8.23 46.814 0.434 7.48 2.11 8.18
10/23/2022 10:45:00 AM 8.3 46.94 0.36 7.49 1.98 8.29
10/23/2022 11:00:00 AM 8.41 47.138 0.439 7.48 1.98 8.06
10/23/2022 11:15:00 AM 8.52 47.336 0.439 7.48 2.45 8.23
10/23/2022 11:30:00 AM 8.58 47.444 0.43 7.49 2.53 8.38
10/23/2022 11:45:00 AM 8.62 47.516 0.444 7.48 5.04 8.19
10/23/2022 12:00:00 PM 8.7 47.66 0.424 7.49 2.5 8.52
10/23/2022 12:15:00 PM 8.86 47.948 0.449 7.49 2.54 8.29
10/23/2022 12:30:00 PM 8.98 48.164 0.431 7.48 2.52 8.29
10/23/2022 12:45:00 PM 9.05 48.29 0.433 7.51 3.03 8.72
10/23/2022 1:00:00 PM 9.18 48.524 0.434 7.5 1.47 8.67
10/23/2022 1:15:00 PM 9.29 48.722 0.435 7.51 1.5 8.67
10/23/2022 1:30:00 PM 9.45 49.01 0.445 7.49 1.61 8.58
10/23/2022 1:45:00 PM 9.52 49.136 0.449 7.47 1.5 8.55
10/23/2022 2:00:00 PM 9.71 49.478 0.481 7.43 1.59 7.95
10/23/2022 2:15:00 PM 9.87 49.766 0.458 7.42 1.74 7.59
10/23/2022 2:30:00 PM 10.19 50.342 0.512 7.32 1.22 6.19
10/23/2022 2:45:00 PM 10.29 50.522 0.518 7.32 1.52 6
10/23/2022 3:00:00 PM 10.5 50.9 0.222 7.3 1.65 5.3
10/23/2022 3:15:00 PM 10.51 50.918 0.502 7.33 2.7 6.4
10/23/2022 3:30:00 PM 10.69 51.242 0.383 7.32 1.6 5.5
10/23/2022 3:45:00 PM 10.8 51.44 0.534 7.29 1.18 4.98
10/23/2022 4:00:00 PM 10.86 51.548 0.547 7.28 1.38 4.55
10/23/2022 4:15:00 PM 10.95 51.71 0.532 7.3 1.44 4.96
10/23/2022 4:30:00 PM 11.03 51.854 0.544 7.38 2.71 5.01
10/23/2022 4:45:00 PM 11.14 52.052 0.545 7.3 1.14 4.55
10/23/2022 5:00:00 PM 11.22 52.196 0.551 7.28 1.27 3.97
10/23/2022 5:15:00 PM 11.25 52.25 0.554 7.26 1.14 3.83
10/23/2022 5:30:00 PM 11.27 52.286 0.552 7.33 1.15 4.27
10/23/2022 5:45:00 PM 11.3 52.34 0.548 7.29 1.32 4.11
10/23/2022 6:00:00 PM 11.33 52.394 0.55 7.31 1.25 3.98
10/23/2022 6:15:00 PM 11.33 52.394 0.547 7.37 1.27 4.65
10/23/2022 6:30:00 PM 11.36 52.448 0.551 7.36 1.4 4.12
10/23/2022 6:45:00 PM 11.4 52.52 0.556 7.3 1.14 3.78
10/23/2022 7:00:00 PM 11.42 52.556 0.548 7.32 1.27 3.89
10/23/2022 7:15:00 PM 11.43 52.574 0.541 7.27 1.08 3.69
10/23/2022 7:30:00 PM 11.46 52.628 0.541 7.28 1.44 3.42
10/23/2022 7:45:00 PM 11.46 52.628 0.538 7.27 1.05 3.27
10/23/2022 8:00:00 PM 11.41 52.538 0.528 7.3 1.89 4.15
10/23/2022 8:15:00 PM 11.44 52.592 0.534 7.26 4.21 3.57
10/23/2022 8:30:00 PM 11.39 52.502 0.534 7.34 1.67 3.92
10/23/2022 8:45:00 PM 11.42 52.556 0.54 7.29 1.69 3.74
10/23/2022 9:00:00 PM 11.45 52.61 0.555 7.26 1.12 3.41
10/23/2022 9:15:00 PM 11.42 52.556 0.542 7.38 1.05 3.45
10/23/2022 9:30:00 PM 11.44 52.592 0.546 7.25 1.04 3.1
10/23/2022 9:45:00 PM 11.42 52.556 0.555 7.37 1.07 3.52
10/23/2022 10:00:00 PM 11.43 52.574 0.56 7.24 1.09 3.26
10/23/2022 10:15:00 PM 11.41 52.538 0.556 7.24 1.09 3.09
10/23/2022 10:30:00 PM 11.41 52.538 0.557 7.23 1.05 2.83
10/23/2022 10:45:00 PM 11.36 52.448 0.538 7.25 1.12 3.41
10/23/2022 11:00:00 PM 11.37 52.466 0.56 7.24 1.16 3.26
10/23/2022 11:15:00 PM 11.31 52.358 0.545 7.24 1.48 3.58
10/23/2022 11:30:00 PM 11.32 52.376 0.558 7.21 1.5 2.97
10/23/2022 11:45:00 PM 11.26 52.268 0.549 7.25 1.13 3.32
10/24/2022 12:00:00 AM 11.23 52.214 0.532 7.25 2.29 3.75
10/24/2022 12:15:00 AM 11.27 52.286 0.56 7.21 1.8 3.03
10/24/2022 12:30:00 AM 11.22 52.196 0.548 7.23 2.92 3.26
10/24/2022 12:45:00 AM 11.21 52.178 0.563 7.24 1.23 3.29
10/24/2022 1:00:00 AM 11.18 52.124 0.549 7.23 1.55 3.45
10/24/2022 1:15:00 AM 11.18 52.124 0.544 7.24 1.6 3.42
10/24/2022 1:30:00 AM 11.22 52.196 0.544 7.23 1.87 3.17
10/24/2022 1:45:00 AM 11.24 52.232 0.545 7.22 2.08 3.07
10/24/2022 2:00:00 AM 11.24 52.232 0.548 7.26 1.96 3.12
10/24/2022 2:15:00 AM 11.17 52.106 0.533 7.25 2.01 3.7
10/24/2022 2:30:00 AM 11.21 52.178 0.542 7.28 1.39 3.51
10/24/2022 2:45:00 AM 11.24 52.232 0.546 7.25 1.15 3.16
10/24/2022 3:00:00 AM 11.18 52.124 0.525 7.27 1.18 3.76
10/24/2022 3:15:00 AM 11.23 52.214 0.54 7.26 1.54 3.24
10/24/2022 3:30:00 AM 11.23 52.214 0.537 7.28 1.81 3.34
10/24/2022 3:45:00 AM 11.21 52.178 0.537 7.26 1.27 3.27
10/24/2022 4:00:00 AM 11.24 52.232 0.545 7.23 1.25 3.25
10/24/2022 4:15:00 AM 11.25 52.25 0.54 7.26 1.33 3.3
10/24/2022 4:30:00 AM 11.28 52.304 0.534 7.28 1.38 3.23
10/24/2022 4:45:00 AM 11.3 52.34 0.548 7.24 1.14 3.05
10/24/2022 5:00:00 AM 10.93 51.674 0.453 7.39 6.26 6.18
10/24/2022 5:15:00 AM 10.93 51.674 0.432 7.43 7.58 5.98
10/24/2022 5:30:00 AM 11.18 52.124 0.505 7.39 2.86 4.34
10/24/2022 5:45:00 AM 11.21 52.178 0.513 7.35 1.59 4.47
10/24/2022 6:00:00 AM 11.3 52.34 0.53 7.3 1.62 3.49
10/24/2022 6:15:00 AM 11.32 52.376 0.518 7.33 2.03 3.46
10/24/2022 6:30:00 AM 11.26 52.268 0.497 7.33 1.42 3.92
10/24/2022 6:45:00 AM 11.31 52.358 0.514 7.3 1.11 4.1
10/24/2022 7:00:00 AM 11.17 52.106 0.49 7.31 4.18 4.38
10/24/2022 7:15:00 AM 11.25 52.25 0.175 7.31 1.69 4.36
10/24/2022 7:30:00 AM 11.3 52.34 0.517 7.3 1.56 4.17
10/24/2022 7:45:00 AM 11.27 52.286 0.492 7.32 1.83 4.45
10/24/2022 8:00:00 AM 11.35 52.43 0.518 7.29 1.3 3.9
10/24/2022 8:15:00 AM 11.4 52.52 0.518 7.27 2.31 3.26
10/24/2022 8:30:00 AM 11.39 52.502 0.516 7.28 1.55 3.23
10/24/2022 8:45:00 AM 11.38 52.484 0.525 7.26 1.47 3.52
10/24/2022 9:00:00 AM 11.38 52.484 0.524 7.28 1.32 3.78
10/24/2022 9:15:00 AM 11.44 52.592 0.529 7.27 1.37 3.44
10/24/2022 9:30:00 AM 11.43 52.574 0.508 7.28 1.34 3.74
10/24/2022 9:45:00 AM 11.47 52.646 0.53 7.28 1.38 3.74
10/24/2022 10:00:00 AM 11.48 52.664 0.529 7.31 1.52 4.15
10/24/2022 10:15:00 AM 11.53 52.754 0.513 7.33 1.29 4.15
10/24/2022 10:30:00 AM 11.56 52.808 0.526 7.31 1.31 3.98
10/24/2022 10:45:00 AM 11.58 52.844 0.504 7.35 1.32 4.8
10/24/2022 11:00:00 AM 11.63 52.934 0.523 7.3 1.85 3.99
10/24/2022 11:15:00 AM 11.65 52.97 0.495 7.33 1.87 4.52
10/24/2022 11:30:00 AM 11.7 53.06 0.517 7.32 1.16 4.28
10/24/2022 11:45:00 AM 11.73 53.114 0.513 7.33 1.85 4.39
10/24/2022 12:00:00 PM 11.76 53.168 0.494 7.32 1.14 4.43
10/24/2022 12:15:00 PM 11.78 53.204 0.515 7.33 1.32 4.24
10/24/2022 12:30:00 PM 11.8 53.24 0.517 7.33 1.3 4.05
10/24/2022 12:45:00 PM 11.84 53.312 0.514 7.33 1.34 4.91
10/24/2022 1:00:00 PM 11.87 53.366 0.532 7.36 1.52 4.56
10/24/2022 1:15:00 PM 11.9 53.42 0.519 7.32 1.29 4.32
10/24/2022 1:30:00 PM 11.97 53.546 0.503 7.36 1.23 5.2
10/24/2022 1:45:00 PM 12.06 53.708 0.472 7.41 1.39 6.54
10/24/2022 2:00:00 PM 12.05 53.69 0.481 7.39 1.38 6.28
10/24/2022 2:15:00 PM 12.1 53.78 0.468 7.4 1.37 6.42
10/24/2022 2:30:00 PM 12.14 53.852 0.475 7.38 2.38 6.27
10/24/2022 2:45:00 PM 12.19 53.942 0.472 7.4 1.59 6.21
10/24/2022 3:00:00 PM 12.25 54.05 0.386 7.42 1.6 6.66
10/24/2022 3:15:00 PM 12.33 54.194 0.356 7.44 2.29 7.01
10/24/2022 3:30:00 PM 12.31 54.158 0.472 7.43 1.7 6.9
10/24/2022 3:45:00 PM 12.37 54.266 0.469 7.44 2.24 7.45
10/24/2022 4:00:00 PM 12.41 54.338 0.456 7.47 3.32 6.78
10/24/2022 4:15:00 PM 12.44 54.392 0.458 7.48 2.44 7.67
10/24/2022 4:30:00 PM 12.42 54.356 0.478 7.48 2.04 7.38
10/24/2022 4:45:00 PM 12.37 54.266 0.504 7.49 1.54 7.01
10/24/2022 5:00:00 PM 12.38 54.284 0.498 7.45 1.82 6.89
10/24/2022 5:15:00 PM 12.41 54.338 0.509 7.42 1.78 6.91
10/24/2022 5:30:00 PM 12.45 54.41 0.489 7.45 1.46 6.99
10/24/2022 5:45:00 PM 12.43 54.374 0.505 7.41 1.36 6.8
10/24/2022 6:00:00 PM 12.49 54.482 0.507 7.45 1.59 7.4
10/24/2022 6:15:00 PM 12.46 54.428 0.51 7.42 1.56 6.66
10/24/2022 6:30:00 PM 12.41 54.338 0.518 7.41 1.53 6.27
10/24/2022 6:45:00 PM 12.33 54.194 0.532 7.37 1.48 5.36
10/24/2022 7:00:00 PM 12.36 54.248 0.525 7.4 1.69 5.75
10/24/2022 7:15:00 PM 12.43 54.374 0.509 7.4 1.66 6.21
10/24/2022 7:30:00 PM 12.39 54.302 0.514 7.39 1.43 5.97
10/24/2022 7:45:00 PM 12.41 54.338 0.514 7.41 1.5 6.05
10/24/2022 8:00:00 PM 12.37 54.266 0.517 7.39 1.39 5.51
10/24/2022 8:15:00 PM 12.48 54.464 0.551 7.6 1.42 4.4
10/24/2022 8:30:00 PM 12.37 54.266 0.519 7.41 1.47 6.26
10/24/2022 8:45:00 PM 12.39 54.302 0.507 7.44 4.81 6.51
10/24/2022 9:00:00 PM 12.36 54.248 0.518 7.37 1.62 5.38
10/24/2022 9:15:00 PM 12.39 54.302 0.509 7.38 3.27 5.82
10/24/2022 9:30:00 PM 12.3 54.14 0.537 7.36 3.12 5.17
10/24/2022 9:45:00 PM 12.29 54.122 0.556 7.58 1.59 3.14
10/24/2022 10:00:00 PM 12.26 54.068 0.527 7.38 2.11 5.06
10/24/2022 10:15:00 PM 12.24 54.032 0.531 7.31 2.48 4.37
10/24/2022 10:30:00 PM 12.3 54.14 0.519 7.35 2.13 4.97
10/24/2022 10:45:00 PM 12.35 54.23 0.486 7.37 2.86 5.37
10/24/2022 11:00:00 PM 12.19 53.942 0.531 7.32 2.01 4.23
10/24/2022 11:15:00 PM 12.23 54.014 0.516 7.32 1.84 4.19
10/24/2022 11:30:00 PM 12.2 53.96 0.529 7.33 1.64 4.29
10/24/2022 11:45:00 PM 12.23 54.014 0.519 7.34 3.28 4.51
10/25/2022 12:00:00 AM 12.26 54.068 0.519 7.39 1.95 4.91
10/25/2022 12:15:00 AM 12.27 54.086 0.5 7.32 1.79 4.71
10/25/2022 12:30:00 AM 12.2 53.96 0.509 7.34 2.4 4.24
10/25/2022 12:45:00 AM 12.23 54.014 0.52 7.34 1.74 4.75
10/25/2022 1:00:00 AM 12.22 53.996 0.527 7.33 3.89 4.72
10/25/2022 1:15:00 AM 12.21 53.978 0.514 7.33 1.4 4.42
10/25/2022 1:30:00 AM 12.19 53.942 0.518 7.33 1.21 4.38
10/25/2022 1:45:00 AM 12.15 53.87 0.528 7.33 1.31 4.23
10/25/2022 2:00:00 AM 12.27 54.086 0.494 7.35 1.51 4.72
10/25/2022 2:15:00 AM 12.23 54.014 0.518 7.33 1.23 4.53
10/25/2022 2:30:00 AM 12.25 54.05 0.521 7.33 1.4 4.38
10/25/2022 2:45:00 AM 12.26 54.068 0.498 7.33 1.34 4.42
10/25/2022 3:00:00 AM 12.2 53.96 0.518 7.31 3.94 3.67
10/25/2022 3:15:00 AM 12.27 54.086 0.5 7.33 3.19 4.47
10/25/2022 3:30:00 AM 12.25 54.05 0.516 7.33 1.51 3.77
10/25/2022 3:45:00 AM 12.28 54.104 0.501 7.31 1.82 4.29
10/25/2022 4:00:00 AM 12.26 54.068 0.51 7.3 2 4.1
10/25/2022 4:15:00 AM 12.3 54.14 0.522 7.28 1.58 4.02
10/25/2022 4:30:00 AM 12.25 54.05 0.504 7.32 1.45 3.98
10/25/2022 4:45:00 AM 12.28 54.104 0.514 7.3 1.3 4.11
10/25/2022 5:00:00 AM 12.22 53.996 0.548 7.45 1.69 3.01
10/25/2022 5:15:00 AM 12.24 54.032 0.523 7.31 1.45 4.01
10/25/2022 5:30:00 AM 12.29 54.122 0.503 7.33 1.79 4.48
10/25/2022 5:45:00 AM 12.29 54.122 0.515 7.32 1.62 4.45
10/25/2022 6:00:00 AM 12.22 53.996 0.524 7.3 1.67 3.95
10/25/2022 6:15:00 AM 12.3 54.14 0.508 7.34 1.51 4.3
10/25/2022 6:30:00 AM 12.22 53.996 0.527 7.31 1.28 3.57
10/25/2022 6:45:00 AM 12.23 54.014 0.521 7.3 1.37 4.01
10/25/2022 7:00:00 AM 12.32 54.176 0.519 7.28 3.66 4.3
10/25/2022 7:15:00 AM 12.33 54.194 0.493 7.31 2.4 3.86
10/25/2022 7:30:00 AM 12.27 54.086 0.528 7.3 2.15 4.08
10/25/2022 7:45:00 AM 12.33 54.194 0.491 7.3 1.59 4.26
10/25/2022 8:00:00 AM 12.31 54.158 0.505 7.31 1.71 4.26
10/25/2022 8:15:00 AM 12.3 54.14 0.508 7.31 1.66 4.11
10/25/2022 8:30:00 AM 12.27 54.086 0.519 7.3 1.39 3.74
10/25/2022 8:45:00 AM 12.29 54.122 0.502 7.32 1.54 4.6
10/25/2022 9:00:00 AM 12.37 54.266 0.507 7.31 2.17 4.51
10/25/2022 9:15:00 AM 12.23 54.014 0.421 7.3 1.42 4.11
10/25/2022 9:30:00 AM 12.38 54.284 0.501 7.29 1.87 4.47
10/25/2022 9:45:00 AM 12.52 54.536 0.482 7.32 1.97 4.72
10/25/2022 10:00:00 AM 12.4 54.32 0.502 7.29 2.72 4.74
10/25/2022 10:15:00 AM 12.42 54.356 0.493 7.31 1.39 4.6
10/25/2022 10:30:00 AM 12.5 54.5 0.493 7.3 2.46 4.95
10/25/2022 10:45:00 AM 12.51 54.518 0.479 7.34 26.73 4.75
10/25/2022 11:00:00 AM 12.54 54.572 0.475 7.31 1.83 4.84
10/25/2022 11:15:00 AM 12.55 54.59 0.493 7.32 1.68 5.06
10/25/2022 11:30:00 AM 12.54 54.572 0.51 7.3 1.37 4.76
10/25/2022 11:45:00 AM 12.64 54.752 0.502 7.3 1.34 4.89
10/25/2022 12:00:00 PM 12.6 54.68 0.501 7.32 1.6 4.76
10/25/2022 12:15:00 PM 12.59 54.662 0.51 7.29 1.41 4.72
10/25/2022 12:30:00 PM 12.7 54.86 0.494 7.34 2 5.38
10/25/2022 12:45:00 PM 12.74 54.932 0.476 7.34 1.49 5.15
10/25/2022 1:00:00 PM 12.76 54.968 0.496 7.36 2.1 5.52
10/25/2022 1:15:00 PM 12.81 55.058 0.494 7.37 3.43 5.77
10/25/2022 1:30:00 PM 12.95 55.31 0.465 7.36 1.93 5.58
10/25/2022 1:45:00 PM 12.79 55.022 0.501 7.34 3.87 5.41
10/25/2022 2:00:00 PM 12.87 55.166 0.493 7.34 2.67 5.34
10/25/2022 2:15:00 PM 12.83 55.094 0.506 7.33 1.68 5.28
10/25/2022 2:30:00 PM 13.06 55.508 0.48 7.38 1.87 6.08
10/25/2022 2:45:00 PM 13.04 55.472 0.472 7.41 1.73 6.28
10/25/2022 3:00:00 PM 13.01 55.418 0.482 7.39 1.78 6.23
10/25/2022 3:15:00 PM 13.05 55.49 0.489 7.41 1.84 6.44
10/25/2022 3:30:00 PM 13.29 55.922 0.482 7.39 1.78 6.6
10/25/2022 3:45:00 PM 13.18 55.724 0.487 7.4 4.19 6.41
10/25/2022 4:00:00 PM 13.22 55.796 0.483 7.44 1.63 6.82
10/25/2022 4:15:00 PM 13.2 55.76 0.486 7.45 2.15 6.91
10/25/2022 4:30:00 PM 13.34 56.012 0.501 7.42 3.88 6.81
10/25/2022 4:45:00 PM 13.4 56.12 0.339 7.47 3.31 7.59
10/25/2022 5:00:00 PM 13.35 56.03 0.49 7.44 5.43 7.03
10/25/2022 5:15:00 PM 13.19 55.742 0.497 7.46 1.67 7.31
10/25/2022 5:30:00 PM 13.18 55.724 0.51 7.42 1.44 6.78
10/25/2022 5:45:00 PM 13.33 55.994 0.494 7.47 1.48 6.79
10/25/2022 6:00:00 PM 13.53 56.354 0.482 7.51 1.4 7.96
10/25/2022 6:15:00 PM 13.39 56.102 0.502 7.48 1.35 7.75
10/25/2022 6:30:00 PM 13.46 56.228 0.479 7.46 1.5 7.73
10/25/2022 6:45:00 PM 13.31 55.958 0.495 7.42 1.39 7.1
10/25/2022 7:00:00 PM 13.18 55.724 0.494 7.47 1.44 6.89
10/25/2022 7:15:00 PM 13.28 55.904 0.497 7.43 1.47 6.52
10/25/2022 7:30:00 PM 13.07 55.526 0.501 7.43 1.36 6.8
10/25/2022 7:45:00 PM 13.13 55.634 0.503 7.41 1.6 6.45
10/25/2022 8:00:00 PM 13.02 55.436 0.511 7.38 1.41 6.03
10/25/2022 8:15:00 PM 13.06 55.508 0.506 7.4 1.37 6.65
10/25/2022 8:30:00 PM 12.95 55.31 0.509 7.39 1.23 6.13
10/25/2022 8:45:00 PM 13.04 55.472 0.498 7.41 1.4 6
10/25/2022 9:00:00 PM 13.04 55.472 0.504 7.41 1.42 6.43
10/25/2022 9:15:00 PM 13.03 55.454 0.504 7.41 1.58 6.24
10/25/2022 9:30:00 PM 12.92 55.256 0.509 7.37 1.63 5.92
10/25/2022 9:45:00 PM 12.84 55.112 0.52 7.38 1.31 5.83
10/25/2022 10:00:00 PM 12.84 55.112 0.513 7.37 1.43 5.83
10/25/2022 10:15:00 PM 12.79 55.022 0.526 7.36 1.4 5.57
10/25/2022 10:30:00 PM 12.81 55.058 0.512 7.39 1.37 5.07
10/25/2022 10:45:00 PM 12.9 55.22 0.519 7.35 1.73 5.38
10/25/2022 11:00:00 PM 12.8 55.04 0.523 7.35 1.4 5.28
10/25/2022 11:15:00 PM 12.85 55.13 0.517 7.36 1.42 5.18
10/25/2022 11:30:00 PM 12.83 55.094 0.492 7.35 1.97 5.1
10/25/2022 11:45:00 PM 12.8 55.04 0.508 7.37 3 5.14
10/26/2022 12:00:00 AM 12.68 54.824 0.505 7.35 1.59 4.95
10/26/2022 12:15:00 AM 12.68 54.824 0.5 7.33 1.56 4.61
10/26/2022 12:30:00 AM 12.64 54.752 0.506 7.32 1.77 4.5
10/26/2022 12:45:00 AM 12.65 54.77 0.505 7.31 1.68 4.41
10/26/2022 1:00:00 AM 12.65 54.77 0.502 7.32 1.29 4.58
10/26/2022 1:15:00 AM 12.57 54.626 0.519 7.31 1.14 4.53
10/26/2022 1:30:00 AM 12.64 54.752 0.514 7.34 1.33 4.54
10/26/2022 1:45:00 AM 12.64 54.752 0.51 7.32 1.52 4.78
10/26/2022 2:00:00 AM 12.58 54.644 0.509 7.35 1.46 4.58
10/26/2022 2:15:00 AM 12.63 54.734 0.513 7.33 1.4 4.79
10/26/2022 2:30:00 AM 12.7 54.86 0.502 7.34 1.51 4.42
10/26/2022 2:45:00 AM 12.63 54.734 0.501 7.34 1.45 4.73
10/26/2022 3:00:00 AM 12.58 54.644 0.519 7.3 1.56 4.52
10/26/2022 3:15:00 AM 12.62 54.716 0.507 7.3 1.26 4.76
10/26/2022 3:30:00 AM 12.55 54.59 0.514 7.29 1.3 4.55
10/26/2022 3:45:00 AM 12.56 54.608 0.518 7.3 1.34 4.63
10/26/2022 4:00:00 AM 12.62 54.716 0.502 7.3 1.55 4.38
10/26/2022 4:15:00 AM 12.65 54.77 0.486 7.31 2.43 4.76
10/26/2022 4:30:00 AM 12.58 54.644 0.497 7.31 1.62 4.5
10/26/2022 4:45:00 AM 12.56 54.608 0.498 7.3 1.61 4.67
10/26/2022 5:00:00 AM 12.58 54.644 0.489 7.31 1.47 4.77
10/26/2022 5:15:00 AM 12.52 54.536 0.487 7.3 1.46 4.41
10/26/2022 5:30:00 AM 12.43 54.374 0.51 7.29 5.52 4.27
10/26/2022 5:45:00 AM 12.47 54.446 0.503 7.29 1.47 4.21
10/26/2022 6:00:00 AM 12.44 54.392 0.506 7.26 1.38 3.83
10/26/2022 6:15:00 AM 12.41 54.338 0.513 7.26 1.54 3.74
10/26/2022 6:30:00 AM 12.43 54.374 0.51 7.26 1.78 3.9
10/26/2022 6:45:00 AM 12.4 54.32 0.51 7.26 1.54 3.71
10/26/2022 7:00:00 AM 12.41 54.338 0.514 7.26 1.71 3.88
10/26/2022 7:15:00 AM 12.37 54.266 0.511 7.25 1.42 3.73
10/26/2022 7:30:00 AM 12.31 54.158 0.529 7.23 1.29 3.4
10/26/2022 7:45:00 AM 12.38 54.284 0.498 7.26 2.52 3.84
10/26/2022 8:00:00 AM 12.33 54.194 0.517 7.24 1.48 3.63
10/26/2022 8:15:00 AM 12.38 54.284 0.52 7.23 1.45 3.5
10/26/2022 8:30:00 AM 12.37 54.266 0.524 7.24 1.58 3.66
10/26/2022 8:45:00 AM 12.5 54.5 0.47 7.28 1.65 4.62
10/26/2022 9:00:00 AM 12.37 54.266 0.508 7.28 1.34 4.09
10/26/2022 9:15:00 AM 12.31 54.158 0.512 7.27 1.47 3.92
10/26/2022 9:30:00 AM 12.43 54.374 0.491 7.28 2.13 3.98
10/26/2022 9:45:00 AM 12.39 54.302 0.509 7.28 1.37 4.18
10/26/2022 10:00:00 AM 12.47 54.446 0.48 7.29 1.46 4.36
10/26/2022 10:15:00 AM 12.37 54.266 0.511 7.29 1.31 4.28
10/26/2022 10:30:00 AM 12.43 54.374 0.499 7.29 1.37 3.96
10/26/2022 10:45:00 AM 12.42 54.356 0.512 7.31 1.46 3.94
10/26/2022 11:00:00 AM 12.43 54.374 0.515 7.25 1.43 4.07
10/26/2022 11:15:00 AM 12.54 54.572 0.522 7.31 1.39 4.54
10/26/2022 11:30:00 AM 12.57 54.626 0.514 7.31 1.36 4.25
10/26/2022 11:45:00 AM 12.65 54.77 0.509 7.28 1.22 4.36
10/26/2022 12:00:00 PM 12.64 54.752 0.525 7.29 1.61 4.7
10/26/2022 12:15:00 PM 12.85 55.13 0.529 7.44 1.63 4.45
10/26/2022 12:30:00 PM 12.83 55.094 0.494 7.34 1.33 5.09
10/26/2022 12:45:00 PM 12.79 55.022 0.516 7.31 1.28 4.97
10/26/2022 1:00:00 PM 12.86 55.148 0.511 7.33 1.31 5.3
10/26/2022 1:15:00 PM 12.93 55.274 0.505 7.34 2.44 5.75
10/26/2022 1:30:00 PM 13 55.4 0.505 7.34 1.39 6.13
10/26/2022 1:45:00 PM 13.04 55.472 0.497 7.35 1.51 6.03
10/26/2022 2:00:00 PM 12.91 55.238 0.512 7.34 1.33 5.31
10/26/2022 2:15:00 PM 13.07 55.526 0.503 7.37 1.5 6.23
10/26/2022 2:30:00 PM 13.04 55.472 0.495 7.36 1.48 6.08
10/26/2022 2:45:00 PM 13.05 55.49 0.495 7.39 1.35 6.6
10/26/2022 3:00:00 PM 13.09 55.562 0.51 7.35 1.42 6.03
10/26/2022 3:15:00 PM 13.21 55.778 0.497 7.36 1.39 7.02
10/26/2022 3:30:00 PM 13.3 55.94 0.484 7.38 1.28 6.9
10/26/2022 3:45:00 PM 13.32 55.976 0.496 7.41 1.45 7.49
10/26/2022 4:00:00 PM 13.34 56.012 0.487 7.41 1.45 7.12
10/26/2022 4:15:00 PM 13.35 56.03 0.498 7.41 1.39 7.37
10/26/2022 4:30:00 PM 13.31 55.958 0.503 7.41 3.04 6.99
10/26/2022 4:45:00 PM 13.39 56.102 0.479 7.42 1.43 7.7
10/26/2022 5:00:00 PM 13.2 55.76 0.51 7.43 1.27 7.09
10/26/2022 5:15:00 PM 13.25 55.85 0.516 7.41 1.33 7.34
10/26/2022 5:30:00 PM 13.3 55.94 0.488 7.46 1.35 7.26
10/26/2022 5:45:00 PM 13.25 55.85 0.504 7.44 1.47 7.44
10/26/2022 6:00:00 PM 13.32 55.976 0.494 7.46 1.41 7.19
10/26/2022 6:15:00 PM 13.26 55.868 0.502 7.44 1.43 6.84
10/26/2022 6:30:00 PM 13.27 55.886 0.506 7.4 1.29 7.26
10/26/2022 6:45:00 PM 13.24 55.832 0.505 7.4 1.37 6.6
10/26/2022 7:00:00 PM 13.23 55.814 0.511 7.39 1.31 7.06
10/26/2022 7:15:00 PM 13.19 55.742 0.508 7.4 1.29 6.8
10/26/2022 7:30:00 PM 13.11 55.598 0.526 7.38 1.31 6.36
10/26/2022 7:45:00 PM 13.19 55.742 0.516 7.42 1.35 6.39
10/26/2022 8:00:00 PM 13.11 55.598 0.515 7.37 1.38 6.31
10/26/2022 8:15:00 PM 13.27 55.886 0.508 7.37 1.34 6.56
10/26/2022 8:30:00 PM 13.09 55.562 0.51 7.38 1.56 6.33
10/26/2022 8:45:00 PM 13.06 55.508 0.514 7.35 1.25 5.95
10/26/2022 9:00:00 PM 13.02 55.436 0.517 7.36 1.31 5.94
10/26/2022 9:15:00 PM 13.12 55.616 0.507 7.34 1.31 5.99
10/26/2022 9:30:00 PM 13.04 55.472 0.5 7.34 1.26 6.09
10/26/2022 9:45:00 PM 12.96 55.328 0.523 7.32 1.26 5.35
10/26/2022 10:00:00 PM 12.96 55.328 0.526 7.34 1.43 5.75
10/26/2022 10:15:00 PM 12.83 55.094 0.52 7.3 1.47 5.27
10/26/2022 10:30:00 PM 12.89 55.202 0.523 7.31 1.38 4.68
10/26/2022 10:45:00 PM 12.85 55.13 0.513 7.33 1.3 5.36
10/26/2022 11:00:00 PM 12.8 55.04 0.521 7.32 1.35 5.21
10/26/2022 11:15:00 PM 12.79 55.022 0.522 7.32 1.32 4.87
10/26/2022 11:30:00 PM 12.71 54.878 0.525 7.31 1.32 4.68
10/26/2022 11:45:00 PM 12.7 54.86 0.522 7.3 1.42 4.68
10/27/2022 12:00:00 AM 12.71 54.878 0.51 7.32 1.43 4.66
10/27/2022 12:15:00 AM 12.78 55.004 0.517 7.31 1.32 4.56
10/27/2022 12:30:00 AM 12.78 55.004 0.514 7.33 1.33 5.05
10/27/2022 12:45:00 AM 12.71 54.878 0.511 7.29 1.34 4.64
10/27/2022 1:00:00 AM 12.7 54.86 0.517 7.3 1.36 4.46
10/27/2022 1:15:00 AM 12.69 54.842 0.516 7.27 1.36 4.36
10/27/2022 1:30:00 AM 12.66 54.788 0.515 7.31 1.41 4.28
10/27/2022 1:45:00 AM 12.66 54.788 0.519 7.28 1.29 4.19
10/27/2022 2:00:00 AM 12.62 54.716 0.519 7.33 1.35 4.62
10/27/2022 2:15:00 AM 12.62 54.716 0.514 7.3 1.52 4.43
10/27/2022 2:30:00 AM 12.57 54.626 0.522 7.3 1.98 4.02
10/27/2022 2:45:00 AM 12.58 54.644 0.513 7.28 1.17 4.21
10/27/2022 3:00:00 AM 12.5 54.5 0.536 7.28 1.19 3.95
10/27/2022 3:15:00 AM 12.53 54.554 0.519 7.29 1.32 3.94
10/27/2022 3:30:00 AM 12.46 54.428 0.534 7.3 1.27 3.67
10/27/2022 3:45:00 AM 12.46 54.428 0.517 7.31 1.31 4.1
10/27/2022 4:00:00 AM 12.45 54.41 0.522 7.29 1.27 3.84
10/27/2022 4:15:00 AM 12.49 54.482 0.504 7.29 5.52 4.16
10/27/2022 4:30:00 AM 12.43 54.374 0.526 7.28 1.31 3.81
10/27/2022 4:45:00 AM 12.36 54.248 0.519 7.31 1.51 3.68
10/27/2022 5:00:00 AM 12.36 54.248 0.531 7.29 1.22 3.82
10/27/2022 5:15:00 AM 12.37 54.266 0.53 7.28 1.25 3.7
10/27/2022 5:30:00 AM 12.33 54.194 0.521 7.27 1.2 3.38
10/27/2022 5:45:00 AM 12.33 54.194 0.523 7.28 1.16 3.66
10/27/2022 6:00:00 AM 12.27 54.086 0.528 7.27 1.26 3.52
10/27/2022 6:15:00 AM 12.26 54.068 0.509 7.29 1.18 3.82
10/27/2022 6:30:00 AM 12.27 54.086 0.507 7.3 1.28 4.1
10/27/2022 6:45:00 AM 12.21 53.978 0.531 7.31 1.38 3.88
10/27/2022 7:00:00 AM 12.19 53.942 0.531 7.26 1.46 3.54
10/27/2022 7:15:00 AM 12.18 53.924 0.524 7.26 1.28 3.81
10/27/2022 7:30:00 AM 12.18 53.924 0.516 7.27 2.01 3.92
10/27/2022 7:45:00 AM 12.13 53.834 0.538 7.24 1.2 3.32
10/27/2022 8:00:00 AM 12.1 53.78 0.529 7.26 1.32 3.65
10/27/2022 8:15:00 AM 12.07 53.726 0.527 7.28 1.87 3.7
10/27/2022 8:30:00 AM 12.06 53.708 0.535 7.24 1.34 3.27
10/27/2022 8:45:00 AM 12.04 53.672 0.512 7.27 1.34 3.53
10/27/2022 9:00:00 AM 12.01 53.618 0.537 7.24 1.87 3.25
10/27/2022 9:15:00 AM 11.99 53.582 0.538 7.24 1.45 3.07
10/27/2022 9:30:00 AM 11.98 53.564 0.546 7.23 1.41 3.13
10/27/2022 9:45:00 AM 11.97 53.546 0.538 7.24 1.27 3.33
10/27/2022 10:00:00 AM 11.96 53.528 0.525 7.27 1.3 3.58
10/27/2022 10:15:00 AM 11.94 53.492 0.528 7.27 1.2 3.71
10/27/2022 10:30:00 AM 11.95 53.51 0.519 7.25 1.22 3.44
10/27/2022 10:45:00 AM 11.93 53.474 0.517 7.27 1.42 3.83
10/27/2022 11:00:00 AM 11.93 53.474 0.527 7.26 1.56 3.66
10/27/2022 11:15:00 AM 11.93 53.474 0.528 7.25 1.4 3.33
10/27/2022 11:30:00 AM 11.92 53.456 0.504 7.42 1.41 2.17
10/27/2022 11:45:00 AM 11.92 53.456 0.535 7.3 1.2 3.66
10/27/2022 12:00:00 PM 11.93 53.474 0.53 7.32 1.4 4.57
10/27/2022 12:15:00 PM 11.93 53.474 0.536 7.28 1.45 3.95
10/27/2022 12:30:00 PM 11.94 53.492 0.517 7.32 1.37 4.24
10/27/2022 12:45:00 PM 11.95 53.51 0.519 7.34 1.43 4.92
10/27/2022 1:00:00 PM 11.97 53.546 0.529 7.3 1.16 3.85
10/27/2022 1:15:00 PM 11.99 53.582 0.527 7.31 2.06 4.11
10/27/2022 1:30:00 PM 11.99 53.582 0.537 7.3 1.21 4.1
10/27/2022 1:45:00 PM 12.01 53.618 0.519 7.33 1.21 3.89
10/27/2022 2:00:00 PM 12.02 53.636 0.543 7.3 1.46 4.09
10/27/2022 2:15:00 PM 12.04 53.672 0.52 7.37 1.17 4.82
10/27/2022 2:30:00 PM 12.05 53.69 0.545 7.31 1.8 4.27
10/27/2022 2:45:00 PM 12.12 53.816 0.505 7.34 4.88 4.66
10/27/2022 3:00:00 PM 12.08 53.744 0.535 7.33 1.24 4.17
10/27/2022 3:15:00 PM 12.1 53.78 0.524 7.35 1.38 4.95
10/27/2022 3:30:00 PM 12.13 53.834 0.518 7.38 1.48 5.16
10/27/2022 3:45:00 PM 12.15 53.87 0.525 7.39 1.52 4.93
10/27/2022 4:00:00 PM 12.14 53.852 0.522 7.39 1.66 5.53
10/27/2022 4:15:00 PM 12.1 53.78 0.538 7.34 1.34 4.01
10/27/2022 4:30:00 PM 12.12 53.816 0.534 7.32 1.37 3.94
10/27/2022 4:45:00 PM 12.09 53.762 0.523 7.35 1.39 4.58
10/27/2022 5:00:00 PM 12.06 53.708 0.539 7.33 1.42 4.22
10/27/2022 5:15:00 PM 12.05 53.69 0.54 7.33 1.15 4.67
10/27/2022 5:30:00 PM 12.03 53.654 0.553 7.34 1.76 4.03
10/27/2022 5:45:00 PM 11.99 53.582 0.537 7.33 1.11 3.94
10/27/2022 6:00:00 PM 11.99 53.582 0.534 7.35 1.18 3.94
10/27/2022 6:15:00 PM 11.96 53.528 0.547 7.29 1.02 3.54
10/27/2022 6:30:00 PM 11.94 53.492 0.542 7.28 1.09 3.44
10/27/2022 6:45:00 PM 11.94 53.492 0.528 7.33 1.4 3.66
10/27/2022 7:00:00 PM 11.93 53.474 0.539 7.32 1.27 3.97
10/27/2022 7:15:00 PM 11.91 53.438 0.538 7.38 1.44 3.92
10/27/2022 7:30:00 PM 11.9 53.42 0.542 7.34 1.42 3.65
10/27/2022 7:45:00 PM 11.88 53.384 0.55 7.32 1.67 3.34
10/27/2022 8:00:00 PM 11.85 53.33 0.542 7.33 1.3 3.86
10/27/2022 8:15:00 PM 11.84 53.312 0.537 7.35 1.36 4.06
10/27/2022 8:30:00 PM 11.8 53.24 0.529 7.36 1.41 4.1
10/27/2022 8:45:00 PM 11.8 53.24 0.541 7.31 1.17 3.43
10/27/2022 9:00:00 PM 11.79 53.222 0.55 7.27 1.08 3.03
10/27/2022 9:15:00 PM 11.75 53.15 0.541 7.3 3.85 3.2
10/27/2022 9:30:00 PM 11.73 53.114 0.553 7.27 1.23 2.98
10/27/2022 9:45:00 PM 11.7 53.06 0.543 7.28 1.29 3.02
10/27/2022 10:00:00 PM 11.64 52.952 0.544 7.29 1.47 3.35
10/27/2022 10:15:00 PM 11.6 52.88 0.552 7.24 1.46 2.81
10/27/2022 10:30:00 PM 11.5 52.7 0.539 7.33 1.45 3.32
10/27/2022 10:45:00 PM 11.41 52.538 0.525 7.34 1.43 3.88
10/27/2022 11:00:00 PM 11.36 52.448 0.525 7.32 1.38 3.59
10/27/2022 11:15:00 PM 11.27 52.286 0.525 7.32 1.48 3.34
10/27/2022 11:30:00 PM 11.12 52.016 0.502 7.32 1.49 4.08
10/27/2022 11:45:00 PM 11.09 51.962 0.525 7.36 1.64 4.12
10/28/2022 12:00:00 AM 10.91 51.638 0.499 7.38 1.8 4.71
10/28/2022 12:15:00 AM 10.8 51.44 0.5 7.33 1.51 4.92
10/28/2022 12:30:00 AM 10.6 51.08 0.465 7.42 2.45 6.59
10/28/2022 12:45:00 AM 10.56 51.008 0.471 7.41 1.97 6.05
10/28/2022 1:00:00 AM 10.4 50.72 0.442 7.44 1.77 6.37
10/28/2022 1:15:00 AM 10.33 50.594 0.454 7.46 1.79 6.78
10/28/2022 1:30:00 AM 10.28 50.504 0.449 7.45 1.87 6.34
10/28/2022 1:45:00 AM 10.14 50.252 0.449 7.43 1.96 6.22
10/28/2022 2:00:00 AM 10.02 50.036 0.44 7.48 1.63 7.04
10/28/2022 2:15:00 AM 10 50 0.452 7.48 1.75 7.09
10/28/2022 2:30:00 AM 9.91 49.838 0.462 7.46 1.64 6.82
10/28/2022 2:45:00 AM 9.85 49.73 0.486 7.49 1.86 7.2
10/28/2022 3:00:00 AM 9.71 49.478 0.46 7.48 1.74 6.96
10/28/2022 3:15:00 AM 9.74 49.532 0.476 7.46 1.71 7
10/28/2022 3:30:00 AM 9.65 49.37 0.464 7.49 1.66 7.12
10/28/2022 3:45:00 AM 9.63 49.334 0.469 7.45 1.7 6.87
10/28/2022 4:00:00 AM 9.59 49.262 0.47 7.46 1.71 6.52
10/28/2022 4:15:00 AM 9.47 49.046 0.456 7.47 1.75 6.97
10/28/2022 4:30:00 AM 9.39 48.902 0.451 7.48 1.76 7.11
10/28/2022 4:45:00 AM 9.31 48.758 0.455 7.48 1.59 7.21
10/28/2022 5:00:00 AM 9.31 48.758 0.469 7.48 1.69 7.13
10/28/2022 5:15:00 AM 9.19 48.542 0.449 7.48 1.57 7.09
10/28/2022 5:30:00 AM 9.16 48.488 0.45 7.48 1.72 7.13
10/28/2022 5:45:00 AM 9.08 48.344 0.446 7.48 1.58 7.31
10/28/2022 6:00:00 AM 9.07 48.326 0.457 7.47 1.7 6.97
10/28/2022 6:15:00 AM 9.05 48.29 0.467 7.47 1.8 7.04
10/28/2022 6:30:00 AM 8.97 48.146 0.457 7.46 2.29 7.01
10/28/2022 6:45:00 AM 8.97 48.146 0.466 7.46 1.69 7.05
10/28/2022 7:00:00 AM 8.88 47.984 0.453 7.47 1.67 7.05
10/28/2022 7:15:00 AM 8.84 47.912 0.454 7.46 1.61 7.07
10/28/2022 7:30:00 AM 8.76 47.768 0.45 7.46 1.75 7.08
10/28/2022 7:45:00 AM 8.77 47.786 0.457 7.45 1.67 6.92
10/28/2022 8:00:00 AM 8.63 47.534 0.449 7.47 2.02 7.25
10/28/2022 8:15:00 AM 8.6 47.48 0.452 7.47 1.71 7.3
10/28/2022 8:30:00 AM 8.53 47.354 0.445 7.47 1.88 7.32
10/28/2022 8:45:00 AM 8.58 47.444 0.448 7.45 1.93 7.08
10/28/2022 9:00:00 AM 8.51 47.318 0.447 7.46 1.89 7.06
10/28/2022 9:15:00 AM 8.54 47.372 0.45 7.46 1.95 7.3
10/28/2022 9:30:00 AM 8.54 47.372 0.448 7.46 1.82 7.42
10/28/2022 9:45:00 AM 8.55 47.39 0.452 7.47 1.88 7.58
10/28/2022 10:00:00 AM 8.59 47.462 0.451 7.47 1.86 7.5
10/28/2022 10:15:00 AM 8.56 47.408 0.459 7.47 1.83 7.74
10/28/2022 10:30:00 AM 8.58 47.444 0.453 7.48 1.78 7.82
10/28/2022 10:45:00 AM 8.68 47.624 0.46 7.47 2.02 7.68
10/28/2022 11:00:00 AM 8.73 47.714 0.47 7.48 1.64 7.75
10/28/2022 11:15:00 AM 8.75 47.75 0.457 7.48 1.6 7.86
10/28/2022 11:30:00 AM 8.71 47.678 0.445 7.48 1.72 7.96
10/28/2022 11:45:00 AM 8.79 47.822 0.451 7.51 1.57 8.27
10/28/2022 12:00:00 PM 8.85 47.93 0.455 7.49 1.51 8.21
10/28/2022 12:15:00 PM 8.87 47.966 0.446 7.51 1.56 8.52
10/28/2022 12:30:00 PM 8.95 48.11 0.456 7.52 1.65 8.54
10/28/2022 12:45:00 PM 9.05 48.29 0.463 7.52 1.76 8.64
10/28/2022 1:00:00 PM 9.08 48.344 0.448 7.53 1.84 8.83
10/28/2022 1:15:00 PM 9.14 48.452 0.443 7.55 2.23 9.02
10/28/2022 1:30:00 PM 9.22 48.596 0.445 7.55 1.6 9.12
10/28/2022 1:45:00 PM 9.3 48.74 0.442 7.54 1.6 9.18
10/28/2022 2:00:00 PM 9.4 48.92 0.449 7.53 1.73 9.01
10/28/2022 2:15:00 PM 9.5 49.1 0.447 7.53 1.51 8.93
10/28/2022 2:30:00 PM 9.55 49.19 0.444 7.57 1.95 9.42
10/28/2022 2:45:00 PM 9.63 49.334 0.443 7.53 4.57 9.29
10/28/2022 3:00:00 PM 9.73 49.514 0.447 7.59 1.78 9.58
10/28/2022 3:15:00 PM 9.81 49.658 0.445 7.62 1.71 9.98
10/28/2022 3:30:00 PM 9.9 49.82 0.457 7.59 1.58 9.75
10/28/2022 3:45:00 PM 10.01 50.018 0.47 7.55 1.47 8.94
10/28/2022 4:00:00 PM 10.13 50.234 0.485 7.54 1.42 8.92
10/28/2022 4:15:00 PM 10.13 50.234 0.458 7.58 1.49 9.52
10/28/2022 4:30:00 PM 10.21 50.378 0.464 7.54 2 8.78
10/28/2022 4:45:00 PM 10.42 50.756 0.504 7.44 2.54 6.74
10/28/2022 5:00:00 PM 10.34 50.612 0.472 7.49 1.61 7.65
10/28/2022 5:15:00 PM 10.45 50.81 0.5 7.46 2.05 7.28
10/28/2022 5:30:00 PM 10.43 50.774 0.488 7.46 1.83 7.3
10/28/2022 5:45:00 PM 10.37 50.666 0.475 7.49 1.67 7.98
10/28/2022 6:00:00 PM 10.41 50.738 0.495 7.5 1.74 8.17
10/28/2022 6:15:00 PM 10.45 50.81 0.492 7.47 1.53 7.49
10/28/2022 6:30:00 PM 10.44 50.792 0.481 7.49 3.57 7.82
10/28/2022 6:45:00 PM 10.46 50.828 0.473 7.52 1.62 8.23
10/28/2022 7:00:00 PM 10.43 50.774 0.46 7.52 1.5 8.14
10/28/2022 7:15:00 PM 10.5 50.9 0.489 7.46 1.51 7.31
10/28/2022 7:30:00 PM 10.4 50.72 0.469 7.54 1.7 8.54
10/28/2022 7:45:00 PM 10.42 50.756 0.467 7.53 1.56 8.03
10/28/2022 8:00:00 PM 10.44 50.792 0.471 7.5 1.54 7.61
10/28/2022 8:15:00 PM 10.37 50.666 0.475 7.51 1.88 7.93
10/28/2022 8:30:00 PM 10.39 50.702 0.476 7.48 1.58 7.39
10/28/2022 8:45:00 PM 10.37 50.666 0.475 7.46 1.68 7.21
10/28/2022 9:00:00 PM 10.36 50.648 0.487 7.46 1.6 7.05
10/28/2022 9:15:00 PM 10.31 50.558 0.485 7.45 1.64 6.63
10/28/2022 9:30:00 PM 10.2 50.36 0.468 7.47 1.62 7.4
10/28/2022 9:45:00 PM 10.14 50.252 0.461 7.51 1.57 7.79
10/28/2022 10:00:00 PM 10.06 50.108 0.464 7.51 1.63 7.78
10/28/2022 10:15:00 PM 10.03 50.054 0.478 7.49 1.58 7.52
10/28/2022 10:30:00 PM 9.92 49.856 0.462 7.52 1.57 8.02
10/28/2022 10:45:00 PM 9.93 49.874 0.47 7.46 2.74 7.5
10/28/2022 11:00:00 PM 9.78 49.604 0.446 7.53 2 8.28
10/28/2022 11:15:00 PM 9.66 49.388 0.445 7.52 1.72 8.56
10/28/2022 11:30:00 PM 9.63 49.334 0.446 7.51 1.8 8.27
10/28/2022 11:45:00 PM 9.51 49.118 0.441 7.54 2.18 8.22
10/29/2022 12:00:00 AM 9.5 49.1 0.455 7.55 2.47 8.48
10/29/2022 12:15:00 AM 9.41 48.938 0.447 7.56 2.25 8.07
10/29/2022 12:30:00 AM 9.38 48.884 0.442 7.55 2.03 8.36
10/29/2022 12:45:00 AM 9.23 48.614 0.439 7.55 1.82 8.41
10/29/2022 1:00:00 AM 9.18 48.524 0.446 7.55 1.74 8.57
10/29/2022 1:15:00 AM 9.12 48.416 0.448 7.54 1.77 8.24
10/29/2022 1:30:00 AM 9.06 48.308 0.443 7.53 1.64 8.28
10/29/2022 1:45:00 AM 9.07 48.326 0.452 7.53 1.69 8.14
10/29/2022 2:00:00 AM 8.9 48.02 0.431 7.51 1.73 8.1
10/29/2022 2:15:00 AM 8.88 47.984 0.434 7.52 1.69 7.94
10/29/2022 2:30:00 AM 8.78 47.804 0.433 7.53 1.8 7.99
10/29/2022 2:45:00 AM 8.7 47.66 0.437 7.52 1.73 8.21
10/29/2022 3:00:00 AM 8.81 47.858 0.453 7.52 1.67 7.97
10/29/2022 3:15:00 AM 8.69 47.642 0.439 7.52 1.79 8.09
10/29/2022 3:30:00 AM 8.6 47.48 0.438 7.51 1.69 8.18
10/29/2022 3:45:00 AM 8.51 47.318 0.433 7.51 1.61 8.05
10/29/2022 4:00:00 AM 8.46 47.228 0.437 7.51 1.84 8.11
10/29/2022 4:15:00 AM 8.52 47.336 0.443 7.49 1.91 7.89
10/29/2022 4:30:00 AM 8.42 47.156 0.439 7.5 1.83 8.03
10/29/2022 4:45:00 AM 8.3 46.94 0.433 7.48 1.79 7.8
10/29/2022 5:00:00 AM 8.24 46.832 0.434 7.48 1.89 7.84
10/29/2022 5:15:00 AM 8.27 46.886 0.438 7.49 1.86 7.93
10/29/2022 5:30:00 AM 8.16 46.688 0.443 7.48 1.95 7.59
10/29/2022 5:45:00 AM 8.15 46.67 0.439 7.48 1.73 7.86
10/29/2022 6:00:00 AM 8.14 46.652 0.443 7.48 1.76 7.77
10/29/2022 6:15:00 AM 8.06 46.508 0.431 7.47 1.67 7.87
10/29/2022 6:30:00 AM 8.05 46.49 0.432 7.45 1.76 7.61
10/29/2022 6:45:00 AM 7.94 46.292 0.429 7.45 1.76 7.82
10/29/2022 7:00:00 AM 7.88 46.184 0.439 7.45 1.75 7.69
10/29/2022 7:15:00 AM 7.88 46.184 0.441 7.45 1.87 7.85
10/29/2022 7:30:00 AM 7.8 46.04 0.43 7.44 1.99 7.77
10/29/2022 7:45:00 AM 7.78 46.004 0.432 7.45 2.06 7.73
10/29/2022 8:00:00 AM 7.87 46.166 0.459 7.44 1.99 7.71
10/29/2022 8:15:00 AM 7.73 45.914 0.435 7.43 1.95 7.52
10/29/2022 8:30:00 AM 7.67 45.806 0.431 7.44 1.88 7.78
10/29/2022 8:45:00 AM 7.61 45.698 0.428 7.44 2.01 7.85
10/29/2022 9:00:00 AM 7.61 45.698 0.436 7.45 1.86 7.84
10/29/2022 9:15:00 AM 7.66 45.788 0.427 7.45 1.94 7.83
10/29/2022 9:30:00 AM 7.71 45.878 0.452 7.44 2.08 7.35
10/29/2022 9:45:00 AM 7.51 45.518 0.429 7.44 1.83 7.82
10/29/2022 10:00:00 AM 7.52 45.536 0.427 7.46 1.93 8.01
10/29/2022 10:15:00 AM 7.54 45.572 0.433 7.46 1.86 7.98
10/29/2022 10:30:00 AM 7.58 45.644 0.435 7.48 1.86 7.96
10/29/2022 10:45:00 AM 7.69 45.842 0.444 7.47 1.78 8.1
10/29/2022 11:00:00 AM 7.64 45.752 0.43 7.48 1.92 8.2
10/29/2022 11:15:00 AM 7.77 45.986 0.437 7.49 1.81 8.39
10/29/2022 11:30:00 AM 7.79 46.022 0.438 7.51 1.76 8.51
10/29/2022 11:45:00 AM 7.83 46.094 0.433 7.52 1.86 8.56
10/29/2022 12:00:00 PM 7.89 46.202 0.434 7.52 1.81 8.69
10/29/2022 12:15:00 PM 8.02 46.436 0.435 7.54 1.74 8.75
10/29/2022 12:30:00 PM 8.09 46.562 0.427 7.54 1.82 8.68
10/29/2022 12:45:00 PM 8.22 46.796 0.438 7.55 1.68 8.91
10/29/2022 1:00:00 PM 8.31 46.958 0.435 7.56 1.69 8.99
10/29/2022 1:15:00 PM 8.42 47.156 0.426 7.57 1.72 9.08
10/29/2022 1:30:00 PM 8.54 47.372 0.436 7.58 1.66 9.22
10/29/2022 1:45:00 PM 8.66 47.588 0.43 7.59 1.69 9.31
10/29/2022 2:00:00 PM 8.79 47.822 0.439 7.54 4.33 8.88
10/29/2022 2:15:00 PM 8.93 48.074 0.446 7.59 1.73 9.33
10/29/2022 2:30:00 PM 9.02 48.236 0.433 7.57 1.5 9.44
10/29/2022 2:45:00 PM 9.12 48.416 0.441 7.62 1.64 9.42
10/29/2022 3:00:00 PM 9.26 48.668 0.45 7.6 1.62 9.23
10/29/2022 3:15:00 PM 9.38 48.884 0.453 7.57 1.68 9.15
10/29/2022 3:30:00 PM 9.48 49.064 0.449 7.56 1.47 9.06
10/29/2022 3:45:00 PM 9.58 49.244 0.45 7.59 1.47 9.02
10/29/2022 4:00:00 PM 9.71 49.478 0.454 7.58 1.51 8.31
10/29/2022 4:15:00 PM 9.79 49.622 0.468 7.56 1.66 8.69
10/29/2022 4:30:00 PM 9.88 49.784 0.481 7.53 1.4 8.23
10/29/2022 4:45:00 PM 9.93 49.874 0.471 7.54 1.58 8.51
10/29/2022 5:00:00 PM 10.02 50.036 0.49 7.45 1.66 7.52
10/29/2022 5:15:00 PM 10.2 50.36 0.511 7.39 1.3 5.94
10/29/2022 5:30:00 PM 10.06 50.108 0.481 7.5 1.57 7.56
10/29/2022 5:45:00 PM 10.1 50.18 0.497 7.51 1.65 7.46
10/29/2022 6:00:00 PM 10.13 50.234 0.477 7.47 1.62 7.54
10/29/2022 6:15:00 PM 10.15 50.27 0.482 7.49 1.56 7.31
10/29/2022 6:30:00 PM 10.11 50.198 0.484 7.45 1.5 7.17
10/29/2022 6:45:00 PM 10.13 50.234 0.49 7.51 1.56 7.31
10/29/2022 7:00:00 PM 10.07 50.126 0.49 7.49 1.71 8.06
10/29/2022 7:15:00 PM 10.11 50.198 0.483 7.48 1.46 7.55
10/29/2022 7:30:00 PM 10.03 50.054 0.473 7.47 1.7 7.35
10/29/2022 7:45:00 PM 10.04 50.072 0.493 7.54 2.23 7.8
10/29/2022 8:00:00 PM 10.01 50.018 0.483 7.47 2.11 7.55
10/29/2022 8:15:00 PM 10 50 0.483 7.5 1.82 7.37
10/29/2022 8:30:00 PM 9.88 49.784 0.459 7.54 1.7 8.09
10/29/2022 8:45:00 PM 9.83 49.694 0.468 7.56 1.63 8.55
10/29/2022 9:00:00 PM 9.65 49.37 0.444 7.61 1.65 9.29
10/29/2022 9:15:00 PM 9.64 49.352 0.449 7.57 1.66 9.37
10/29/2022 9:30:00 PM 9.59 49.262 0.45 7.54 1.85 8.62
10/29/2022 9:45:00 PM 9.42 48.956 0.433 7.57 2.7 9.17
10/29/2022 10:00:00 PM 9.36 48.848 0.443 7.57 1.75 9.38
10/29/2022 10:15:00 PM 9.4 48.92 0.448 7.57 1.78 8.57
10/29/2022 10:30:00 PM 9.28 48.704 0.462 7.57 1.72 8.77
10/29/2022 10:45:00 PM 9.23 48.614 0.448 7.47 1.62 8.35
10/29/2022 11:00:00 PM 9.18 48.524 0.446 7.54 1.78 8.33
10/29/2022 11:15:00 PM 9.15 48.47 0.45 7.55 1.79 8.2
10/29/2022 11:30:00 PM 8.96 48.128 0.451 7.58 2.08 8.67
10/29/2022 11:45:00 PM 8.87 47.966 0.442 7.56 1.84 8.81
10/30/2022 12:00:00 AM 8.84 47.912 0.448 7.51 6.94 8.07
10/30/2022 12:15:00 AM 8.82 47.876 0.459 7.5 4.84 8.21
10/30/2022 12:30:00 AM 8.64 47.552 0.442 7.54 2.73 8.56
10/30/2022 12:45:00 AM 8.61 47.498 0.449 7.55 2.09 8.31
10/30/2022 1:00:00 AM 8.58 47.444 0.442 7.54 2.09 8.26
10/30/2022 1:15:00 AM 8.58 47.444 0.459 7.52 4.92 8.45
10/30/2022 1:30:00 AM 8.44 47.192 0.445 7.51 1.84 7.52
10/30/2022 1:45:00 AM 8.37 47.066 0.45 7.51 1.86 8.14
10/30/2022 2:00:00 AM 8.3 46.94 0.456 7.51 1.82 8.06
10/30/2022 2:15:00 AM 8.14 46.652 0.442 7.51 2.48 8.4
10/30/2022 2:30:00 AM 8.05 46.49 0.443 7.52 1.75 8.36
10/30/2022 2:45:00 AM 8.15 46.67 0.459 7.47 1.66 7.74
10/30/2022 3:00:00 AM 7.94 46.292 0.431 7.51 1.8 8.13
10/30/2022 3:15:00 AM 7.9 46.22 0.462 7.51 2.01 8.29
10/30/2022 3:30:00 AM 7.83 46.094 0.439 7.49 5.65 8.15
10/30/2022 3:45:00 AM 7.88 46.184 0.444 7.49 4.86 8.17
10/30/2022 4:00:00 AM 7.93 46.274 0.444 7.49 2.64 8.08
10/30/2022 4:15:00 AM 7.76 45.968 0.437 7.49 2.24 8.31
10/30/2022 4:30:00 AM 7.75 45.95 0.449 7.49 2.12 8.28
10/30/2022 4:45:00 AM 7.61 45.698 0.437 7.49 1.79 8.34
10/30/2022 5:00:00 AM 7.75 45.95 0.473 7.49 1.89 8.18
10/30/2022 5:15:00 AM 7.63 45.734 0.445 7.48 1.92 7.99
10/30/2022 5:30:00 AM 7.47 45.446 0.43 7.48 1.79 7.87
10/30/2022 5:45:00 AM 7.55 45.59 0.435 7.46 1.96 7.68
10/30/2022 6:00:00 AM 7.49 45.482 0.441 7.46 1.8 7.97
10/30/2022 6:15:00 AM 7.34 45.212 0.437 7.46 4.12 8
10/30/2022 6:30:00 AM 7.35 45.23 0.431 7.46 2.68 8.01
10/30/2022 6:45:00 AM 7.34 45.212 0.429 7.44 2.08 7.86
10/30/2022 7:00:00 AM 7.3 45.14 0.437 7.42 1.79 7.78
10/30/2022 7:15:00 AM 7.32 45.176 0.443 7.45 1.82 7.86
10/30/2022 7:30:00 AM 7.2 44.96 0.43 7.44 1.93 7.84
10/30/2022 7:45:00 AM 7.11 44.798 0.428 7.45 1.98 7.95
10/30/2022 8:00:00 AM 7.1 44.78 0.431 7.46 2.21 7.92
10/30/2022 8:15:00 AM 7.06 44.708 0.432 7.45 4.87 7.83
10/30/2022 8:30:00 AM 7.05 44.69 0.433 7.45 3.97 7.9
10/30/2022 8:45:00 AM 7.08 44.744 0.433 7.44 2.32 7.78
10/30/2022 9:00:00 AM 6.99 44.582 0.444 7.46 2.16 8.13
10/30/2022 9:15:00 AM 6.87 44.366 0.43 7.45 2.19 8.17
10/30/2022 9:30:00 AM 6.96 44.528 0.436 7.45 2.06 7.96
10/30/2022 9:45:00 AM 7.01 44.618 0.45 7.46 2.22 7.94
10/30/2022 10:00:00 AM 7.05 44.69 0.452 7.47 2.01 8.13
10/30/2022 10:15:00 AM 7.01 44.618 0.446 7.46 1.93 8.26
10/30/2022 10:30:00 AM 6.97 44.546 0.46 7.47 2.03 8.37
10/30/2022 10:45:00 AM 7.08 44.744 0.455 7.49 2.09 8.5
10/30/2022 11:00:00 AM 7.06 44.708 0.46 7.49 2.08 8.43
10/30/2022 11:15:00 AM 7.07 44.726 0.443 7.51 2.02 8.66
10/30/2022 11:30:00 AM 7.1 44.78 0.442 7.51 2.51 8.82
10/30/2022 11:45:00 AM 7.12 44.816 0.431 7.5 6.68 8.74
10/30/2022 12:00:00 PM 7.23 45.014 0.434 7.53 2.02 8.92
10/30/2022 12:15:00 PM 7.29 45.122 0.432 7.53 1.76 9.08
10/30/2022 12:30:00 PM 7.41 45.338 0.439 7.55 1.95 9.14
10/30/2022 12:45:00 PM 7.49 45.482 0.434 7.55 2.53 9.24
10/30/2022 1:00:00 PM 7.63 45.734 0.439 7.55 2.42 9.21
10/30/2022 1:15:00 PM 7.72 45.896 0.433 7.55 3.89 9.26
10/30/2022 1:30:00 PM 7.84 46.112 0.432 7.57 2.21 9.39
10/30/2022 1:45:00 PM 8.02 46.436 0.448 7.59 1.91 9.43
10/30/2022 2:00:00 PM 8.13 46.634 0.447 7.59 1.84 9.29
10/30/2022 2:15:00 PM 8.21 46.778 0.439 7.59 1.74 9.52
10/30/2022 2:30:00 PM 8.31 46.958 0.437 7.6 1.84 9.55
10/30/2022 2:45:00 PM 8.42 47.156 0.438 7.6 1.71 9.62
10/30/2022 3:00:00 PM 8.49 47.282 0.443 7.62 1.77 9.94
10/30/2022 3:15:00 PM 8.6 47.48 0.452 7.62 1.83 9.74
10/30/2022 3:30:00 PM 8.66 47.588 0.435 7.64 1.78 10.12
10/30/2022 3:45:00 PM 8.75 47.75 0.454 7.67 1.91 10.35
10/30/2022 4:00:00 PM 8.85 47.93 0.444 7.61 1.77 9.47
10/30/2022 4:15:00 PM 8.97 48.146 0.459 7.54 1.81 9.22
10/30/2022 4:30:00 PM 9.02 48.236 0.447 7.66 1.68 10.38
10/30/2022 4:45:00 PM 9.03 48.254 0.44 7.65 1.8 10.31
10/30/2022 5:00:00 PM 9.13 48.434 0.455 7.64 1.68 9.76
10/30/2022 5:15:00 PM 9.21 48.578 0.462 7.63 1.62 9.68
10/30/2022 5:30:00 PM 9.2 48.56 0.445 7.67 1.77 10.22
10/30/2022 5:45:00 PM 9.27 48.686 0.455 7.62 1.7 9.37
10/30/2022 6:00:00 PM 9.34 48.812 0.458 7.61 1.83 9.59
10/30/2022 6:15:00 PM 9.34 48.812 0.464 7.62 1.85 9.62
10/30/2022 6:30:00 PM 9.34 48.812 0.446 7.66 1.81 9.54
10/30/2022 6:45:00 PM 9.33 48.794 0.454 7.64 1.78 9.81
10/30/2022 7:00:00 PM 9.4 48.92 0.465 7.62 2.15 9.18
10/30/2022 7:15:00 PM 9.4 48.92 0.462 7.61 1.78 8.71
10/30/2022 7:30:00 PM 9.47 49.046 0.482 7.52 1.46 6.99
10/30/2022 7:45:00 PM 9.4 48.92 0.461 7.59 1.74 8.12
10/30/2022 8:00:00 PM 9.32 48.776 0.441 7.63 1.82 8.93
10/30/2022 8:15:00 PM 9.43 48.974 0.466 7.56 1.55 8.16
10/30/2022 8:30:00 PM 9.34 48.812 0.464 7.49 2.04 8.28
10/30/2022 8:45:00 PM 9.34 48.812 0.462 7.51 2.23 8.18
10/30/2022 9:00:00 PM 9.34 48.812 0.475 7.52 2.08 8.13
10/30/2022 9:15:00 PM 9.31 48.758 0.464 7.44 1.82 7.74
10/30/2022 9:30:00 PM 9.29 48.722 0.471 7.45 1.63 8.02
10/30/2022 9:45:00 PM 9.27 48.686 0.487 7.43 1.6 7.42
10/30/2022 10:00:00 PM 9.22 48.596 0.47 7.49 1.75 7.97
10/30/2022 10:15:00 PM 9.12 48.416 0.471 7.45 1.82 7.63
10/30/2022 10:30:00 PM 9.15 48.47 0.482 7.49 1.73 7.88
10/30/2022 10:45:00 PM 9.1 48.38 0.476 7.46 1.84 7.68
10/30/2022 11:00:00 PM 9.15 48.47 0.494 7.41 1.72 6.83
10/30/2022 11:15:00 PM 8.92 48.056 0.465 7.48 1.72 7.68
10/30/2022 11:30:00 PM 8.93 48.074 0.485 7.49 1.72 7.73
10/30/2022 11:45:00 PM 8.81 47.858 0.454 7.45 1.82 7.67
10/31/2022 12:00:00 AM 8.83 47.894 0.461 7.42 1.67 7.09
10/31/2022 12:15:00 AM 8.78 47.804 0.465 7.43 1.77 7.31
10/31/2022 12:30:00 AM 8.6 47.48 0.456 7.48 1.65 7.68
10/31/2022 12:45:00 AM 8.65 47.57 0.468 7.45 1.73 7.62
10/31/2022 1:00:00 AM 8.65 47.57 0.451 7.47 1.61 7.23
10/31/2022 1:15:00 AM 8.63 47.534 0.484 7.45 1.58 7.68
10/31/2022 1:30:00 AM 8.61 47.498 0.471 7.44 1.56 6.7
10/31/2022 1:45:00 AM 8.63 47.534 0.485 7.39 1.81 6.59
10/31/2022 2:00:00 AM 8.58 47.444 0.469 7.4 1.6 7.18
10/31/2022 2:15:00 AM 8.47 47.246 0.467 7.42 1.54 6.81
10/31/2022 2:30:00 AM 8.45 47.21 0.461 7.46 1.65 6.88
10/31/2022 2:45:00 AM 8.51 47.318 0.487 7.4 1.63 6.81
10/31/2022 3:00:00 AM 8.53 47.354 0.469 7.38 1.74 6.47
10/31/2022 3:15:00 AM 8.49 47.282 0.476 7.37 1.65 6.36
10/31/2022 3:30:00 AM 8.5 47.3 0.49 7.37 1.65 6.14
10/31/2022 3:45:00 AM 8.51 47.318 0.501 7.41 1.68 6.46
10/31/2022 4:00:00 AM 8.38 47.084 0.474 7.4 1.84 6.29
10/31/2022 4:15:00 AM 8.45 47.21 0.477 7.38 1.72 6.22
10/31/2022 4:30:00 AM 8.44 47.192 0.489 7.39 1.56 6.28
10/31/2022 4:45:00 AM 8.36 47.048 0.479 7.39 1.57 5.96
10/31/2022 5:00:00 AM 8.31 46.958 0.492 7.42 1.6 6.52
10/31/2022 5:15:00 AM 8.32 46.976 0.495 7.42 1.69 6.33
10/31/2022 5:30:00 AM 8.35 47.03 0.485 7.38 1.45 5.96
10/31/2022 5:45:00 AM 8.13 46.634 0.475 7.42 1.61 6.39
10/31/2022 6:00:00 AM 8.15 46.67 0.468 7.4 1.83 6.7
10/31/2022 6:15:00 AM 8.16 46.688 0.471 7.37 1.5 6.17
10/31/2022 6:30:00 AM 8.13 46.634 0.479 7.41 1.45 6.38
10/31/2022 6:45:00 AM 8.08 46.544 0.477 7.41 1.57 6.64
10/31/2022 7:00:00 AM 8.17 46.706 0.489 7.4 1.51 6.26
10/31/2022 7:15:00 AM 8.17 46.706 0.484 7.37 1.64 5.98
10/31/2022 7:30:00 AM 7.98 46.364 0.462 7.41 1.84 6.9
10/31/2022 7:45:00 AM 8.14 46.652 0.476 7.38 1.68 6.34
10/31/2022 8:00:00 AM 8.02 46.436 0.475 7.38 1.59 6.02
10/31/2022 8:15:00 AM 8.12 46.616 0.489 7.36 1.56 5.96
10/31/2022 8:30:00 AM 8.01 46.418 0.468 7.38 1.62 6.37
10/31/2022 8:45:00 AM 8.09 46.562 0.49 7.38 1.82 5.95
10/31/2022 9:00:00 AM 8.01 46.418 0.48 7.39 1.55 6.32
10/31/2022 9:15:00 AM 8.02 46.436 0.481 7.36 1.59 6.19
10/31/2022 9:30:00 AM 8.06 46.508 0.477 7.4 1.64 6.49
10/31/2022 9:45:00 AM 7.85 46.13 0.468 7.41 1.64 6.95
10/31/2022 10:00:00 AM 7.78 46.004 0.452 7.43 1.82 7.3
10/31/2022 10:15:00 AM 7.84 46.112 0.442 7.45 1.82 7.7
10/31/2022 10:30:00 AM 7.94 46.292 0.449 7.42 1.67 7.61
10/31/2022 10:45:00 AM 8.01 46.418 0.452 7.45 1.65 7.74
10/31/2022 11:00:00 AM 7.99 46.382 0.449 7.49 1.65 8.12
10/31/2022 11:15:00 AM 8.08 46.544 0.449 7.46 1.63 8.2
10/31/2022 11:30:00 AM 8.09 46.562 0.438 7.51 1.74 8.5
10/31/2022 11:45:00 AM 8.24 46.832 0.457 7.45 1.61 7.68
10/31/2022 12:00:00 PM 8.23 46.814 0.44 7.5 1.8 8.24
10/31/2022 12:15:00 PM 8.29 46.922 0.45 7.5 1.64 8.49
10/31/2022 12:30:00 PM 8.41 47.138 0.456 7.49 1.69 8.36
10/31/2022 12:45:00 PM 8.46 47.228 0.438 7.5 1.72 8.55
10/31/2022 1:00:00 PM 8.6 47.48 0.449 7.52 1.66 8.82
10/31/2022 1:15:00 PM 8.61 47.498 0.439 7.52 1.6 8.9
10/31/2022 1:30:00 PM 8.71 47.678 0.434 7.55 1.66 9.14
10/31/2022 1:45:00 PM 8.82 47.876 0.437 7.53 1.66 9.31
10/31/2022 2:00:00 PM 8.95 48.11 0.443 7.51 1.54 9.28
10/31/2022 2:15:00 PM 9.16 48.488 0.471 7.52 1.73 8.72
10/31/2022 2:30:00 PM 9.2 48.56 0.466 7.54 1.63 9.09
10/31/2022 2:45:00 PM 9.33 48.794 0.474 7.54 1.85 8.58
10/31/2022 3:00:00 PM 9.52 49.136 0.507 7.45 1.58 7.56
10/31/2022 3:15:00 PM 9.63 49.334 0.516 7.39 1.49 6.5
10/31/2022 3:30:00 PM 9.69 49.442 0.516 7.42 1.36 6.37
10/31/2022 3:45:00 PM 9.68 49.424 0.495 7.48 1.35 7.33
10/31/2022 4:00:00 PM 9.78 49.604 0.518 7.49 1.41 6.93
10/31/2022 4:15:00 PM 9.8 49.64 0.507 7.53 1.31 7.15
10/31/2022 4:30:00 PM 9.83 49.694 0.497 7.48 1.6 7.59
10/31/2022 4:45:00 PM 9.88 49.784 0.497 7.46 1.48 7.05
10/31/2022 5:00:00 PM 9.98 49.964 0.515 7.54 1.65 7.06
10/31/2022 5:15:00 PM 10.12 50.216 0.539 7.41 1.39 6.68
10/31/2022 5:30:00 PM 10.23 50.414 0.537 7.36 1.32 5.34
10/31/2022 5:45:00 PM 10.32 50.576 0.549 7.3 1.32 4.28
10/31/2022 6:00:00 PM 10.31 50.558 0.547 7.61 1.28 3.92
10/31/2022 6:15:00 PM 10.4 50.72 0.549 7.33 1.2 3.81
10/31/2022 6:30:00 PM 10.44 50.792 0.559 7.3 1.29 3.5
10/31/2022 6:45:00 PM 10.47 50.846 0.581 7.27 1.4 3.37
10/31/2022 7:00:00 PM 10.43 50.774 0.57 7.35 1.27 4.01
10/31/2022 7:15:00 PM 10.39 50.702 0.521 7.32 1.35 4.73
10/31/2022 7:30:00 PM 10.42 50.756 0.549 7.37 1.32 4.29
10/31/2022 7:45:00 PM 10.47 50.846 0.55 7.32 2.29 4.7
10/31/2022 8:00:00 PM 10.42 50.756 0.55 7.34 1.73 4.43
10/31/2022 8:15:00 PM 10.46 50.828 0.559 7.33 3.26 3.9
10/31/2022 8:30:00 PM 10.46 50.828 0.53 7.32 2.44 4.22
10/31/2022 8:45:00 PM 10.44 50.792 0.57 7.3 2.47 4.09
10/31/2022 9:00:00 PM 10.43 50.774 0.526 7.31 2.28 4.25
10/31/2022 9:15:00 PM 10.45 50.81 0.572 7.32 1.66 3.72
10/31/2022 9:30:00 PM 10.32 50.576 0.535 7.29 1.54 4.41
10/31/2022 9:45:00 PM 10.3 50.54 0.526 7.34 1.38 5.09
10/31/2022 10:00:00 PM 10.36 50.648 0.566 7.3 1.18 3.86
10/31/2022 10:15:00 PM 10.38 50.684 0.552 7.28 1.47 4.08
10/31/2022 10:30:00 PM 10.41 50.738 0.547 7.25 1.07 3.58
10/31/2022 10:45:00 PM 10.44 50.792 0.583 7.25 1.26 3.15
10/31/2022 11:00:00 PM 10.37 50.666 0.563 7.29 1.39 3.44
10/31/2022 11:15:00 PM 10.44 50.792 0.581 7.23 1.19 2.98
10/31/2022 11:30:00 PM 10.42 50.756 0.592 7.21 1.13 2.94
10/31/2022 11:45:00 PM 10.38 50.684 0.573 7.34 1.11 3.49
11/1/2022 12:00:00 AM 10.39 50.702 0.555 7.28 1.11 3.32
11/1/2022 12:15:00 AM 10.37 50.666 0.567 7.26 1.09 3.38
11/1/2022 12:30:00 AM 10.4 50.72 0.568 7.22 1.34 2.9
11/1/2022 12:45:00 AM 10.36 50.648 0.565 7.23 1.15 3.17
11/1/2022 1:00:00 AM 10.34 50.612 0.569 7.33 1.47 3.26
11/1/2022 1:15:00 AM 10.26 50.468 0.537 7.25 1.35 3.44
11/1/2022 1:30:00 AM 10.27 50.486 0.559 7.33 2.03 3.51
11/1/2022 1:45:00 AM 10.31 50.558 0.559 7.3 1.4 3.36
11/1/2022 2:00:00 AM 10.28 50.504 0.552 7.27 1.25 3.33
11/1/2022 2:15:00 AM 10.29 50.522 0.574 7.23 1.29 3.05
11/1/2022 2:30:00 AM 10.17 50.306 0.523 7.34 1.46 4.58
11/1/2022 2:45:00 AM 10.21 50.378 0.534 7.33 1.37 4.15
11/1/2022 3:00:00 AM 10.22 50.396 0.532 7.33 1.33 4.2
11/1/2022 3:15:00 AM 10.23 50.414 0.551 7.32 1.24 3.82
11/1/2022 3:30:00 AM 10.17 50.306 0.523 7.31 1.48 4.76
11/1/2022 3:45:00 AM 10.22 50.396 0.513 7.37 1.34 4.25
11/1/2022 4:00:00 AM 10.3 50.54 0.532 7.29 1.34 4.06
11/1/2022 4:15:00 AM 10.28 50.504 0.55 7.35 1.44 4.04
11/1/2022 4:30:00 AM 10.28 50.504 0.547 7.28 2.3 4.02
11/1/2022 4:45:00 AM 10.35 50.63 0.535 7.34 1.49 3.51
11/1/2022 5:00:00 AM 10.34 50.612 0.533 7.28 3.44 3.78
11/1/2022 5:15:00 AM 10.47 50.846 0.565 7.26 1.59 2.88
11/1/2022 5:30:00 AM 10.38 50.684 0.53 7.33 1.65 3.55
11/1/2022 5:45:00 AM 10.39 50.702 0.519 7.35 1.7 3.92
11/1/2022 6:00:00 AM 10.43 50.774 0.535 7.32 1.31 3.35
11/1/2022 6:15:00 AM 10.5 50.9 0.551 7.3 1.24 2.92
11/1/2022 6:30:00 AM 10.5 50.9 0.523 7.25 1.16 2.99
11/1/2022 6:45:00 AM 10.49 50.882 0.546 7.3 1.23 3.02
11/1/2022 7:00:00 AM 10.46 50.828 0.56 7.32 1.63 3.27
11/1/2022 7:15:00 AM 10.51 50.918 0.552 7.3 1.25 3.02
11/1/2022 7:30:00 AM 10.58 51.044 0.549 7.26 1.31 2.84
11/1/2022 7:45:00 AM 10.52 50.936 0.56 7.28 1.34 3
11/1/2022 8:00:00 AM 10.58 51.044 0.547 7.28 1.21 3.06
11/1/2022 8:15:00 AM 10.61 51.098 0.563 7.22 1.32 2.68
11/1/2022 8:30:00 AM 10.51 50.918 0.554 7.23 1.55 3.15
11/1/2022 8:45:00 AM 10.58 51.044 0.557 7.28 2 2.94
11/1/2022 9:00:00 AM 10.62 51.116 0.537 7.22 3.37 2.83
11/1/2022 9:15:00 AM 10.69 51.242 0.555 7.24 1.45 2.79
11/1/2022 9:30:00 AM 10.53 50.954 0.526 7.32 1.59 3.72
11/1/2022 9:45:00 AM 10.5 50.9 0.526 7.28 2.66 3.91
11/1/2022 10:00:00 AM 10.66 51.188 0.551 7.26 1.7 3.03
11/1/2022 10:15:00 AM 10.66 51.188 0.557 7.32 1.55 3.03
11/1/2022 10:30:00 AM 10.66 51.188 0.554 7.24 1.32 3
11/1/2022 10:45:00 AM 10.77 51.386 0.56 7.31 1.27 2.66
11/1/2022 11:00:00 AM 10.83 51.494 0.586 7.26 1.08 2.41
11/1/2022 11:15:00 AM 10.8 51.44 0.534 7.25 1.82 2.85
11/1/2022 11:30:00 AM 10.85 51.53 0.561 7.33 1.22 2.95
11/1/2022 11:45:00 AM 10.83 51.494 0.546 7.29 1.35 3.27
11/1/2022 12:00:00 PM 10.92 51.656 0.559 7.31 1.27 3.08
11/1/2022 12:15:00 PM 11.04 51.872 0.561 7.29 1.1 2.73
11/1/2022 12:30:00 PM 11.1 51.98 0.561 7.26 1.04 2.71
11/1/2022 12:45:00 PM 11.16 52.088 0.559 7.25 1.06 2.85
11/1/2022 1:00:00 PM 11.18 52.124 0.56 7.27 1.03 2.87
11/1/2022 1:15:00 PM 11.22 52.196 0.566 7.24 1.09 2.55
11/1/2022 1:30:00 PM 11.23 52.214 0.554 7.28 1.01 3.29
11/1/2022 1:45:00 PM 11.26 52.268 0.548 7.32 1.08 3.19
11/1/2022 2:00:00 PM 11.3 52.34 0.558 7.3 1.15 3.32
11/1/2022 2:15:00 PM 11.31 52.358 0.536 7.32 1.16 4.17
11/1/2022 2:30:00 PM 11.34 52.412 0.533 7.35 1.16 3.94
11/1/2022 2:45:00 PM 11.36 52.448 0.538 7.33 1.16 3.35
11/1/2022 3:00:00 PM 11.38 52.484 0.52 7.32 1.26 3.93
11/1/2022 3:15:00 PM 11.4 52.52 0.538 7.35 1.59 4.15
11/1/2022 3:30:00 PM 11.42 52.556 0.546 7.31 1.36 3.71
11/1/2022 3:45:00 PM 11.44 52.592 0.528 7.37 1.27 4.53
11/1/2022 4:00:00 PM 11.45 52.61 0.545 7.34 1.14 4.01
11/1/2022 4:15:00 PM 11.47 52.646 0.53 7.33 2.85 3.67
11/1/2022 4:30:00 PM 11.49 52.682 0.532 7.35 1.57 4.32
11/1/2022 4:45:00 PM 11.49 52.682 0.532 7.35 1.66 4.34
11/1/2022 5:00:00 PM 11.51 52.718 0.542 7.39 1.48 4.58
11/1/2022 5:15:00 PM 11.54 52.772 0.525 7.37 1.28 4.75
11/1/2022 5:30:00 PM 11.59 52.862 0.513 7.4 1.46 5.64
11/1/2022 5:45:00 PM 11.58 52.844 0.534 7.38 1.28 4.91
11/1/2022 6:00:00 PM 11.6 52.88 0.534 7.4 1.37 4.8
11/1/2022 6:15:00 PM 11.6 52.88 0.534 7.39 1.42 4.35
11/1/2022 6:30:00 PM 11.63 52.934 0.52 7.39 1.44 4.69
11/1/2022 6:45:00 PM 11.65 52.97 0.526 7.41 1.49 5.08
11/1/2022 7:00:00 PM 11.66 52.988 0.507 7.44 1.58 5.08
11/1/2022 7:15:00 PM 11.68 53.024 0.516 7.42 2.1 5.22
11/1/2022 7:30:00 PM 11.68 53.024 0.514 7.4 1.64 4.3
11/1/2022 7:45:00 PM 11.65 52.97 0.542 7.35 1.28 3.85
11/1/2022 8:00:00 PM 11.7 53.06 0.521 7.44 1.55 4.82
11/1/2022 8:15:00 PM 11.66 52.988 0.52 7.39 1.36 4.33
11/1/2022 8:30:00 PM 11.7 53.06 0.515 7.44 1.28 4.74
11/1/2022 8:45:00 PM 11.68 53.024 0.519 7.38 1.23 4.27
11/1/2022 9:00:00 PM 11.69 53.042 0.519 7.41 1.62 4.67
11/1/2022 9:15:00 PM 11.67 53.006 0.524 7.37 1.26 4.63
11/1/2022 9:30:00 PM 11.66 52.988 0.527 7.39 1.21 3.46
11/1/2022 9:45:00 PM 11.65 52.97 0.534 7.35 1.47 3.85
11/1/2022 10:00:00 PM 11.64 52.952 0.528 7.38 1.52 4.1
11/1/2022 10:15:00 PM 11.62 52.916 0.531 7.37 1.82 4.14
11/1/2022 10:30:00 PM 11.63 52.934 0.523 7.35 2.11 3.83
11/1/2022 10:45:00 PM 11.6 52.88 0.535 7.35 2.46 3.57
11/1/2022 11:00:00 PM 11.58 52.844 0.529 7.35 3.25 4.14
11/1/2022 11:15:00 PM 11.56 52.808 0.526 7.36 2.5 3.77
11/1/2022 11:30:00 PM 11.55 52.79 0.528 7.34 5.33 3.54
11/1/2022 11:45:00 PM 11.53 52.754 0.524 7.32 2.3 3.63
11/2/2022 12:00:00 AM 11.51 52.718 0.522 7.34 1.71 3.81
11/2/2022 12:15:00 AM 11.5 52.7 0.544 7.3 1.34 3.19
11/2/2022 12:30:00 AM 11.47 52.646 0.538 7.34 1.54 3.43
11/2/2022 12:45:00 AM 11.47 52.646 0.532 7.33 1.84 3.31
11/2/2022 1:00:00 AM 11.45 52.61 0.549 7.37 1.71 2.91
11/2/2022 1:15:00 AM 11.45 52.61 0.542 7.28 1.69 3.1
11/2/2022 1:30:00 AM 11.42 52.556 0.543 7.34 1.64 3.03
11/2/2022 1:45:00 AM 11.43 52.574 0.546 7.26 1.36 2.79
11/2/2022 2:00:00 AM 11.4 52.52 0.539 7.29 1.26 2.85
11/2/2022 2:15:00 AM 11.41 52.538 0.549 7.26 1.26 2.83
11/2/2022 2:30:00 AM 11.38 52.484 0.543 7.31 1.74 2.91
11/2/2022 2:45:00 AM 11.35 52.43 0.54 7.33 2.11 3.36
11/2/2022 3:00:00 AM 11.34 52.412 0.549 7.27 2.66 2.88
11/2/2022 3:15:00 AM 11.33 52.394 0.558 7.24 3.33 2.48
11/2/2022 3:30:00 AM 11.29 52.322 0.535 7.25 1.83 2.92
11/2/2022 3:45:00 AM 11.27 52.286 0.54 7.28 1.78 3.01
11/2/2022 4:00:00 AM 11.23 52.214 0.546 7.26 1.46 2.89
11/2/2022 4:15:00 AM 11.28 52.304 0.557 7.25 1.23 2.91
11/2/2022 4:30:00 AM 11.24 52.232 0.552 7.31 1.47 2.58
11/2/2022 4:45:00 AM 11.19 52.142 0.55 7.31 2.28 2.86
11/2/2022 5:00:00 AM 11.25 52.25 0.551 7.25 1.58 2.6
11/2/2022 5:15:00 AM 11.19 52.142 0.556 7.31 1.31 2.85
11/2/2022 5:30:00 AM 11.17 52.106 0.56 7.27 1.45 2.69
11/2/2022 5:45:00 AM 11.14 52.052 0.537 7.25 1.23 3.12
11/2/2022 6:00:00 AM 11.14 52.052 0.549 7.26 1.6 2.78
11/2/2022 6:15:00 AM 11.05 51.89 0.531 7.32 3.09 3.27
11/2/2022 6:30:00 AM 10.96 51.728 0.524 7.32 1.94 3.35
11/2/2022 6:45:00 AM 11.06 51.908 0.527 7.28 2.14 3.19
11/2/2022 7:00:00 AM 11.06 51.908 0.538 7.26 1.95 2.99
11/2/2022 7:15:00 AM 11.04 51.872 0.536 7.3 1.49 3.32
11/2/2022 7:30:00 AM 11.06 51.908 0.553 7.29 2.15 3.03
11/2/2022 7:45:00 AM 11.05 51.89 0.544 7.28 1.61 2.86
11/2/2022 8:00:00 AM 10.97 51.746 0.536 7.31 1.78 3.43
11/2/2022 8:15:00 AM 10.93 51.674 0.53 7.34 1.61 3.71
11/2/2022 8:30:00 AM 10.86 51.548 0.509 7.32 1.67 4.28
11/2/2022 8:45:00 AM 10.91 51.638 0.508 7.32 1.84 4.23
11/2/2022 9:00:00 AM 10.93 51.674 0.521 7.26 2.12 3.85
11/2/2022 9:15:00 AM 10.88 51.584 0.498 7.29 2.26 4.18
11/2/2022 9:30:00 AM 11.01 51.818 0.545 7.22 1.72 2.88
11/2/2022 9:45:00 AM 11.03 51.854 0.544 7.29 1.52 3.28
11/2/2022 10:00:00 AM 11.06 51.908 0.529 7.35 1.53 3.5
11/2/2022 10:15:00 AM 11.13 52.034 0.548 7.24 1.76 3.07
11/2/2022 10:30:00 AM 11.13 52.034 0.555 7.23 1.43 2.87
11/2/2022 10:45:00 AM 11.13 52.034 0.555 7.24 1.79 3.1
11/2/2022 11:00:00 AM 11.14 52.052 0.551 7.23 1.49 3.21
11/2/2022 11:15:00 AM 11.17 52.106 0.55 7.27 2.25 3.19
11/2/2022 11:30:00 AM 11.21 52.178 0.555 7.3 1.98 3.16
11/2/2022 11:45:00 AM 11.23 52.214 0.557 7.28 1.51 3.4
11/2/2022 12:00:00 PM 11.25 52.25 0.544 7.32 1.55 3.46
11/2/2022 12:15:00 PM 11.28 52.304 0.542 7.28 1.39 3.72
11/2/2022 12:30:00 PM 11.32 52.376 0.531 7.33 1.88 3.72
11/2/2022 12:45:00 PM 11.37 52.466 0.55 7.25 2.05 3.07
11/2/2022 1:00:00 PM 11.42 52.556 0.559 7.25 2.23 2.9
11/2/2022 1:15:00 PM 11.45 52.61 0.546 7.28 1.43 3.14
11/2/2022 1:30:00 PM 11.48 52.664 0.557 7.26 1.31 2.92
11/2/2022 1:45:00 PM 11.51 52.718 0.543 7.31 1.32 3.44
11/2/2022 2:00:00 PM 11.54 52.772 0.536 7.3 1.39 3.99
11/2/2022 2:15:00 PM 11.58 52.844 0.531 7.35 1.38 4.14
11/2/2022 2:30:00 PM 11.63 52.934 0.524 7.37 1.49 4.7
11/2/2022 2:45:00 PM 11.65 52.97 0.535 7.36 1.32 4.02
11/2/2022 3:00:00 PM 11.67 53.006 0.535 7.37 1.45 4.05
11/2/2022 3:15:00 PM 11.74 53.132 0.526 7.42 1.29 4.72
11/2/2022 3:30:00 PM 11.8 53.24 0.516 7.43 1.51 5.61
11/2/2022 3:45:00 PM 11.82 53.276 0.519 7.4 3.87 4.59
11/2/2022 4:00:00 PM 11.84 53.312 0.53 7.39 1.7 4.65
11/2/2022 4:15:00 PM 11.84 53.312 0.518 7.42 1.69 5.44
11/2/2022 4:30:00 PM 11.92 53.456 0.51 7.46 1.47 5.84
11/2/2022 4:45:00 PM 11.92 53.456 0.505 7.45 1.34 5.65
11/2/2022 5:00:00 PM 11.9 53.42 0.498 7.49 1.6 5.51
11/2/2022 5:15:00 PM 11.89 53.402 0.518 7.45 1.43 5.27
11/2/2022 5:30:00 PM 11.86 53.348 0.528 7.39 1.56 4.82
11/2/2022 5:45:00 PM 11.88 53.384 0.512 7.45 1.53 4.81
11/2/2022 6:00:00 PM 11.85 53.33 0.534 7.42 1.57 4.79
11/2/2022 6:15:00 PM 11.97 53.546 0.506 7.46 2.46 5.36
11/2/2022 6:30:00 PM 11.9 53.42 0.505 7.48 1.68 5.19
11/2/2022 6:45:00 PM 11.9 53.42 0.505 7.46 1.53 5.29
11/2/2022 7:00:00 PM 11.85 53.33 0.526 7.42 1.37 5.09
11/2/2022 7:15:00 PM 11.83 53.294 0.525 7.44 1.39 5.04
11/2/2022 7:30:00 PM 11.82 53.276 0.527 7.42 1.83 4.57
11/2/2022 7:45:00 PM 11.82 53.276 0.515 7.39 1.53 4.32
11/2/2022 8:00:00 PM 11.78 53.204 0.528 7.42 1.98 4.62
11/2/2022 8:15:00 PM 11.8 53.24 0.522 7.44 1.81 4.96
11/2/2022 8:30:00 PM 11.78 53.204 0.516 7.45 1.75 4.71
11/2/2022 8:45:00 PM 11.76 53.168 0.516 7.49 1.39 4.81
11/2/2022 9:00:00 PM 11.77 53.186 0.479 7.38 7.16 5.62
11/2/2022 9:15:00 PM 11.7 53.06 0.538 7.34 1.81 3.39
11/2/2022 9:30:00 PM 11.68 53.024 0.543 7.35 1.31 3.75
11/2/2022 9:45:00 PM 11.66 52.988 0.538 7.33 1.39 3.7
11/2/2022 10:00:00 PM 11.64 52.952 0.546 7.3 1.26 3.44
11/2/2022 10:15:00 PM 11.62 52.916 0.549 7.3 1.57 3.03
11/2/2022 10:30:00 PM 11.6 52.88 0.559 7.24 1.76 2.66
11/2/2022 10:45:00 PM 11.57 52.826 0.553 7.3 1.42 2.87
11/2/2022 11:00:00 PM 11.57 52.826 0.563 7.22 1.43 2.34
11/2/2022 11:15:00 PM 11.53 52.754 0.557 7.24 3.97 2.51
11/2/2022 11:30:00 PM 11.5 52.7 0.56 7.25 1.19 2.41
11/2/2022 11:45:00 PM 11.48 52.664 0.561 7.26 1.43 2.38
11/3/2022 12:00:00 AM 11.44 52.592 0.558 7.27 2.85 2.35
11/3/2022 12:15:00 AM 11.44 52.592 0.571 7.27 1.43 2.1
11/3/2022 12:30:00 AM 11.18 52.124 0.53 7.27 1.79 3.6
11/3/2022 12:45:00 AM 11.25 52.25 0.518 7.31 1.59 3.38
11/3/2022 1:00:00 AM 11.25 52.25 0.528 7.38 1.41 3.02
11/3/2022 1:15:00 AM 11.12 52.016 0.536 7.32 1.82 2.62
11/3/2022 1:30:00 AM 11.17 52.106 0.534 7.3 1.59 2.46
11/3/2022 1:45:00 AM 11.08 51.944 0.534 7.24 1.74 2.78
11/3/2022 2:00:00 AM 11.08 51.944 0.56 7.23 1.67 2.28
11/3/2022 2:15:00 AM 10.96 51.728 0.548 7.3 1.35 2.93
11/3/2022 2:30:00 AM 10.73 51.314 0.497 7.35 1.79 4.3
11/3/2022 2:45:00 AM 10.8 51.44 0.535 7.25 1.39 3.18
11/3/2022 3:00:00 AM 10.75 51.35 0.538 7.32 1.7 3.07
11/3/2022 3:15:00 AM 10.77 51.386 0.542 7.26 1.67 2.9
11/3/2022 3:30:00 AM 10.66 51.188 0.524 7.29 1.58 3.03
11/3/2022 3:45:00 AM 10.62 51.116 0.536 7.34 1.36 3.48
11/3/2022 4:00:00 AM 10.38 50.684 0.483 7.41 1.72 4.35
11/3/2022 4:15:00 AM 10.42 50.756 0.511 7.35 1.59 4.1
11/3/2022 4:30:00 AM 10.41 50.738 0.525 7.34 1.5 3.67
11/3/2022 4:45:00 AM 10.27 50.486 0.502 7.41 1.77 4.78
11/3/2022 5:00:00 AM 10.13 50.234 0.497 7.41 2.09 5.08
11/3/2022 5:15:00 AM 10.14 50.252 0.511 7.39 1.7 4.98
11/3/2022 5:30:00 AM 10.06 50.108 0.485 7.39 1.79 4.97
11/3/2022 5:45:00 AM 10.06 50.108 0.49 7.33 1.57 4.65
11/3/2022 6:00:00 AM 9.97 49.946 0.48 7.39 1.73 5.13
11/3/2022 6:15:00 AM 9.98 49.964 0.483 7.36 1.61 4.86
11/3/2022 6:30:00 AM 9.99 49.982 0.501 7.38 1.59 4.64
11/3/2022 6:45:00 AM 9.95 49.91 0.491 7.4 1.91 4.9
11/3/2022 7:00:00 AM 9.95 49.91 0.489 7.38 1.57 4.31
11/3/2022 7:15:00 AM 9.93 49.874 0.483 7.35 2.26 4.5
11/3/2022 7:30:00 AM 9.8 49.64 0.472 7.38 1.89 5.22
11/3/2022 7:45:00 AM 9.74 49.532 0.472 7.37 1.78 5.26
11/3/2022 8:00:00 AM 9.75 49.55 0.487 7.41 1.8 5.72
11/3/2022 8:15:00 AM 9.7 49.46 0.466 7.37 1.84 5.59
11/3/2022 8:30:00 AM 9.73 49.514 0.492 7.4 1.98 5.41
11/3/2022 8:45:00 AM 9.7 49.46 0.487 7.37 1.81 5.41
11/3/2022 9:00:00 AM 9.67 49.406 0.465 7.39 1.9 5.2
11/3/2022 9:15:00 AM 9.65 49.37 0.477 7.41 1.65 5.77
11/3/2022 9:30:00 AM 9.66 49.388 0.469 7.37 1.91 5.72
11/3/2022 9:45:00 AM 9.74 49.532 0.5 7.39 2 5.31
11/3/2022 10:00:00 AM 9.71 49.478 0.488 7.37 1.85 5.66
11/3/2022 10:15:00 AM 9.67 49.406 0.456 7.41 1.86 6.06
11/3/2022 10:30:00 AM 9.68 49.424 0.482 7.4 1.81 6.12
11/3/2022 10:45:00 AM 9.73 49.514 0.481 7.42 1.81 6.31
11/3/2022 11:00:00 AM 9.78 49.604 0.467 7.42 1.79 6.15
11/3/2022 11:15:00 AM 9.95 49.91 0.509 7.33 1.51 5.18
11/3/2022 11:30:00 AM 10.08 50.144 0.543 7.4 1.82 4.89
11/3/2022 11:45:00 AM 10.09 50.162 0.499 7.3 4.38 4.88
11/3/2022 12:00:00 PM 10.37 50.666 0.532 7.31 1.31 3.75
11/3/2022 12:15:00 PM 10.49 50.882 0.543 7.24 1.74 3.56
11/3/2022 12:30:00 PM 10.43 50.774 0.535 7.38 1.98 4.87
11/3/2022 12:45:00 PM 10.59 51.062 0.539 7.31 1.7 3.7
11/3/2022 1:00:00 PM 10.82 51.476 0.56 7.25 1.38 3.07
11/3/2022 1:15:00 PM 10.78 51.404 0.543 7.33 1.54 3.46
11/3/2022 1:30:00 PM 11.04 51.872 0.566 7.23 1.15 2.75
11/3/2022 1:45:00 PM 11.15 52.07 0.568 7.22 1.07 2.44
11/3/2022 2:00:00 PM 11.15 52.07 0.56 7.24 1.28 2.9
11/3/2022 2:15:00 PM 11.16 52.088 0.56 7.25 1.38 2.81
11/3/2022 2:30:00 PM 11.24 52.232 0.568 7.23 1.24 2.88
11/3/2022 2:45:00 PM 11.29 52.322 0.558 7.25 1.29 2.7
11/3/2022 3:00:00 PM 11.32 52.376 0.559 7.29 1.1 3
11/3/2022 3:15:00 PM 11.36 52.448 0.554 7.29 1.06 3.16
11/3/2022 3:30:00 PM 11.4 52.52 0.554 7.28 1.06 3.56
11/3/2022 3:45:00 PM 11.41 52.538 0.554 7.31 1.06 3.45
11/3/2022 4:00:00 PM 11.44 52.592 0.525 7.27 1.44 3.62
11/3/2022 4:15:00 PM 11.46 52.628 0.554 7.39 1.38 3.88
11/3/2022 4:30:00 PM 11.47 52.646 0.555 7.32 1.14 3.82
11/3/2022 4:45:00 PM 11.49 52.682 0.547 7.34 2.46 3.37
11/3/2022 5:00:00 PM 11.49 52.682 0.542 7.34 1.47 4.08
11/3/2022 5:15:00 PM 11.5 52.7 0.542 7.31 1.33 4.14
11/3/2022 5:30:00 PM 11.51 52.718 0.547 7.3 1.7 3.97
11/3/2022 5:45:00 PM 11.51 52.718 0.557 7.3 1.36 3.57
11/3/2022 6:00:00 PM 11.52 52.736 0.546 7.37 1.51 3.69
11/3/2022 6:15:00 PM 11.52 52.736 0.547 7.29 1.28 3.64
11/3/2022 6:30:00 PM 11.53 52.754 0.542 7.32 1.34 3.86
11/3/2022 6:45:00 PM 11.53 52.754 0.559 7.29 1.28 3.68
11/3/2022 7:00:00 PM 11.53 52.754 0.54 7.34 1.32 3.87
11/3/2022 7:15:00 PM 11.54 52.772 0.538 7.32 1.22 3.77
11/3/2022 7:30:00 PM 11.53 52.754 0.539 7.35 1.75 3.82
11/3/2022 7:45:00 PM 11.54 52.772 0.533 7.41 1.94 3.48
11/3/2022 8:00:00 PM 11.54 52.772 0.544 7.4 3.31 3.81
11/3/2022 8:15:00 PM 11.53 52.754 0.539 7.38 1.49 3.45
11/3/2022 8:30:00 PM 11.52 52.736 0.551 7.35 2.22 3.15
11/3/2022 8:45:00 PM 11.53 52.754 0.543 7.33 1.22 3.08
11/3/2022 9:00:00 PM 11.47 52.646 0.535 7.29 1.4 4.02
11/3/2022 9:15:00 PM 11.45 52.61 0.535 7.27 2.68 3.9
11/3/2022 9:30:00 PM 11.43 52.574 0.554 7.24 2.18 3.34
11/3/2022 9:45:00 PM 11.45 52.61 0.569 7.21 1.91 2.75
11/3/2022 10:00:00 PM 11.43 52.574 0.565 7.22 2.04 2.4
11/3/2022 10:15:00 PM 11.39 52.502 0.56 7.22 3.11 2.4
11/3/2022 10:30:00 PM 11.36 52.448 0.563 7.22 2.07 2.58
11/3/2022 10:45:00 PM 11.37 52.466 0.569 7.21 1.57 2.23
11/3/2022 11:00:00 PM 11.33 52.394 0.571 7.19 2.84 2.21
11/3/2022 11:15:00 PM 11.31 52.358 0.58 7.18 1.73 2.12
11/3/2022 11:30:00 PM 11.28 52.304 0.58 7.19 1.45 2.15
11/3/2022 11:45:00 PM 11.16 52.088 0.577 7.18 1.29 2.26
11/4/2022 12:00:00 AM 11.18 52.124 0.595 7.17 1.75 2.04
11/4/2022 12:15:00 AM 11.1 51.98 0.58 7.17 1.2 2.16
11/4/2022 12:30:00 AM 11.03 51.854 0.563 7.19 1.35 2.38
11/4/2022 12:45:00 AM 10.98 51.764 0.589 7.15 1.45 2.38
11/4/2022 1:00:00 AM 10.95 51.71 0.606 7.15 1.23 2.14
11/4/2022 1:15:00 AM 10.84 51.512 0.584 7.17 1.45 2.22
11/4/2022 1:30:00 AM 10.79 51.422 0.567 7.18 1.31 2.68
11/4/2022 1:45:00 AM 10.78 51.404 0.599 7.16 1.3 2.29
11/4/2022 2:00:00 AM 10.57 51.026 0.555 7.25 1.3 2.91
11/4/2022 2:15:00 AM 10.56 51.008 0.571 7.22 1.54 2.91
11/4/2022 2:30:00 AM 10.45 50.81 0.559 7.2 1.34 2.95
11/4/2022 2:45:00 AM 10.31 50.558 0.533 7.3 1.55 3.42
11/4/2022 3:00:00 AM 10.13 50.234 0.516 7.34 1.55 4.29
11/4/2022 3:15:00 AM 10.13 50.234 0.535 7.3 1.48 4.55
11/4/2022 3:30:00 AM 10.08 50.144 0.532 7.35 1.53 4.27
11/4/2022 3:45:00 AM 9.75 49.55 0.46 7.35 1.63 5.54
11/4/2022 4:00:00 AM 9.75 49.55 0.504 7.41 1.61 6.21
11/4/2022 4:15:00 AM 9.61 49.298 0.464 7.44 1.81 6.36
11/4/2022 4:30:00 AM 9.76 49.568 0.498 7.38 1.66 5.45
11/4/2022 4:45:00 AM 9.69 49.442 0.465 7.41 1.91 5.09
11/4/2022 5:00:00 AM 9.49 49.082 0.468 7.39 2.79 6.16
11/4/2022 5:15:00 AM 9.58 49.244 0.503 7.39 2.05 5.79
11/4/2022 5:30:00 AM 9.52 49.136 0.469 7.4 1.94 5.67
11/4/2022 5:45:00 AM 9.53 49.154 0.479 7.38 1.81 5.35
11/4/2022 6:00:00 AM 9.32 48.776 0.45 7.4 1.93 6.44
11/4/2022 6:15:00 AM 9.38 48.884 0.474 7.4 1.83 5.9
11/4/2022 6:30:00 AM 9.33 48.794 0.468 7.41 1.91 6.02
11/4/2022 6:45:00 AM 9.2 48.56 0.451 7.43 1.73 6.52
11/4/2022 7:00:00 AM 9.19 48.542 0.459 7.42 1.79 6.55
11/4/2022 7:15:00 AM 9.26 48.668 0.502 7.41 1.71 5.83
11/4/2022 7:30:00 AM 9.27 48.686 0.486 7.4 1.72 5.81
11/4/2022 7:45:00 AM 9.14 48.452 0.479 7.4 1.77 6.09
11/4/2022 8:00:00 AM 9.23 48.614 0.488 7.46 2.05 5.09
11/4/2022 8:15:00 AM 9.24 48.632 0.497 7.4 2 5.44
11/4/2022 8:30:00 AM 9.08 48.344 0.477 7.4 2.5 6.08
11/4/2022 8:45:00 AM 9 48.2 0.466 7.43 1.75 6.53
11/4/2022 9:00:00 AM 9.03 48.254 0.468 7.41 1.85 6.19
11/4/2022 9:15:00 AM 9.13 48.434 0.486 7.41 1.96 6.27
11/4/2022 9:30:00 AM 8.98 48.164 0.472 7.43 2.05 6.68
11/4/2022 9:45:00 AM 8.95 48.11 0.465 7.45 2.09 6.82
11/4/2022 10:00:00 AM 9.01 48.218 0.461 7.44 2.02 6.55
11/4/2022 10:15:00 AM 9.15 48.47 0.476 7.41 1.9 6.03
11/4/2022 10:30:00 AM 9.25 48.65 0.497 7.4 2.26 5.48
11/4/2022 10:45:00 AM 9.15 48.47 0.479 7.45 1.91 6.49
11/4/2022 11:00:00 AM 9.34 48.812 0.502 7.43 1.71 5.37
11/4/2022 11:15:00 AM 9.48 49.064 0.495 7.39 1.83 4.9
11/4/2022 11:30:00 AM 9.54 49.172 0.495 7.39 1.73 5.31
11/4/2022 11:45:00 AM 9.69 49.442 0.524 7.39 1.52 5.28
11/4/2022 12:00:00 PM 9.96 49.928 0.545 7.3 1.55 3.98
11/4/2022 12:15:00 PM 10.18 50.324 0.562 7.23 1.36 3.27
11/4/2022 12:30:00 PM 10.31 50.558 0.572 7.29 1.24 3.15
11/4/2022 12:45:00 PM 10.44 50.792 0.58 7.21 1.27 2.77
11/4/2022 1:00:00 PM 10.55 50.99 0.588 7.23 1.41 2.58
11/4/2022 1:15:00 PM 10.58 51.044 0.572 7.29 1.33 3.05
11/4/2022 1:30:00 PM 10.6 51.08 0.565 7.23 1.28 3.19
11/4/2022 1:45:00 PM 10.84 51.512 0.58 7.22 1.18 2.53
11/4/2022 2:00:00 PM 10.9 51.62 0.576 7.24 1.96 2.58
11/4/2022 2:15:00 PM 10.93 51.674 0.571 7.25 1.43 3.33
11/4/2022 2:30:00 PM 10.95 51.71 0.585 7.26 1.4 3.27
11/4/2022 2:45:00 PM 11.02 51.836 0.573 7.31 1.49 3.06
11/4/2022 3:00:00 PM 11.08 51.944 0.569 7.25 1.67 3.59
11/4/2022 3:15:00 PM 11.13 52.034 0.571 7.29 1.8 3.71
11/4/2022 3:30:00 PM 11.17 52.106 0.548 7.29 1.34 3.84
11/4/2022 3:45:00 PM 11.22 52.196 0.556 7.31 1.41 3.98
11/4/2022 4:00:00 PM 11.25 52.25 0.554 7.32 1.45 4.3
11/4/2022 4:15:00 PM 11.3 52.34 0.55 7.3 1.38 4.25
11/4/2022 4:30:00 PM 11.31 52.358 0.548 7.37 1.26 3.96
11/4/2022 4:45:00 PM 11.34 52.412 0.546 7.4 1.18 4.29
11/4/2022 5:00:00 PM 11.38 52.484 0.561 7.35 1.25 4.03
11/4/2022 5:15:00 PM 11.37 52.466 0.57 7.37 1.19 4.32
11/4/2022 5:30:00 PM 11.39 52.502 0.563 7.32 1.74 4.02
11/4/2022 5:45:00 PM 11.41 52.538 0.562 7.35 1.55 4.16
11/4/2022 6:00:00 PM 11.44 52.592 0.557 7.36 2.15 3.86
11/4/2022 6:15:00 PM 11.44 52.592 0.551 7.32 1.93 3.92
11/4/2022 6:30:00 PM 11.45 52.61 0.563 7.36 1.63 4.23
11/4/2022 6:45:00 PM 11.46 52.628 0.566 7.35 2.21 3.91
11/4/2022 7:00:00 PM 11.47 52.646 0.562 7.33 1.52 4.09
11/4/2022 7:15:00 PM 11.49 52.682 0.573 7.28 1.89 4.16
11/4/2022 7:30:00 PM 11.5 52.7 0.565 7.33 1.44 4.05
11/4/2022 7:45:00 PM 11.51 52.718 0.564 7.37 1.57 4.29
11/4/2022 8:00:00 PM 11.49 52.682 0.565 7.34 1.71 3.88
11/4/2022 8:15:00 PM 11.49 52.682 0.559 7.3 1.29 3.96
11/4/2022 8:30:00 PM 11.51 52.718 0.543 7.28 1.28 3.5
11/4/2022 8:45:00 PM 11.51 52.718 0.581 7.28 1.26 3.35
11/4/2022 9:00:00 PM 11.51 52.718 0.573 7.26 1.28 3.8
11/4/2022 9:15:00 PM 11.5 52.7 0.572 7.29 1.19 3.52
11/4/2022 9:30:00 PM 11.49 52.682 0.57 7.25 1.54 3.45
11/4/2022 9:45:00 PM 11.48 52.664 0.565 7.28 1.9 3.28
11/4/2022 10:00:00 PM 11.47 52.646 0.578 7.24 2.25 2.66
11/4/2022 10:15:00 PM 11.46 52.628 0.573 7.21 1.15 2.51
11/4/2022 10:30:00 PM 11.45 52.61 0.578 7.21 1.48 2.53
11/4/2022 10:45:00 PM 11.42 52.556 0.576 7.25 1.21 2.88
11/4/2022 11:00:00 PM 11.42 52.556 0.583 7.19 1.06 2.25
11/4/2022 11:15:00 PM 11.41 52.538 0.588 7.2 1.14 2.19
11/4/2022 11:30:00 PM 11.4 52.52 0.587 7.18 1.15 2.01
11/4/2022 11:45:00 PM 11.37 52.466 0.591 7.18 1.12 2.06
11/5/2022 12:00:00 AM 11.36 52.448 0.581 7.17 1.31 2.08
11/5/2022 12:15:00 AM 11.35 52.43 0.591 7.22 1.11 1.91
11/5/2022 12:30:00 AM 11.34 52.412 0.593 7.18 1.09 1.96
11/5/2022 12:45:00 AM 11.3 52.34 0.586 7.17 1.11 1.98
11/5/2022 1:00:00 AM 11.27 52.286 0.584 7.18 1.18 2.01
11/5/2022 1:15:00 AM 11.28 52.304 0.586 7.18 1.23 1.94
11/5/2022 1:30:00 AM 11.26 52.268 0.589 7.18 1.26 1.94
11/5/2022 1:45:00 AM 11.25 52.25 0.597 7.18 1.14 1.88
11/5/2022 2:00:00 AM 11.24 52.232 0.605 7.19 1.12 1.77
11/5/2022 2:15:00 AM 11.21 52.178 0.597 7.16 1.19 1.83
11/5/2022 2:30:00 AM 11.21 52.178 0.586 7.17 1.15 1.83
11/5/2022 2:45:00 AM 11.18 52.124 0.588 7.19 1.36 1.91
11/5/2022 3:00:00 AM 11.18 52.124 0.577 7.27 1.52 1.94
11/5/2022 3:15:00 AM 11.18 52.124 0.574 7.2 1.34 1.91
11/5/2022 3:30:00 AM 11.18 52.124 0.566 7.18 1.27 1.84
11/5/2022 3:45:00 AM 11.16 52.088 0.574 7.2 1.87 1.92
11/5/2022 4:00:00 AM 11.04 51.872 0.565 7.25 2.39 2.65
11/5/2022 4:15:00 AM 11.09 51.962 0.549 7.23 1.53 2.29
11/5/2022 4:30:00 AM 11.07 51.926 0.558 7.33 1.34 2.35
11/5/2022 4:45:00 AM 11.11 51.998 0.559 7.25 1.18 2.2
11/5/2022 5:00:00 AM 11.09 51.962 0.552 7.27 1.27 2.31
11/5/2022 5:15:00 AM 11.1 51.98 0.561 7.22 2.05 2.14
11/5/2022 5:30:00 AM 11.1 51.98 0.559 7.22 1.62 2.3
11/5/2022 5:45:00 AM 11.07 51.926 0.564 7.22 1.52 2.12
11/5/2022 6:00:00 AM 11.08 51.944 0.556 7.21 2.42 2.12
11/5/2022 6:15:00 AM 11.03 51.854 0.559 7.2 1.88 2.33
11/5/2022 6:30:00 AM 11.02 51.836 0.553 7.28 1.33 2.48
11/5/2022 6:45:00 AM 11.06 51.908 0.557 7.26 1.34 2.12
11/5/2022 7:00:00 AM 11.08 51.944 0.56 7.21 1.61 2.05
11/5/2022 7:15:00 AM 11.05 51.89 0.55 7.27 1.54 2.42
11/5/2022 7:30:00 AM 11.02 51.836 0.543 7.29 1.7 2.5
11/5/2022 7:45:00 AM 11.05 51.89 0.527 7.28 1.97 2.85
11/5/2022 8:00:00 AM 11.04 51.872 0.531 7.24 2.49 2.94
11/5/2022 8:15:00 AM 11.08 51.944 0.529 7.27 2.3 2.89
11/5/2022 8:30:00 AM 11.11 51.998 0.517 7.25 2.47 2.7
11/5/2022 8:45:00 AM 11.12 52.016 0.52 7.24 1.89 2.62
11/5/2022 9:00:00 AM 11.12 52.016 0.548 7.23 1.47 2.54
11/5/2022 9:15:00 AM 11.15 52.07 0.547 7.24 1.98 2.81
11/5/2022 9:30:00 AM 11.11 51.998 0.547 7.27 1.48 3.07
11/5/2022 9:45:00 AM 11.21 52.178 0.557 7.23 1.24 2.72
11/5/2022 10:00:00 AM 11.2 52.16 0.553 7.24 1.76 3.2
11/5/2022 10:15:00 AM 11.23 52.214 0.547 7.24 1.52 2.92
11/5/2022 10:30:00 AM 11.24 52.232 0.546 7.24 1.39 3.41
11/5/2022 10:45:00 AM 11.29 52.322 0.554 7.24 1.62 3.28
11/5/2022 11:00:00 AM 11.31 52.358 0.54 7.26 1.6 3.35
11/5/2022 11:15:00 AM 11.36 52.448 0.538 7.3 1.45 3.72
11/5/2022 11:30:00 AM 11.39 52.502 0.545 7.25 1.55 3.73
11/5/2022 11:45:00 AM 11.46 52.628 0.532 7.28 1.7 4.1
11/5/2022 12:00:00 PM 11.51 52.718 0.548 7.29 1.53 4.05
11/5/2022 12:15:00 PM 11.59 52.862 0.524 7.3 1.6 4.39
11/5/2022 12:30:00 PM 11.62 52.916 0.538 7.33 1.57 3.95
11/5/2022 12:45:00 PM 11.66 52.988 0.529 7.31 1.47 4.07
11/5/2022 1:00:00 PM 11.74 53.132 0.52 7.3 1.74 4.42
11/5/2022 1:15:00 PM 11.78 53.204 0.534 7.3 1.4 4.12
11/5/2022 1:30:00 PM 11.85 53.33 0.539 7.3 1.47 4.84
11/5/2022 1:45:00 PM 11.88 53.384 0.533 7.28 1.45 4.74
11/5/2022 2:00:00 PM 11.99 53.582 0.54 7.3 1.41 5.22
11/5/2022 2:15:00 PM 12.06 53.708 0.533 7.32 1.36 5.33
11/5/2022 2:30:00 PM 12.18 53.924 0.513 7.33 1.39 5.25
11/5/2022 2:45:00 PM 12.22 53.996 0.529 7.32 1.51 5.51
11/5/2022 3:00:00 PM 12.34 54.212 0.514 7.34 1.51 5.79
11/5/2022 3:15:00 PM 12.38 54.284 0.517 7.34 1.49 5.73
11/5/2022 3:30:00 PM 12.48 54.464 0.497 7.34 1.91 5.7
11/5/2022 3:45:00 PM 12.47 54.446 0.525 7.36 1.55 6.01
11/5/2022 4:00:00 PM 12.59 54.662 0.497 7.37 1.54 6.05
11/5/2022 4:15:00 PM 12.63 54.734 0.492 7.37 1.41 5.99
11/5/2022 4:30:00 PM 12.74 54.932 0.506 7.39 1.53 6.82
11/5/2022 4:45:00 PM 12.81 55.058 0.497 7.4 1.47 6.64
11/5/2022 5:00:00 PM 12.83 55.094 0.496 7.4 1.49 7.16
11/5/2022 5:15:00 PM 12.83 55.094 0.502 7.4 1.62 6.93
11/5/2022 5:30:00 PM 12.9 55.22 0.372 7.4 1.51 6.99
11/5/2022 5:45:00 PM 12.83 55.094 0.505 7.4 1.48 6.9
11/5/2022 6:00:00 PM 12.9 55.22 0.506 7.43 2.03 7.21
11/5/2022 6:15:00 PM 12.81 55.058 0.507 7.39 1.88 6.43
11/5/2022 6:30:00 PM 12.75 54.95 0.515 7.38 1.58 6.47
11/5/2022 6:45:00 PM 12.63 54.734 0.53 7.38 1.59 5.73
11/5/2022 7:00:00 PM 12.71 54.878 0.519 7.38 1.49 6.03
11/5/2022 7:15:00 PM 12.81 55.058 0.513 7.42 1.41 6.83
11/5/2022 7:30:00 PM 12.78 55.004 0.515 7.4 1.39 6.32
11/5/2022 7:45:00 PM 12.59 54.662 0.529 7.37 1.52 5.63
11/5/2022 8:00:00 PM 12.74 54.932 0.519 7.37 1.61 5.67
11/5/2022 8:15:00 PM 12.68 54.824 0.527 7.38 1.43 5.89
11/5/2022 8:30:00 PM 12.84 55.112 0.503 7.41 1.67 6.57
11/5/2022 8:45:00 PM 12.74 54.932 0.507 7.37 1.38 5.99
11/5/2022 9:00:00 PM 12.87 55.166 0.509 7.38 1.47 5.73
11/5/2022 9:15:00 PM 13.09 55.562 0.476 7.44 2.23 6.6
11/5/2022 9:30:00 PM 12.83 55.094 0.505 7.37 1.63 5.97
11/5/2022 9:45:00 PM 12.9 55.22 0.509 7.36 1.58 5.26
11/5/2022 10:00:00 PM 12.86 55.148 0.496 7.34 1.57 5.31
11/5/2022 10:15:00 PM 12.79 55.022 0.517 7.33 1.55 5.2
11/5/2022 10:30:00 PM 12.81 55.058 0.512 7.33 1.57 5.1
11/5/2022 10:45:00 PM 12.73 54.914 0.528 7.32 1.5 4.91
11/5/2022 11:00:00 PM 12.79 55.022 0.523 7.31 1.44 4.48
11/5/2022 11:15:00 PM 12.7 54.86 0.546 7.31 1.49 4.6
11/5/2022 11:30:00 PM 12.73 54.914 0.522 7.3 1.58 4.53
11/5/2022 11:45:00 PM 12.65 54.77 0.535 7.31 1.58 4.56
11/6/2022 12:00:00 AM 12.78 55.004 0.51 7.32 1.83 4.78
11/6/2022 12:15:00 AM 12.68 54.824 0.528 7.31 1.67 4.56
11/6/2022 12:30:00 AM 12.71 54.878 0.53 7.31 1.62 4.63
11/6/2022 12:45:00 AM 12.64 54.752 0.538 7.31 1.51 4.45
11/6/2022 1:00:00 AM 12.68 54.824 0.542 7.31 1.47 4.72
11/6/2022 1:15:00 AM 12.73 54.914 0.527 7.29 1.51 4.2
11/6/2022 1:30:00 AM 12.77 54.986 0.528 7.32 1.54 4.64
11/6/2022 1:45:00 AM 12.72 54.896 0.534 7.3 1.59 4.05
11/6/2022 2:00:00 AM 12.75 54.95 0.527 7.29 2.05 4.45
11/6/2022 2:15:00 AM 12.68 54.824 0.529 7.28 1.56 4.15
11/6/2022 2:30:00 AM 12.72 54.896 0.534 7.29 1.55 4.22
11/6/2022 2:45:00 AM 12.97 55.346 0.505 7.29 1.53 4.25
11/6/2022 3:00:00 AM 12.75 54.95 0.522 7.28 1.45 4.36
11/6/2022 3:15:00 AM 12.82 55.076 0.535 7.28 1.45 3.92
11/6/2022 3:30:00 AM 12.88 55.184 0.524 7.28 1.86 4.27
11/6/2022 3:45:00 AM 12.92 55.256 0.515 7.29 1.53 4.37
11/6/2022 4:00:00 AM 12.88 55.184 0.531 7.27 1.56 3.99
11/6/2022 4:15:00 AM 12.93 55.274 0.515 7.29 1.45 4.18
11/6/2022 4:30:00 AM 12.96 55.328 0.516 7.29 1.42 4
11/6/2022 4:45:00 AM 12.81 55.058 0.526 7.27 1.4 3.84
11/6/2022 5:00:00 AM 12.97 55.346 0.507 7.29 1.56 4.21
11/6/2022 5:15:00 AM 12.96 55.328 0.517 7.28 1.61 3.75
11/6/2022 5:30:00 AM 12.91 55.238 0.528 7.27 1.59 3.96
11/6/2022 5:45:00 AM 12.97 55.346 0.515 7.27 1.63 3.84
11/6/2022 6:00:00 AM 12.91 55.238 0.53 7.26 1.58 3.93
11/6/2022 6:15:00 AM 12.99 55.382 0.518 7.27 1.46 3.89
11/6/2022 6:30:00 AM 12.87 55.166 0.526 7.26 1.82 3.89
11/6/2022 6:45:00 AM 13.05 55.49 0.505 7.26 2.28 3.81
11/6/2022 7:00:00 AM 13.12 55.616 0.505 7.31 2.6 4.35
11/6/2022 7:15:00 AM 13.02 55.436 0.518 7.28 1.7 4.16
11/6/2022 7:30:00 AM 13.05 55.49 0.506 7.29 3.44 4.21
11/6/2022 7:45:00 AM 13.18 55.724 0.5 7.31 2.13 4.14
11/6/2022 8:00:00 AM 13.01 55.418 0.518 7.27 4.98 4.03
11/6/2022 8:15:00 AM 13.09 55.562 0.505 7.3 2.51 3.86
11/6/2022 8:30:00 AM 13.25 55.85 0.497 7.3 1.65 4.39
11/6/2022 8:45:00 AM 13.09 55.562 0.51 7.27 1.74 4.03
11/6/2022 9:00:00 AM 13.08 55.544 0.519 7.27 1.75 4.08
11/6/2022 9:15:00 AM 13.12 55.616 0.518 7.27 1.73 3.92
11/6/2022 9:30:00 AM 13.18 55.724 0.51 7.28 1.61 4.21
11/6/2022 9:45:00 AM 13.28 55.904 0.512 7.27 1.78 4.34
11/6/2022 10:00:00 AM 12.98 55.364 0.523 7.28 1.79 4.09
11/6/2022 10:15:00 AM 13.15 55.67 0.522 7.27 1.63 3.95
11/6/2022 10:30:00 AM 13.23 55.814 0.513 7.29 1.5 4.3
11/6/2022 10:45:00 AM 13.5 56.3 0.497 7.26 1.43 4.43
11/6/2022 11:00:00 AM 13.44 56.192 0.497 7.3 1.61 4.53
11/6/2022 11:15:00 AM 13.56 56.408 0.498 7.3 1.97 4.34
11/6/2022 11:30:00 AM 13.48 56.264 0.489 7.3 1.65 4.61
11/6/2022 11:45:00 AM 13.55 56.39 0.505 7.32 2.08 4.85
11/6/2022 12:00:00 PM 13.54 56.372 0.515 7.3 1.66 4.71
11/6/2022 12:15:00 PM 13.6 56.48 0.503 7.3 1.69 4.79
11/6/2022 12:30:00 PM 13.63 56.534 0.503 7.33 1.66 5.28
11/6/2022 12:45:00 PM 13.72 56.696 0.501 7.34 1.71 5.28
11/6/2022 1:00:00 PM 13.7 56.66 0.512 7.32 1.69 5.42
11/6/2022 1:15:00 PM 13.81 56.858 0.502 7.32 1.54 5.19
11/6/2022 1:30:00 PM 13.71 56.678 0.506 7.34 1.62 5.59
11/6/2022 1:45:00 PM 13.98 57.164 0.492 7.33 2.16 5.32
11/6/2022 2:00:00 PM 14.24 57.632 0.486 7.37 1.52 5.79
11/6/2022 2:15:00 PM 14.04 57.272 0.487 7.36 1.58 5.17
11/6/2022 2:30:00 PM 14.09 57.362 0.498 7.37 2.17 6.26
11/6/2022 2:45:00 PM 14.05 57.29 0.508 7.36 1.59 6.01
11/6/2022 3:00:00 PM 14.26 57.668 0.499 7.4 1.65 6.29
11/6/2022 3:15:00 PM 14.3 57.74 0.493 7.37 1.63 5.95
11/6/2022 3:30:00 PM 14.5 58.1 0.492 7.41 1.55 6.24
11/6/2022 3:45:00 PM 14.51 58.118 0.521 7.41 2.32 6.53
11/6/2022 4:00:00 PM 14.57 58.226 0.499 7.39 1.45 6.62
11/6/2022 4:15:00 PM 14.62 58.316 0.498 7.4 1.52 6.44
11/6/2022 4:30:00 PM 14.54 58.172 0.502 7.42 1.54 6.76
11/6/2022 4:45:00 PM 14.46 58.028 0.498 7.41 1.63 7.2
11/6/2022 5:00:00 PM 14.68 58.424 0.488 7.47 1.54 7.05
11/6/2022 5:15:00 PM 14.46 58.028 0.495 7.45 1.89 7.46
11/6/2022 5:30:00 PM 14.76 58.568 0.486 7.46 1.68 7.34
11/6/2022 5:45:00 PM 14.53 58.154 0.499 7.45 1.67 7.16
11/6/2022 6:00:00 PM 14.42 57.956 0.498 7.44 1.76 7.28
11/6/2022 6:15:00 PM 14.67 58.406 0.484 7.66 1.59 8.3
11/6/2022 6:30:00 PM 14.64 58.352 0.491 7.43 2.1 6.97
11/6/2022 6:45:00 PM 14.74 58.532 0.494 7.43 1.71 7.12
11/6/2022 7:00:00 PM 14.6 58.28 0.507 7.4 1.52 6.97
11/6/2022 7:15:00 PM 14.72 58.496 0.498 7.41 1.59 6.98
11/6/2022 7:30:00 PM 14.64 58.352 0.5 7.45 1.54 7.19
11/6/2022 7:45:00 PM 14.64 58.352 0.503 7.45 1.58 6.82
11/6/2022 8:00:00 PM 14.54 58.172 0.486 7.45 1.64 6.52
11/6/2022 8:15:00 PM 14.54 58.172 0.502 7.47 1.76 6.95
11/6/2022 8:30:00 PM 14.54 58.172 0.498 7.44 1.88 6.74
11/6/2022 8:45:00 PM 14.51 58.118 0.476 7.42 2.37 6.36
11/6/2022 9:00:00 PM 14.5 58.1 0.506 7.38 2.01 6.13
11/6/2022 9:15:00 PM 14.53 58.154 0.49 7.42 1.7 6.9
11/6/2022 9:30:00 PM 14.65 58.37 0.493 7.4 1.6 6.4
11/6/2022 9:45:00 PM 14.6 58.28 0.476 7.44 2.1 6.59
11/6/2022 10:00:00 PM 14.48 58.064 0.485 7.42 1.96 6.24
11/6/2022 10:15:00 PM 14.42 57.956 0.483 7.4 1.67 6.01
11/6/2022 10:30:00 PM 14.39 57.902 0.502 7.4 2.04 5.26
11/6/2022 10:45:00 PM 14.58 58.244 0.489 7.38 2.71 5.96
11/6/2022 11:00:00 PM 14.41 57.938 0.478 7.41 2.23 5.76
11/6/2022 11:15:00 PM 14.26 57.668 0.491 7.37 1.95 5.32
11/6/2022 11:30:00 PM 14.19 57.542 0.503 7.34 2.22 5.22
11/6/2022 11:45:00 PM 14.13 57.434 0.504 7.33 1.89 5.05
11/7/2022 12:00:00 AM 14.06 57.308 0.502 7.33 1.85 4.51
11/7/2022 12:15:00 AM 13.95 57.11 0.509 7.33 1.97 4.64
11/7/2022 12:30:00 AM 13.81 56.858 0.521 7.31 1.99 4.89
11/7/2022 12:45:00 AM 13.87 56.966 0.522 7.32 1.95 4.43
11/7/2022 1:00:00 AM 13.9 57.02 0.518 7.31 1.71 4.51
11/7/2022 1:15:00 AM 14.03 57.254 0.513 7.3 1.7 4.44
11/7/2022 1:30:00 AM 14.06 57.308 0.496 7.31 1.92 4.67
11/7/2022 1:45:00 AM 13.94 57.092 0.518 7.3 2.04 4.69
11/7/2022 2:00:00 AM 13.92 57.056 0.506 7.29 2.07 4.27
11/7/2022 2:15:00 AM 14.02 57.236 0.501 7.29 2.33 4.45
11/7/2022 2:30:00 AM 14.04 57.272 0.518 7.31 2.07 4.57
11/7/2022 2:45:00 AM 13.92 57.056 0.513 7.27 2.05 4.24
11/7/2022 3:00:00 AM 13.91 57.038 0.495 7.29 2.22 4.44
11/7/2022 3:15:00 AM 13.89 57.002 0.503 7.29 2.5 4.21
11/7/2022 3:30:00 AM 13.94 57.092 0.501 7.27 2.15 4.17
11/7/2022 3:45:00 AM 14.03 57.254 0.502 7.28 2.38 4.14
11/7/2022 4:00:00 AM 13.92 57.056 0.501 7.34 2.11 4.42
11/7/2022 4:15:00 AM 14.03 57.254 0.494 7.29 2.02 4.38
11/7/2022 4:30:00 AM 14.14 57.452 0.494 7.28 2.13 4.38
11/7/2022 4:45:00 AM 14.08 57.344 0.475 7.3 2.03 4.27
11/7/2022 5:00:00 AM 14.09 57.362 0.482 7.31 1.89 4.59
11/7/2022 5:15:00 AM 14.17 57.506 0.478 7.3 1.94 4.26
11/7/2022 5:30:00 AM 14.14 57.452 0.476 7.29 1.82 4.28
11/7/2022 5:45:00 AM 14.11 57.398 0.477 7.29 1.89 4.51
11/7/2022 6:00:00 AM 14.02 57.236 0.487 7.3 1.98 4.38
11/7/2022 6:15:00 AM 14.1 57.38 0.472 7.28 1.95 4.31
11/7/2022 6:30:00 AM 13.91 57.038 0.499 7.27 2.12 3.98
11/7/2022 6:45:00 AM 13.99 57.182 0.486 7.28 1.68 4.07
11/7/2022 7:00:00 AM 13.87 56.966 0.479 7.3 2.12 4.56
11/7/2022 7:15:00 AM 13.8 56.84 0.477 7.3 2.13 4.09
11/7/2022 7:30:00 AM 13.73 56.714 0.486 7.28 2.47 4.32
11/7/2022 7:45:00 AM 13.69 56.642 0.497 7.27 2.22 3.92
11/7/2022 8:00:00 AM 13.55 56.39 0.494 7.29 2.28 4.07
11/7/2022 8:15:00 AM 13.63 56.534 0.474 7.29 4.27 4.05
11/7/2022 8:30:00 AM 13.74 56.732 0.461 7.29 12.2 3.95
11/7/2022 8:45:00 AM 13.51 56.318 0.495 7.26 4.28 3.96
11/7/2022 9:00:00 AM 13.27 55.886 0.506 7.27 2.45 3.93
11/7/2022 9:15:00 AM 13.45 56.21 0.477 7.27 2.45 4.12
11/7/2022 9:30:00 AM 13.35 56.03 0.484 7.28 2.17 4.22
11/7/2022 9:45:00 AM 13.37 56.066 0.494 7.27 2.09 4.15
11/7/2022 10:00:00 AM 13.37 56.066 0.482 7.26 2.15 4.08
11/7/2022 10:15:00 AM 13.39 56.102 0.483 7.3 2.76 4.32
11/7/2022 10:30:00 AM 13.35 56.03 0.478 7.3 2.38 4.45
11/7/2022 10:45:00 AM 13.17 55.706 0.49 7.33 1.94 4.53
11/7/2022 11:00:00 AM 13.25 55.85 0.479 7.32 2.09 4.68
11/7/2022 11:15:00 AM 13.21 55.778 0.482 7.33 1.94 4.54
11/7/2022 11:30:00 AM 13.24 55.832 0.491 7.31 2.02 4.77
11/7/2022 11:45:00 AM 13.22 55.796 0.494 7.35 2.13 4.96
11/7/2022 12:00:00 PM 13.26 55.868 0.485 7.37 2.02 5.28
11/7/2022 12:15:00 PM 13.29 55.922 0.468 7.42 2.32 6.38
11/7/2022 12:30:00 PM 13.23 55.814 0.486 7.41 2.14 6.06
11/7/2022 12:45:00 PM 13.22 55.796 0.474 7.41 2.13 6.46
11/7/2022 1:00:00 PM 13.36 56.048 0.466 7.44 1.87 6.75
11/7/2022 1:15:00 PM 13.33 55.994 0.467 7.42 1.71 6.57
11/7/2022 1:30:00 PM 13.34 56.012 0.45 7.45 1.82 7.03
11/7/2022 1:45:00 PM 13.32 55.976 0.478 7.47 1.64 6.44
11/7/2022 2:00:00 PM 13.24 55.832 0.501 7.44 1.79 6.8
11/7/2022 2:15:00 PM 13.4 56.12 0.473 7.45 1.75 6.66
11/7/2022 2:30:00 PM 13.29 55.922 0.48 7.46 1.82 7.08
11/7/2022 2:45:00 PM 13.52 56.336 0.465 7.49 1.67 7.54
11/7/2022 3:00:00 PM 13.43 56.174 0.472 7.44 3.31 6.44
11/7/2022 3:15:00 PM 13.28 55.904 0.471 7.48 1.84 7.05
11/7/2022 3:30:00 PM 13.23 55.814 0.481 7.44 2.13 6.96
11/7/2022 3:45:00 PM 13.2 55.76 0.486 7.44 1.72 6.88
11/7/2022 4:00:00 PM 13.35 56.03 0.461 7.48 1.91 7.73
11/7/2022 4:15:00 PM 13.1 55.58 0.487 7.44 1.91 7.04
11/7/2022 4:30:00 PM 13.2 55.76 0.476 7.47 1.88 6.87
11/7/2022 4:45:00 PM 13.11 55.598 0.499 7.4 2.28 6.09
11/7/2022 5:00:00 PM 13.16 55.688 0.485 7.46 1.94 6.97
11/7/2022 5:15:00 PM 12.96 55.328 0.525 7.66 1.87 8.67
11/7/2022 5:30:00 PM 12.85 55.13 0.503 7.41 1.98 5.91
11/7/2022 5:45:00 PM 12.83 55.094 0.498 7.42 2.46 5.94
11/7/2022 6:00:00 PM 12.74 54.932 0.486 7.4 2.01 6.06
11/7/2022 6:15:00 PM 12.74 54.932 0.492 7.42 2.11 5.7
11/7/2022 6:30:00 PM 12.7 54.86 0.494 7.42 1.88 6.06
11/7/2022 6:45:00 PM 12.57 54.626 0.512 7.37 1.71 5.52
11/7/2022 7:00:00 PM 12.57 54.626 0.495 7.38 1.42 5.85
11/7/2022 7:15:00 PM 12.59 54.662 0.498 7.36 1.32 5.53
11/7/2022 7:30:00 PM 12.42 54.356 0.512 7.35 1.47 5.3
11/7/2022 7:45:00 PM 12.49 54.482 0.496 7.36 1.72 6.17
11/7/2022 8:00:00 PM 12.35 54.23 0.504 7.33 2.38 4.82
11/7/2022 8:15:00 PM 12.39 54.302 0.493 7.37 1.7 5.73
11/7/2022 8:30:00 PM 12.29 54.122 0.505 7.36 2.15 5.39
11/7/2022 8:45:00 PM 12.21 53.978 0.515 7.31 1.52 4.31
11/7/2022 9:00:00 PM 12.17 53.906 0.515 7.32 1.65 4.64
11/7/2022 9:15:00 PM 12.17 53.906 0.503 7.35 1.79 4.39
11/7/2022 9:30:00 PM 12.09 53.762 0.513 7.31 1.5 4.3
11/7/2022 9:45:00 PM 12.07 53.726 0.499 7.36 1.86 4.68
11/7/2022 10:00:00 PM 12.04 53.672 0.474 7.42 2.97 5.24
11/7/2022 10:15:00 PM 11.99 53.582 0.503 7.37 2.09 4.38
11/7/2022 10:30:00 PM 11.95 53.51 0.511 7.33 1.83 4.42
11/7/2022 10:45:00 PM 11.93 53.474 0.503 7.4 1.76 4.24
11/7/2022 11:00:00 PM 11.92 53.456 0.499 7.31 1.87 4.17
11/7/2022 11:15:00 PM 11.88 53.384 0.536 7.29 1.47 3.47
11/7/2022 11:30:00 PM 11.84 53.312 0.492 7.33 1.58 4.18
11/7/2022 11:45:00 PM 11.81 53.258 0.492 7.29 1.98 4.06
11/8/2022 12:00:00 AM 11.79 53.222 0.515 7.3 1.56 3.55
11/8/2022 12:15:00 AM 11.76 53.168 0.515 7.26 1.83 3.66
11/8/2022 12:30:00 AM 11.75 53.15 0.53 7.26 1.97 3.32
11/8/2022 12:45:00 AM 11.72 53.096 0.526 7.28 1.65 3.65
11/8/2022 1:00:00 AM 11.67 53.006 0.498 7.29 2.68 3.83
11/8/2022 1:15:00 AM 11.67 53.006 0.511 7.3 2.01 3.72
11/8/2022 1:30:00 AM 11.67 53.006 0.518 7.29 1.47 3.72
11/8/2022 1:45:00 AM 11.63 52.934 0.516 7.3 1.6 3.48
11/8/2022 2:00:00 AM 11.63 52.934 0.537 7.22 3.16 2.87
11/8/2022 2:15:00 AM 11.6 52.88 0.523 7.29 2.19 3.63
11/8/2022 2:30:00 AM 11.63 52.934 0.54 7.23 1.65 2.67
11/8/2022 2:45:00 AM 11.54 52.772 0.512 7.26 1.54 3.42
11/8/2022 3:00:00 AM 11.5 52.7 0.511 7.27 1.8 3.65
11/8/2022 3:15:00 AM 11.56 52.808 0.526 7.26 2.18 2.91
11/8/2022 3:30:00 AM 11.51 52.718 0.522 7.28 1.56 3.09
11/8/2022 3:45:00 AM 11.44 52.592 0.501 7.29 1.93 3.51
11/8/2022 4:00:00 AM 11.37 52.466 0.501 7.36 1.87 3.59
11/8/2022 4:15:00 AM 11.4 52.52 0.529 7.28 2.03 3.06
11/8/2022 4:30:00 AM 11.32 52.376 0.509 7.31 1.98 3.69
11/8/2022 4:45:00 AM 11.43 52.574 0.54 7.26 1.86 2.65
11/8/2022 5:00:00 AM 11.3 52.34 0.523 7.26 1.55 2.9
11/8/2022 5:15:00 AM 11.33 52.394 0.53 7.28 1.49 3.18
11/8/2022 5:30:00 AM 11.35 52.43 0.53 7.24 1.47 2.68
11/8/2022 5:45:00 AM 11.23 52.214 0.521 7.27 1.63 3.12
11/8/2022 6:00:00 AM 11.25 52.25 0.532 7.29 1.45 3.02
11/8/2022 6:15:00 AM 11.07 51.926 0.498 7.25 6.44 3.31
11/8/2022 6:30:00 AM 11.13 52.034 0.511 7.24 6.23 3.14
11/8/2022 6:45:00 AM 11 51.8 0.473 7.33 2.04 3.74
11/8/2022 7:00:00 AM 11.06 51.908 0.489 7.31 2.09 3.22
11/8/2022 7:15:00 AM 11 51.8 0.507 7.3 1.79 3.58
11/8/2022 7:30:00 AM 10.74 51.332 0.444 7.37 1.91 4.75
11/8/2022 7:45:00 AM 10.62 51.116 0.445 7.37 2.56 5.31
11/8/2022 8:00:00 AM 10.67 51.206 0.466 7.33 2.55 4.7
11/8/2022 8:15:00 AM 10.6 51.08 0.455 7.34 3.81 5.01
11/8/2022 8:30:00 AM 10.52 50.936 0.442 7.35 2.63 5.37
11/8/2022 8:45:00 AM 10.5 50.9 0.444 7.35 4.91 5.56
11/8/2022 9:00:00 AM 10.48 50.864 0.442 7.36 2.15 5.69
11/8/2022 9:15:00 AM 10.55 50.99 0.446 7.37 2.47 5.41
11/8/2022 9:30:00 AM 10.52 50.936 0.449 7.36 2.51 5.62
11/8/2022 9:45:00 AM 10.34 50.612 0.419 7.41 1.97 6.35
11/8/2022 10:00:00 AM 10.5 50.9 0.452 7.36 1.68 5.28
11/8/2022 10:15:00 AM 10.48 50.864 0.442 7.43 2.08 5.76
11/8/2022 10:30:00 AM 10.42 50.756 0.42 7.46 2.02 6.67
11/8/2022 10:45:00 AM 10.54 50.972 0.452 7.42 1.9 5.89
11/8/2022 11:00:00 AM 10.64 51.152 0.448 7.45 2.3 6.59
11/8/2022 11:15:00 AM 10.91 51.638 0.489 7.4 3.58 4.99
11/8/2022 11:30:00 AM 10.81 51.458 0.465 7.47 2 6.17
11/8/2022 11:45:00 AM 10.77 51.386 0.492 7.41 1.63 5.83
11/8/2022 12:00:00 PM 10.89 51.602 0.473 7.43 2.02 5.8
11/8/2022 12:15:00 PM 10.91 51.638 0.463 7.42 2.32 5.97
11/8/2022 12:30:00 PM 11.02 51.836 0.489 7.4 1.51 5.05
11/8/2022 12:45:00 PM 11.13 52.034 0.503 7.33 2.88 4.28
11/8/2022 1:00:00 PM 11.1 51.98 0.504 7.41 2.41 4.18
11/8/2022 1:15:00 PM 11.29 52.322 0.527 7.33 2.14 3.95
11/8/2022 1:30:00 PM 11.35 52.43 0.539 7.32 1.71 3.22
11/8/2022 1:45:00 PM 11.4 52.52 0.527 7.31 1.68 3.49
11/8/2022 2:00:00 PM 11.32 52.376 0.505 7.4 1.57 4.04
11/8/2022 2:15:00 PM 11.38 52.484 0.535 7.32 1.72 3.28
11/8/2022 2:30:00 PM 11.33 52.394 0.508 7.42 1.69 4.67
11/8/2022 2:45:00 PM 11.42 52.556 0.536 7.32 1.64 3.46
11/8/2022 3:00:00 PM 11.32 52.376 0.539 7.54 1.55 3.32
11/8/2022 3:15:00 PM 11.31 52.358 0.512 7.36 2.26 4.81
11/8/2022 3:30:00 PM 11.33 52.394 0.511 7.44 1.69 5.34
11/8/2022 3:45:00 PM 11.27 52.286 0.51 7.36 2.88 4.98
11/8/2022 4:00:00 PM 11.27 52.286 0.511 7.35 1.62 4.37
11/8/2022 4:15:00 PM 11.26 52.268 0.511 7.4 1.64 4.58
11/8/2022 4:30:00 PM 11.31 52.358 0.523 7.43 1.71 4.55
11/8/2022 4:45:00 PM 11.23 52.214 0.527 7.38 1.73 3.78
11/8/2022 5:00:00 PM 11.18 52.124 0.528 7.32 1.5 3.61
11/8/2022 5:15:00 PM 11.2 52.16 0.517 7.34 1.65 3.71
11/8/2022 5:30:00 PM 11.17 52.106 0.516 7.39 1.43 3.77
11/8/2022 5:45:00 PM 11.11 51.998 0.515 7.39 1.46 3.83
11/8/2022 6:00:00 PM 11.07 51.926 0.513 7.36 1.47 3.7
11/8/2022 6:15:00 PM 11.15 52.07 0.535 7.36 1.92 3.31
11/8/2022 6:30:00 PM 10.98 51.764 0.52 7.35 1.58 3.52
11/8/2022 6:45:00 PM 10.85 51.53 0.498 7.42 1.88 4.86
11/8/2022 7:00:00 PM 10.71 51.278 0.496 7.42 1.92 5.62
11/8/2022 7:15:00 PM 10.63 51.134 0.478 7.4 1.92 5.67
11/8/2022 7:30:00 PM 10.46 50.828 0.467 7.48 1.75 6.89
11/8/2022 7:45:00 PM 10.35 50.63 0.444 7.47 1.92 6.72
11/8/2022 8:00:00 PM 10.41 50.738 0.476 7.5 1.69 6.4
11/8/2022 8:15:00 PM 10.13 50.234 0.437 7.51 2.09 7.64
11/8/2022 8:30:00 PM 10.14 50.252 0.457 7.46 2.11 6.94
11/8/2022 8:45:00 PM 10.06 50.108 0.458 7.46 2.37 6.65
11/8/2022 9:00:00 PM 10.05 50.09 0.475 7.39 2.36 6.33
11/8/2022 9:15:00 PM 10.08 50.144 0.495 7.36 2.28 5.82
11/8/2022 9:30:00 PM 10 50 0.487 7.42 2.19 5.92
11/8/2022 9:45:00 PM 9.69 49.442 0.443 7.47 2.48 7
11/8/2022 10:00:00 PM 9.53 49.154 0.423 7.51 2.25 8.11
11/8/2022 10:15:00 PM 9.41 48.938 0.413 7.51 2.17 8
11/8/2022 10:30:00 PM 9.55 49.19 0.459 7.44 2.17 6.79
11/8/2022 10:45:00 PM 9.41 48.938 0.454 7.45 2.32 7.23
11/8/2022 11:00:00 PM 9.13 48.434 0.406 7.51 2.35 7.85
11/8/2022 11:15:00 PM 9.09 48.362 0.411 7.5 2.49 8.06
11/8/2022 11:30:00 PM 9.14 48.452 0.429 7.48 2.35 7.55
11/8/2022 11:45:00 PM 8.92 48.056 0.402 7.52 2.22 8.18
11/9/2022 12:00:00 AM 8.89 48.002 0.414 7.51 2.47 8.15
11/9/2022 12:15:00 AM 8.88 47.984 0.431 7.5 2.19 8.02
11/9/2022 12:30:00 AM 8.8 47.84 0.426 7.5 2.03 7.95
11/9/2022 12:45:00 AM 8.75 47.75 0.423 7.5 2.17 8.04
11/9/2022 1:00:00 AM 8.7 47.66 0.437 7.49 2.35 7.9
11/9/2022 1:15:00 AM 8.66 47.588 0.41 7.49 2.22 7.64
11/9/2022 1:30:00 AM 8.52 47.336 0.416 7.49 2.1 8.01
11/9/2022 1:45:00 AM 8.49 47.282 0.416 7.49 2.26 8.04
11/9/2022 2:00:00 AM 8.48 47.264 0.413 7.49 2.09 7.97
11/9/2022 2:15:00 AM 8.4 47.12 0.406 7.48 2.02 7.96
11/9/2022 2:30:00 AM 8.36 47.048 0.413 7.47 2.04 7.92
11/9/2022 2:45:00 AM 8.27 46.886 0.426 7.48 1.94 7.99
11/9/2022 3:00:00 AM 8.21 46.778 0.413 7.46 2.36 7.97
11/9/2022 3:15:00 AM 8.18 46.724 0.411 7.46 2.02 7.96
11/9/2022 3:30:00 AM 8.09 46.562 0.411 7.47 2.06 8
11/9/2022 3:45:00 AM 8.06 46.508 0.42 7.47 1.97 8
11/9/2022 4:00:00 AM 8.08 46.544 0.44 7.46 1.99 7.92
11/9/2022 4:15:00 AM 7.93 46.274 0.41 7.46 1.9 8.01
11/9/2022 4:30:00 AM 7.89 46.202 0.407 7.46 1.89 8.02
11/9/2022 4:45:00 AM 7.81 46.058 0.411 7.45 1.94 7.97
11/9/2022 5:00:00 AM 7.8 46.04 0.414 7.45 1.98 8
11/9/2022 5:15:00 AM 7.83 46.094 0.431 7.44 1.85 7.92
11/9/2022 5:30:00 AM 7.71 45.878 0.419 7.44 1.95 7.82
11/9/2022 5:45:00 AM 7.69 45.842 0.43 7.43 2.28 7.75
11/9/2022 6:00:00 AM 7.68 45.824 0.426 7.43 2.26 7.84
11/9/2022 6:15:00 AM 7.58 45.644 0.417 7.44 2.06 7.92
11/9/2022 6:30:00 AM 7.5 45.5 0.42 7.44 2.05 7.86
11/9/2022 6:45:00 AM 7.48 45.464 0.416 7.42 2.51 7.7
11/9/2022 7:00:00 AM 7.4 45.32 0.41 7.43 2.07 7.89
11/9/2022 7:15:00 AM 7.36 45.248 0.418 7.43 2.19 7.95
11/9/2022 7:30:00 AM 7.32 45.176 0.414 7.43 2.29 7.83
11/9/2022 7:45:00 AM 7.24 45.032 0.416 7.43 2.05 8.07
11/9/2022 8:00:00 AM 7.25 45.05 0.414 7.43 2.52 8.13
11/9/2022 8:15:00 AM 7.17 44.906 0.411 7.45 2.19 8.25
11/9/2022 8:30:00 AM 7.15 44.87 0.413 7.45 2.14 8.28
11/9/2022 8:45:00 AM 7.14 44.852 0.413 7.45 2.24 8.3
11/9/2022 9:00:00 AM 7.15 44.87 0.418 7.45 2.08 8.32
11/9/2022 9:15:00 AM 7.12 44.816 0.416 7.46 2.15 8.47
11/9/2022 9:30:00 AM 7.16 44.888 0.425 7.46 2.03 8.44
11/9/2022 9:45:00 AM 7.18 44.924 0.417 7.46 2.07 8.53
11/9/2022 10:00:00 AM 7.19 44.942 0.422 7.47 2.07 8.6
11/9/2022 10:15:00 AM 7.32 45.176 0.426 7.47 2.12 8.36
11/9/2022 10:30:00 AM 7.27 45.086 0.415 7.49 2.14 8.64
11/9/2022 10:45:00 AM 7.38 45.284 0.419 7.5 2.11 8.85
11/9/2022 11:00:00 AM 7.47 45.446 0.423 7.5 2.12 8.97
11/9/2022 11:15:00 AM 7.6 45.68 0.427 7.52 2.09 9.14
11/9/2022 11:30:00 AM 7.59 45.662 0.415 7.53 2.02 9.23
11/9/2022 11:45:00 AM 7.73 45.914 0.426 7.53 2.03 9.3
11/9/2022 12:00:00 PM 7.79 46.022 0.424 7.54 1.94 9.47
11/9/2022 12:15:00 PM 7.94 46.292 0.428 7.55 1.93 9.3
11/9/2022 12:30:00 PM 7.93 46.274 0.42 7.57 1.93 9.69
11/9/2022 12:45:00 PM 8.03 46.454 0.424 7.57 1.89 9.78
11/9/2022 1:00:00 PM 8.17 46.706 0.431 7.57 1.83 9.8
11/9/2022 1:15:00 PM 8.21 46.778 0.427 7.55 1.86 9.31
11/9/2022 1:30:00 PM 8.31 46.958 0.43 7.58 1.88 9.63
11/9/2022 1:45:00 PM 8.46 47.228 0.443 7.53 1.91 9.22
11/9/2022 2:00:00 PM 8.48 47.264 0.444 7.6 1.78 9.45
11/9/2022 2:15:00 PM 8.52 47.336 0.424 7.64 1.87 10.05
11/9/2022 2:30:00 PM 8.65 47.57 0.434 7.61 1.91 9.57
11/9/2022 2:45:00 PM 8.81 47.858 0.478 7.52 1.71 8.32
11/9/2022 3:00:00 PM 8.85 47.93 0.466 7.57 1.95 7.98
11/9/2022 3:15:00 PM 8.89 48.002 0.452 7.54 1.79 8.47
11/9/2022 3:30:00 PM 8.9 48.02 0.447 7.59 1.94 9.11
11/9/2022 3:45:00 PM 8.82 47.876 0.43 7.63 1.93 9.58
11/9/2022 4:00:00 PM 8.9 48.02 0.445 7.58 1.84 9.27
11/9/2022 4:15:00 PM 8.96 48.128 0.45 7.62 1.87 9.57
11/9/2022 4:30:00 PM 8.88 47.984 0.431 7.66 1.86 10.27
11/9/2022 4:45:00 PM 8.94 48.092 0.451 7.62 2.02 9.9
11/9/2022 5:00:00 PM 8.96 48.128 0.435 7.62 3.41 9.69
11/9/2022 5:15:00 PM 8.95 48.11 0.434 7.62 2.67 9.61
11/9/2022 5:30:00 PM 8.96 48.128 0.443 7.59 2.08 9.63
11/9/2022 5:45:00 PM 8.95 48.11 0.426 7.61 1.97 9.87
11/9/2022 6:00:00 PM 9.01 48.218 0.462 7.6 1.78 9.65
11/9/2022 6:15:00 PM 9.1 48.38 0.469 7.55 2 8.67
11/9/2022 6:30:00 PM 8.94 48.092 0.45 7.6 1.86 9.22
11/9/2022 6:45:00 PM 8.99 48.182 0.46 7.56 2.01 8.95
11/9/2022 7:00:00 PM 8.92 48.056 0.452 7.6 1.89 8.9
11/9/2022 7:15:00 PM 8.96 48.128 0.471 7.57 1.88 8.87
11/9/2022 7:30:00 PM 8.79 47.822 0.426 7.62 2.02 9.47
11/9/2022 7:45:00 PM 8.78 47.804 0.442 7.61 2.25 9.23
11/9/2022 8:00:00 PM 8.69 47.642 0.437 7.61 1.96 9.52
11/9/2022 8:15:00 PM 8.66 47.588 0.432 7.59 1.97 9.45
11/9/2022 8:30:00 PM 8.58 47.444 0.437 7.59 2.03 9.49
11/9/2022 8:45:00 PM 8.61 47.498 0.451 7.58 1.94 9.37
11/9/2022 9:00:00 PM 8.52 47.336 0.435 7.58 1.9 9.29
11/9/2022 9:15:00 PM 8.43 47.174 0.432 7.57 1.91 9.04
11/9/2022 9:30:00 PM 8.33 46.994 0.427 7.58 1.89 9.18
11/9/2022 9:45:00 PM 8.35 47.03 0.443 7.56 1.88 8.89
11/9/2022 10:00:00 PM 8.25 46.85 0.432 7.57 1.98 9.11
11/9/2022 10:15:00 PM 8.24 46.832 0.441 7.55 1.92 8.87
11/9/2022 10:30:00 PM 8.17 46.706 0.432 7.55 2.21 8.9
11/9/2022 10:45:00 PM 8.02 46.436 0.429 7.55 2.3 8.95
11/9/2022 11:00:00 PM 7.93 46.274 0.437 7.55 2.1 8.99
11/9/2022 11:15:00 PM 7.9 46.22 0.429 7.55 2.11 8.87
11/9/2022 11:30:00 PM 7.86 46.148 0.445 7.54 2.16 8.74
11/9/2022 11:45:00 PM 7.77 45.986 0.432 7.54 1.9 8.71
11/10/2022 12:00:00 AM 7.65 45.77 0.419 7.54 1.97 8.74
11/10/2022 12:15:00 AM 7.59 45.662 0.427 7.53 1.98 8.71
11/10/2022 12:30:00 AM 7.61 45.698 0.439 7.52 1.96 8.61
11/10/2022 12:45:00 AM 7.63 45.734 0.432 7.52 1.94 8.53
11/10/2022 1:00:00 AM 7.49 45.482 0.428 7.52 2.19 8.63
11/10/2022 1:15:00 AM 7.52 45.536 0.443 7.51 2.16 8.59
11/10/2022 1:30:00 AM 7.46 45.428 0.448 7.51 2.02 8.51
11/10/2022 1:45:00 AM 7.38 45.284 0.435 7.51 2 8.47
11/10/2022 2:00:00 AM 7.33 45.194 0.424 7.51 2.08 8.6
11/10/2022 2:15:00 AM 7.27 45.086 0.425 7.51 1.98 8.62
11/10/2022 2:30:00 AM 7.23 45.014 0.429 7.51 2.31 8.58
11/10/2022 2:45:00 AM 7.22 44.996 0.434 7.51 2.32 8.43
11/10/2022 3:00:00 AM 7.25 45.05 0.431 7.5 2.13 8.42
11/10/2022 3:15:00 AM 7.1 44.78 0.424 7.51 2.13 8.56
11/10/2022 3:30:00 AM 7.15 44.87 0.43 7.5 2.09 8.45
11/10/2022 3:45:00 AM 7.1 44.78 0.435 7.5 2.09 8.53
11/10/2022 4:00:00 AM 7.07 44.726 0.442 7.49 1.99 8.38
11/10/2022 4:15:00 AM 7.1 44.78 0.433 7.5 4.08 8.42
11/10/2022 4:30:00 AM 7.1 44.78 0.436 7.49 2 8.39
11/10/2022 4:45:00 AM 6.95 44.51 0.434 7.49 2.04 8.36
11/10/2022 5:00:00 AM 6.89 44.402 0.421 7.49 11.48 8.32
11/10/2022 5:15:00 AM 6.86 44.348 0.432 7.49 2.18 8.43
11/10/2022 5:30:00 AM 6.89 44.402 0.433 7.48 1.96 8.42
11/10/2022 5:45:00 AM 6.86 44.348 0.426 7.48 1.89 8.38
11/10/2022 6:00:00 AM 6.79 44.222 0.432 7.49 2.04 8.48
11/10/2022 6:15:00 AM 6.8 44.24 0.437 7.48 1.93 8.35
11/10/2022 6:30:00 AM 6.72 44.096 0.428 7.49 2.2 8.46
11/10/2022 6:45:00 AM 6.67 44.006 0.428 7.48 2.17 8.4
11/10/2022 7:00:00 AM 6.64 43.952 0.422 7.49 3.67 8.46
11/10/2022 7:15:00 AM 6.62 43.916 0.429 7.49 2.03 8.49
11/10/2022 7:30:00 AM 6.62 43.916 0.427 7.48 2.02 8.48
11/10/2022 7:45:00 AM 6.58 43.844 0.43 7.49 2.06 8.5
11/10/2022 8:00:00 AM 6.59 43.862 0.427 7.48 2.88 8.53
11/10/2022 8:15:00 AM 6.58 43.844 0.426 7.48 2.32 8.52
11/10/2022 8:30:00 AM 6.6 43.88 0.43 7.48 2.84 8.44
11/10/2022 8:45:00 AM 6.57 43.826 0.429 7.49 2.43 8.62
11/10/2022 9:00:00 AM 6.56 43.808 0.427 7.49 2.23 8.69
11/10/2022 9:15:00 AM 6.61 43.898 0.432 7.49 2.21 8.71
11/10/2022 9:30:00 AM 6.61 43.898 0.425 7.5 2.29 8.83
11/10/2022 9:45:00 AM 6.69 44.042 0.431 7.5 2.05